<?xml version="1.0" encoding="UTF-8" standalone="no" ?>
<gpx xmlns="http://www.topografix.com/GPX/1/1" xmlns:xsi="http://www.w3.org/2001/XMLSchema-instance" xsi:schemaLocation="http://www.topografix.com/GPX/1/1 http://www.topografix.com/GPX/1/1/gpx.xsd" version="1.1" creator="VisuGPX - https://www.visugpx.com">
  <metadata>
    <name>Raid 80 km Les boucles Longuéennes 2018</name>
    <desc><![CDATA[Délices des Boucles Longéennes 2018]]></desc>
  </metadata>
  <trk>
    <name><![CDATA[20180403180150-MoBQJ]]></name>
    <trkseg>
      <trkpt lat="47.3336" lon="0.06376">
        <ele>109</ele>
        <time>2018-03-04T09:44:14Z</time>
      </trkpt>
      <trkpt lat="47.33374" lon="0.06383">
        <ele>108</ele>
        <time>2018-03-04T09:44:18Z</time>
      </trkpt>
      <trkpt lat="47.33378" lon="0.06384">
        <ele>108</ele>
        <time>2018-03-04T09:44:19Z</time>
      </trkpt>
      <trkpt lat="47.3339" lon="0.06389">
        <ele>108</ele>
        <time>2018-03-04T09:44:22Z</time>
      </trkpt>
      <trkpt lat="47.334" lon="0.06392">
        <ele>107</ele>
        <time>2018-03-04T09:44:24Z</time>
      </trkpt>
      <trkpt lat="47.33404" lon="0.06394">
        <ele>107</ele>
        <time>2018-03-04T09:44:25Z</time>
      </trkpt>
      <trkpt lat="47.33412" lon="0.06396">
        <ele>107</ele>
        <time>2018-03-04T09:44:27Z</time>
      </trkpt>
      <trkpt lat="47.3342" lon="0.06401">
        <ele>104</ele>
        <time>2018-03-04T09:44:30Z</time>
      </trkpt>
      <trkpt lat="47.33422" lon="0.06403">
        <ele>104</ele>
        <time>2018-03-04T09:44:31Z</time>
      </trkpt>
      <trkpt lat="47.33427" lon="0.06406">
        <ele>104</ele>
        <time>2018-03-04T09:44:33Z</time>
      </trkpt>
      <trkpt lat="47.33433" lon="0.06413">
        <ele>104</ele>
        <time>2018-03-04T09:44:36Z</time>
      </trkpt>
      <trkpt lat="47.33441" lon="0.06423">
        <ele>103</ele>
        <time>2018-03-04T09:44:40Z</time>
      </trkpt>
      <trkpt lat="47.33441" lon="0.06427">
        <ele>103</ele>
        <time>2018-03-04T09:44:41Z</time>
      </trkpt>
      <trkpt lat="47.33442" lon="0.0644">
        <ele>102</ele>
        <time>2018-03-04T09:44:44Z</time>
      </trkpt>
      <trkpt lat="47.33442" lon="0.0645">
        <ele>102</ele>
        <time>2018-03-04T09:44:47Z</time>
      </trkpt>
      <trkpt lat="47.3344" lon="0.06465">
        <ele>102</ele>
        <time>2018-03-04T09:44:51Z</time>
      </trkpt>
      <trkpt lat="47.33439" lon="0.06475">
        <ele>102</ele>
        <time>2018-03-04T09:44:54Z</time>
      </trkpt>
      <trkpt lat="47.33438" lon="0.06486">
        <ele>102</ele>
        <time>2018-03-04T09:44:57Z</time>
      </trkpt>
      <trkpt lat="47.33436" lon="0.06498">
        <ele>102</ele>
        <time>2018-03-04T09:45:01Z</time>
      </trkpt>
      <trkpt lat="47.33427" lon="0.06511">
        <ele>102</ele>
        <time>2018-03-04T09:45:07Z</time>
      </trkpt>
      <trkpt lat="47.33425" lon="0.06517">
        <ele>102</ele>
        <time>2018-03-04T09:45:10Z</time>
      </trkpt>
      <trkpt lat="47.33426" lon="0.06521">
        <ele>102</ele>
        <time>2018-03-04T09:45:12Z</time>
      </trkpt>
      <trkpt lat="47.33431" lon="0.06525">
        <ele>101</ele>
        <time>2018-03-04T09:45:14Z</time>
      </trkpt>
      <trkpt lat="47.33434" lon="0.06528">
        <ele>101</ele>
        <time>2018-03-04T09:45:15Z</time>
      </trkpt>
      <trkpt lat="47.33439" lon="0.06534">
        <ele>101</ele>
        <time>2018-03-04T09:45:17Z</time>
      </trkpt>
      <trkpt lat="47.33462" lon="0.06556">
        <ele>101</ele>
        <time>2018-03-04T09:45:24Z</time>
      </trkpt>
      <trkpt lat="47.33488" lon="0.06584">
        <ele>101</ele>
        <time>2018-03-04T09:45:31Z</time>
      </trkpt>
      <trkpt lat="47.33519" lon="0.06615">
        <ele>100</ele>
        <time>2018-03-04T09:45:39Z</time>
      </trkpt>
      <trkpt lat="47.33551" lon="0.06643">
        <ele>100</ele>
        <time>2018-03-04T09:45:47Z</time>
      </trkpt>
      <trkpt lat="47.33556" lon="0.06646">
        <ele>100</ele>
        <time>2018-03-04T09:45:48Z</time>
      </trkpt>
      <trkpt lat="47.33589" lon="0.06673">
        <ele>101</ele>
        <time>2018-03-04T09:45:57Z</time>
      </trkpt>
      <trkpt lat="47.33615" lon="0.06693">
        <ele>102</ele>
        <time>2018-03-04T09:46:04Z</time>
      </trkpt>
      <trkpt lat="47.33619" lon="0.06695">
        <ele>102</ele>
        <time>2018-03-04T09:46:05Z</time>
      </trkpt>
      <trkpt lat="47.33623" lon="0.06697">
        <ele>102</ele>
        <time>2018-03-04T09:46:06Z</time>
      </trkpt>
      <trkpt lat="47.33642" lon="0.06708">
        <ele>102</ele>
        <time>2018-03-04T09:46:11Z</time>
      </trkpt>
      <trkpt lat="47.33665" lon="0.0672">
        <ele>102</ele>
        <time>2018-03-04T09:46:17Z</time>
      </trkpt>
      <trkpt lat="47.33676" lon="0.06726">
        <ele>102</ele>
        <time>2018-03-04T09:46:20Z</time>
      </trkpt>
      <trkpt lat="47.33698" lon="0.06736">
        <ele>102</ele>
        <time>2018-03-04T09:46:26Z</time>
      </trkpt>
      <trkpt lat="47.33702" lon="0.06737">
        <ele>102</ele>
        <time>2018-03-04T09:46:27Z</time>
      </trkpt>
      <trkpt lat="47.33718" lon="0.06739">
        <ele>103</ele>
        <time>2018-03-04T09:46:31Z</time>
      </trkpt>
      <trkpt lat="47.33722" lon="0.06741">
        <ele>103</ele>
        <time>2018-03-04T09:46:32Z</time>
      </trkpt>
      <trkpt lat="47.33723" lon="0.06749">
        <ele>103</ele>
        <time>2018-03-04T09:46:34Z</time>
      </trkpt>
      <trkpt lat="47.33715" lon="0.06759">
        <ele>103</ele>
        <time>2018-03-04T09:46:37Z</time>
      </trkpt>
      <trkpt lat="47.33704" lon="0.06776">
        <ele>103</ele>
        <time>2018-03-04T09:46:41Z</time>
      </trkpt>
      <trkpt lat="47.33701" lon="0.0678">
        <ele>103</ele>
        <time>2018-03-04T09:46:42Z</time>
      </trkpt>
      <trkpt lat="47.33696" lon="0.06789">
        <ele>103</ele>
        <time>2018-03-04T09:46:44Z</time>
      </trkpt>
      <trkpt lat="47.33691" lon="0.06798">
        <ele>103</ele>
        <time>2018-03-04T09:46:46Z</time>
      </trkpt>
      <trkpt lat="47.33685" lon="0.06808">
        <ele>104</ele>
        <time>2018-03-04T09:46:48Z</time>
      </trkpt>
      <trkpt lat="47.3368" lon="0.06817">
        <ele>104</ele>
        <time>2018-03-04T09:46:50Z</time>
      </trkpt>
      <trkpt lat="47.33671" lon="0.06829">
        <ele>104</ele>
        <time>2018-03-04T09:46:53Z</time>
      </trkpt>
      <trkpt lat="47.33668" lon="0.06833">
        <ele>104</ele>
        <time>2018-03-04T09:46:54Z</time>
      </trkpt>
      <trkpt lat="47.33655" lon="0.06854">
        <ele>105</ele>
        <time>2018-03-04T09:46:59Z</time>
      </trkpt>
      <trkpt lat="47.3365" lon="0.06862">
        <ele>105</ele>
        <time>2018-03-04T09:47:01Z</time>
      </trkpt>
      <trkpt lat="47.33627" lon="0.06898">
        <ele>106</ele>
        <time>2018-03-04T09:47:10Z</time>
      </trkpt>
      <trkpt lat="47.33608" lon="0.06931">
        <ele>107</ele>
        <time>2018-03-04T09:47:18Z</time>
      </trkpt>
      <trkpt lat="47.33596" lon="0.06949">
        <ele>108</ele>
        <time>2018-03-04T09:47:23Z</time>
      </trkpt>
      <trkpt lat="47.33583" lon="0.06972">
        <ele>107</ele>
        <time>2018-03-04T09:47:27Z</time>
      </trkpt>
      <trkpt lat="47.3358" lon="0.06977">
        <ele>107</ele>
        <time>2018-03-04T09:47:28Z</time>
      </trkpt>
      <trkpt lat="47.33558" lon="0.07013">
        <ele>108</ele>
        <time>2018-03-04T09:47:35Z</time>
      </trkpt>
      <trkpt lat="47.33552" lon="0.07023">
        <ele>108</ele>
        <time>2018-03-04T09:47:37Z</time>
      </trkpt>
      <trkpt lat="47.3355" lon="0.07044">
        <ele>108</ele>
        <time>2018-03-04T09:47:41Z</time>
      </trkpt>
      <trkpt lat="47.33559" lon="0.0706">
        <ele>108</ele>
        <time>2018-03-04T09:47:44Z</time>
      </trkpt>
      <trkpt lat="47.33572" lon="0.07079">
        <ele>109</ele>
        <time>2018-03-04T09:47:48Z</time>
      </trkpt>
      <trkpt lat="47.33577" lon="0.0709">
        <ele>109</ele>
        <time>2018-03-04T09:47:50Z</time>
      </trkpt>
      <trkpt lat="47.33579" lon="0.07096">
        <ele>109</ele>
        <time>2018-03-04T09:47:51Z</time>
      </trkpt>
      <trkpt lat="47.33582" lon="0.07114">
        <ele>108</ele>
        <time>2018-03-04T09:47:54Z</time>
      </trkpt>
      <trkpt lat="47.33585" lon="0.07127">
        <ele>109</ele>
        <time>2018-03-04T09:47:56Z</time>
      </trkpt>
      <trkpt lat="47.33589" lon="0.07145">
        <ele>109</ele>
        <time>2018-03-04T09:47:59Z</time>
      </trkpt>
      <trkpt lat="47.33594" lon="0.07157">
        <ele>108</ele>
        <time>2018-03-04T09:48:01Z</time>
      </trkpt>
      <trkpt lat="47.336" lon="0.07167">
        <ele>108</ele>
        <time>2018-03-04T09:48:03Z</time>
      </trkpt>
      <trkpt lat="47.33608" lon="0.07175">
        <ele>108</ele>
        <time>2018-03-04T09:48:05Z</time>
      </trkpt>
      <trkpt lat="47.33626" lon="0.07181">
        <ele>108</ele>
        <time>2018-03-04T09:48:09Z</time>
      </trkpt>
      <trkpt lat="47.3364" lon="0.07186">
        <ele>109</ele>
        <time>2018-03-04T09:48:12Z</time>
      </trkpt>
      <trkpt lat="47.3365" lon="0.07189">
        <ele>109</ele>
        <time>2018-03-04T09:48:14Z</time>
      </trkpt>
      <trkpt lat="47.3367" lon="0.07201">
        <ele>110</ele>
        <time>2018-03-04T09:48:19Z</time>
      </trkpt>
      <trkpt lat="47.33687" lon="0.07219">
        <ele>110</ele>
        <time>2018-03-04T09:48:24Z</time>
      </trkpt>
      <trkpt lat="47.33705" lon="0.0725">
        <ele>109</ele>
        <time>2018-03-04T09:48:30Z</time>
      </trkpt>
      <trkpt lat="47.3372" lon="0.07288">
        <ele>106</ele>
        <time>2018-03-04T09:48:36Z</time>
      </trkpt>
      <trkpt lat="47.33723" lon="0.07293">
        <ele>106</ele>
        <time>2018-03-04T09:48:37Z</time>
      </trkpt>
      <trkpt lat="47.33726" lon="0.07298">
        <ele>106</ele>
        <time>2018-03-04T09:48:38Z</time>
      </trkpt>
      <trkpt lat="47.33733" lon="0.0731">
        <ele>105</ele>
        <time>2018-03-04T09:48:40Z</time>
      </trkpt>
      <trkpt lat="47.33736" lon="0.07315">
        <ele>105</ele>
        <time>2018-03-04T09:48:41Z</time>
      </trkpt>
      <trkpt lat="47.33745" lon="0.07332">
        <ele>103</ele>
        <time>2018-03-04T09:48:44Z</time>
      </trkpt>
      <trkpt lat="47.3375" lon="0.07342">
        <ele>102</ele>
        <time>2018-03-04T09:48:46Z</time>
      </trkpt>
      <trkpt lat="47.33756" lon="0.07364">
        <ele>101</ele>
        <time>2018-03-04T09:48:50Z</time>
      </trkpt>
      <trkpt lat="47.33758" lon="0.07375">
        <ele>101</ele>
        <time>2018-03-04T09:48:52Z</time>
      </trkpt>
      <trkpt lat="47.33761" lon="0.074">
        <ele>100</ele>
        <time>2018-03-04T09:48:57Z</time>
      </trkpt>
      <trkpt lat="47.33764" lon="0.07411">
        <ele>99</ele>
        <time>2018-03-04T09:48:59Z</time>
      </trkpt>
      <trkpt lat="47.33768" lon="0.07446">
        <ele>100</ele>
        <time>2018-03-04T09:49:05Z</time>
      </trkpt>
      <trkpt lat="47.3377" lon="0.07469">
        <ele>100</ele>
        <time>2018-03-04T09:49:09Z</time>
      </trkpt>
      <trkpt lat="47.33771" lon="0.07478">
        <ele>101</ele>
        <time>2018-03-04T09:49:11Z</time>
      </trkpt>
      <trkpt lat="47.33774" lon="0.07493">
        <ele>101</ele>
        <time>2018-03-04T09:49:15Z</time>
      </trkpt>
      <trkpt lat="47.33776" lon="0.07497">
        <ele>101</ele>
        <time>2018-03-04T09:49:16Z</time>
      </trkpt>
      <trkpt lat="47.33783" lon="0.07518">
        <ele>103</ele>
        <time>2018-03-04T09:49:21Z</time>
      </trkpt>
      <trkpt lat="47.33784" lon="0.07521">
        <ele>103</ele>
        <time>2018-03-04T09:49:22Z</time>
      </trkpt>
      <trkpt lat="47.33794" lon="0.07531">
        <ele>103</ele>
        <time>2018-03-04T09:49:27Z</time>
      </trkpt>
      <trkpt lat="47.33806" lon="0.07534">
        <ele>103</ele>
        <time>2018-03-04T09:49:31Z</time>
      </trkpt>
      <trkpt lat="47.33809" lon="0.07535">
        <ele>103</ele>
        <time>2018-03-04T09:49:32Z</time>
      </trkpt>
      <trkpt lat="47.33825" lon="0.07539">
        <ele>103</ele>
        <time>2018-03-04T09:49:37Z</time>
      </trkpt>
      <trkpt lat="47.33834" lon="0.07541">
        <ele>103</ele>
        <time>2018-03-04T09:49:40Z</time>
      </trkpt>
      <trkpt lat="47.33858" lon="0.07545">
        <ele>103</ele>
        <time>2018-03-04T09:49:48Z</time>
      </trkpt>
      <trkpt lat="47.33861" lon="0.07545">
        <ele>104</ele>
        <time>2018-03-04T09:49:49Z</time>
      </trkpt>
      <trkpt lat="47.33882" lon="0.07547">
        <ele>104</ele>
        <time>2018-03-04T09:49:56Z</time>
      </trkpt>
      <trkpt lat="47.33906" lon="0.07551">
        <ele>104</ele>
        <time>2018-03-04T09:50:04Z</time>
      </trkpt>
      <trkpt lat="47.33931" lon="0.07559">
        <ele>104</ele>
        <time>2018-03-04T09:50:11Z</time>
      </trkpt>
      <trkpt lat="47.33964" lon="0.07568">
        <ele>104</ele>
        <time>2018-03-04T09:50:18Z</time>
      </trkpt>
      <trkpt lat="47.33973" lon="0.07574">
        <ele>104</ele>
        <time>2018-03-04T09:50:20Z</time>
      </trkpt>
      <trkpt lat="47.33982" lon="0.07583">
        <ele>104</ele>
        <time>2018-03-04T09:50:22Z</time>
      </trkpt>
      <trkpt lat="47.33986" lon="0.07588">
        <ele>105</ele>
        <time>2018-03-04T09:50:23Z</time>
      </trkpt>
      <trkpt lat="47.33993" lon="0.076">
        <ele>105</ele>
        <time>2018-03-04T09:50:25Z</time>
      </trkpt>
      <trkpt lat="47.3401" lon="0.07629">
        <ele>105</ele>
        <time>2018-03-04T09:50:30Z</time>
      </trkpt>
      <trkpt lat="47.34019" lon="0.07645">
        <ele>105</ele>
        <time>2018-03-04T09:50:33Z</time>
      </trkpt>
      <trkpt lat="47.3404" lon="0.07677">
        <ele>107</ele>
        <time>2018-03-04T09:50:41Z</time>
      </trkpt>
      <trkpt lat="47.34053" lon="0.07692">
        <ele>107</ele>
        <time>2018-03-04T09:50:46Z</time>
      </trkpt>
      <trkpt lat="47.34055" lon="0.07697">
        <ele>107</ele>
        <time>2018-03-04T09:50:47Z</time>
      </trkpt>
      <trkpt lat="47.34057" lon="0.07703">
        <ele>107</ele>
        <time>2018-03-04T09:50:48Z</time>
      </trkpt>
      <trkpt lat="47.34059" lon="0.07709">
        <ele>107</ele>
        <time>2018-03-04T09:50:49Z</time>
      </trkpt>
      <trkpt lat="47.34065" lon="0.07733">
        <ele>107</ele>
        <time>2018-03-04T09:50:53Z</time>
      </trkpt>
      <trkpt lat="47.34066" lon="0.07739">
        <ele>107</ele>
        <time>2018-03-04T09:50:54Z</time>
      </trkpt>
      <trkpt lat="47.3406" lon="0.07757">
        <ele>108</ele>
        <time>2018-03-04T09:50:57Z</time>
      </trkpt>
      <trkpt lat="47.34051" lon="0.07774">
        <ele>108</ele>
        <time>2018-03-04T09:51:00Z</time>
      </trkpt>
      <trkpt lat="47.34047" lon="0.07779">
        <ele>108</ele>
        <time>2018-03-04T09:51:01Z</time>
      </trkpt>
      <trkpt lat="47.34044" lon="0.07784">
        <ele>108</ele>
        <time>2018-03-04T09:51:02Z</time>
      </trkpt>
      <trkpt lat="47.3404" lon="0.07788">
        <ele>108</ele>
        <time>2018-03-04T09:51:03Z</time>
      </trkpt>
      <trkpt lat="47.34021" lon="0.07812">
        <ele>108</ele>
        <time>2018-03-04T09:51:08Z</time>
      </trkpt>
      <trkpt lat="47.34017" lon="0.07816">
        <ele>108</ele>
        <time>2018-03-04T09:51:09Z</time>
      </trkpt>
      <trkpt lat="47.33994" lon="0.07844">
        <ele>108</ele>
        <time>2018-03-04T09:51:15Z</time>
      </trkpt>
      <trkpt lat="47.33977" lon="0.07864">
        <ele>108</ele>
        <time>2018-03-04T09:51:19Z</time>
      </trkpt>
      <trkpt lat="47.33957" lon="0.07889">
        <ele>108</ele>
        <time>2018-03-04T09:51:24Z</time>
      </trkpt>
      <trkpt lat="47.33924" lon="0.07923">
        <ele>110</ele>
        <time>2018-03-04T09:51:31Z</time>
      </trkpt>
      <trkpt lat="47.33884" lon="0.07964">
        <ele>109</ele>
        <time>2018-03-04T09:51:39Z</time>
      </trkpt>
      <trkpt lat="47.3385" lon="0.07998">
        <ele>109</ele>
        <time>2018-03-04T09:51:46Z</time>
      </trkpt>
      <trkpt lat="47.33827" lon="0.08024">
        <ele>109</ele>
        <time>2018-03-04T09:51:51Z</time>
      </trkpt>
      <trkpt lat="47.33822" lon="0.0803">
        <ele>109</ele>
        <time>2018-03-04T09:51:52Z</time>
      </trkpt>
      <trkpt lat="47.338" lon="0.08071">
        <ele>109</ele>
        <time>2018-03-04T09:51:58Z</time>
      </trkpt>
      <trkpt lat="47.33793" lon="0.08086">
        <ele>110</ele>
        <time>2018-03-04T09:52:00Z</time>
      </trkpt>
      <trkpt lat="47.33774" lon="0.08133">
        <ele>109</ele>
        <time>2018-03-04T09:52:06Z</time>
      </trkpt>
      <trkpt lat="47.33749" lon="0.08187">
        <ele>109</ele>
        <time>2018-03-04T09:52:13Z</time>
      </trkpt>
      <trkpt lat="47.33741" lon="0.08204">
        <ele>109</ele>
        <time>2018-03-04T09:52:15Z</time>
      </trkpt>
      <trkpt lat="47.33711" lon="0.08276">
        <ele>112</ele>
        <time>2018-03-04T09:52:24Z</time>
      </trkpt>
      <trkpt lat="47.33685" lon="0.08336">
        <ele>112</ele>
        <time>2018-03-04T09:52:32Z</time>
      </trkpt>
      <trkpt lat="47.33668" lon="0.08378">
        <ele>112</ele>
        <time>2018-03-04T09:52:38Z</time>
      </trkpt>
      <trkpt lat="47.33666" lon="0.08386">
        <ele>111</ele>
        <time>2018-03-04T09:52:39Z</time>
      </trkpt>
      <trkpt lat="47.33656" lon="0.08415">
        <ele>111</ele>
        <time>2018-03-04T09:52:43Z</time>
      </trkpt>
      <trkpt lat="47.3365" lon="0.08438">
        <ele>111</ele>
        <time>2018-03-04T09:52:46Z</time>
      </trkpt>
      <trkpt lat="47.33637" lon="0.08494">
        <ele>110</ele>
        <time>2018-03-04T09:52:53Z</time>
      </trkpt>
      <trkpt lat="47.33631" lon="0.08524">
        <ele>109</ele>
        <time>2018-03-04T09:52:57Z</time>
      </trkpt>
      <trkpt lat="47.3363" lon="0.08531">
        <ele>108</ele>
        <time>2018-03-04T09:52:58Z</time>
      </trkpt>
      <trkpt lat="47.33629" lon="0.08539">
        <ele>108</ele>
        <time>2018-03-04T09:52:59Z</time>
      </trkpt>
      <trkpt lat="47.33621" lon="0.08587">
        <ele>106</ele>
        <time>2018-03-04T09:53:04Z</time>
      </trkpt>
      <trkpt lat="47.33616" lon="0.08606">
        <ele>106</ele>
        <time>2018-03-04T09:53:06Z</time>
      </trkpt>
      <trkpt lat="47.33608" lon="0.08635">
        <ele>106</ele>
        <time>2018-03-04T09:53:09Z</time>
      </trkpt>
      <trkpt lat="47.33605" lon="0.08644">
        <ele>106</ele>
        <time>2018-03-04T09:53:10Z</time>
      </trkpt>
      <trkpt lat="47.33583" lon="0.08711">
        <ele>104</ele>
        <time>2018-03-04T09:53:17Z</time>
      </trkpt>
      <trkpt lat="47.3358" lon="0.08721">
        <ele>104</ele>
        <time>2018-03-04T09:53:18Z</time>
      </trkpt>
      <trkpt lat="47.33556" lon="0.08798">
        <ele>104</ele>
        <time>2018-03-04T09:53:26Z</time>
      </trkpt>
      <trkpt lat="47.33553" lon="0.08807">
        <ele>104</ele>
        <time>2018-03-04T09:53:27Z</time>
      </trkpt>
      <trkpt lat="47.33529" lon="0.08871">
        <ele>104</ele>
        <time>2018-03-04T09:53:34Z</time>
      </trkpt>
      <trkpt lat="47.33523" lon="0.0889">
        <ele>104</ele>
        <time>2018-03-04T09:53:36Z</time>
      </trkpt>
      <trkpt lat="47.33502" lon="0.08951">
        <ele>103</ele>
        <time>2018-03-04T09:53:43Z</time>
      </trkpt>
      <trkpt lat="47.33487" lon="0.08999">
        <ele>103</ele>
        <time>2018-03-04T09:53:49Z</time>
      </trkpt>
      <trkpt lat="47.33468" lon="0.0905">
        <ele>104</ele>
        <time>2018-03-04T09:53:56Z</time>
      </trkpt>
      <trkpt lat="47.3346" lon="0.09079">
        <ele>104</ele>
        <time>2018-03-04T09:54:00Z</time>
      </trkpt>
      <trkpt lat="47.33454" lon="0.09101">
        <ele>105</ele>
        <time>2018-03-04T09:54:03Z</time>
      </trkpt>
      <trkpt lat="47.33443" lon="0.09152">
        <ele>105</ele>
        <time>2018-03-04T09:54:10Z</time>
      </trkpt>
      <trkpt lat="47.33434" lon="0.09204">
        <ele>107</ele>
        <time>2018-03-04T09:54:17Z</time>
      </trkpt>
      <trkpt lat="47.33426" lon="0.09249">
        <ele>107</ele>
        <time>2018-03-04T09:54:24Z</time>
      </trkpt>
      <trkpt lat="47.33428" lon="0.09253">
        <ele>108</ele>
        <time>2018-03-04T09:54:25Z</time>
      </trkpt>
      <trkpt lat="47.33433" lon="0.09259">
        <ele>108</ele>
        <time>2018-03-04T09:54:27Z</time>
      </trkpt>
      <trkpt lat="47.3344" lon="0.09272">
        <ele>109</ele>
        <time>2018-03-04T09:54:30Z</time>
      </trkpt>
      <trkpt lat="47.33445" lon="0.09281">
        <ele>109</ele>
        <time>2018-03-04T09:54:32Z</time>
      </trkpt>
      <trkpt lat="47.33448" lon="0.09287">
        <ele>109</ele>
        <time>2018-03-04T09:54:33Z</time>
      </trkpt>
      <trkpt lat="47.33457" lon="0.09303">
        <ele>109</ele>
        <time>2018-03-04T09:54:36Z</time>
      </trkpt>
      <trkpt lat="47.3346" lon="0.09309">
        <ele>109</ele>
        <time>2018-03-04T09:54:37Z</time>
      </trkpt>
      <trkpt lat="47.33473" lon="0.09331">
        <ele>110</ele>
        <time>2018-03-04T09:54:41Z</time>
      </trkpt>
      <trkpt lat="47.3348" lon="0.09343">
        <ele>110</ele>
        <time>2018-03-04T09:54:43Z</time>
      </trkpt>
      <trkpt lat="47.33489" lon="0.09358">
        <ele>110</ele>
        <time>2018-03-04T09:54:45Z</time>
      </trkpt>
      <trkpt lat="47.33495" lon="0.09365">
        <ele>110</ele>
        <time>2018-03-04T09:54:46Z</time>
      </trkpt>
      <trkpt lat="47.33505" lon="0.09378">
        <ele>107</ele>
        <time>2018-03-04T09:54:48Z</time>
      </trkpt>
      <trkpt lat="47.33525" lon="0.09403">
        <ele>107</ele>
        <time>2018-03-04T09:54:52Z</time>
      </trkpt>
      <trkpt lat="47.33536" lon="0.09416">
        <ele>106</ele>
        <time>2018-03-04T09:54:54Z</time>
      </trkpt>
      <trkpt lat="47.33556" lon="0.09442">
        <ele>105</ele>
        <time>2018-03-04T09:54:58Z</time>
      </trkpt>
      <trkpt lat="47.33561" lon="0.09449">
        <ele>105</ele>
        <time>2018-03-04T09:54:59Z</time>
      </trkpt>
      <trkpt lat="47.33565" lon="0.09457">
        <ele>105</ele>
        <time>2018-03-04T09:55:00Z</time>
      </trkpt>
      <trkpt lat="47.33577" lon="0.09478">
        <ele>104</ele>
        <time>2018-03-04T09:55:03Z</time>
      </trkpt>
      <trkpt lat="47.3358" lon="0.09484">
        <ele>104</ele>
        <time>2018-03-04T09:55:04Z</time>
      </trkpt>
      <trkpt lat="47.33583" lon="0.09489">
        <ele>104</ele>
        <time>2018-03-04T09:55:05Z</time>
      </trkpt>
      <trkpt lat="47.33591" lon="0.09499">
        <ele>102</ele>
        <time>2018-03-04T09:55:08Z</time>
      </trkpt>
      <trkpt lat="47.33598" lon="0.09515">
        <ele>102</ele>
        <time>2018-03-04T09:55:12Z</time>
      </trkpt>
      <trkpt lat="47.336" lon="0.09517">
        <ele>102</ele>
        <time>2018-03-04T09:55:13Z</time>
      </trkpt>
      <trkpt lat="47.33606" lon="0.09518">
        <ele>102</ele>
        <time>2018-03-04T09:55:15Z</time>
      </trkpt>
      <trkpt lat="47.33622" lon="0.09526">
        <ele>101</ele>
        <time>2018-03-04T09:55:19Z</time>
      </trkpt>
      <trkpt lat="47.33626" lon="0.0953">
        <ele>101</ele>
        <time>2018-03-04T09:55:20Z</time>
      </trkpt>
      <trkpt lat="47.33641" lon="0.09549">
        <ele>102</ele>
        <time>2018-03-04T09:55:24Z</time>
      </trkpt>
      <trkpt lat="47.33648" lon="0.09559">
        <ele>102</ele>
        <time>2018-03-04T09:55:26Z</time>
      </trkpt>
      <trkpt lat="47.33661" lon="0.09577">
        <ele>103</ele>
        <time>2018-03-04T09:55:30Z</time>
      </trkpt>
      <trkpt lat="47.33669" lon="0.09586">
        <ele>103</ele>
        <time>2018-03-04T09:55:32Z</time>
      </trkpt>
      <trkpt lat="47.33691" lon="0.09608">
        <ele>101</ele>
        <time>2018-03-04T09:55:37Z</time>
      </trkpt>
      <trkpt lat="47.33715" lon="0.09636">
        <ele>100</ele>
        <time>2018-03-04T09:55:43Z</time>
      </trkpt>
      <trkpt lat="47.33729" lon="0.09659">
        <ele>100</ele>
        <time>2018-03-04T09:55:48Z</time>
      </trkpt>
      <trkpt lat="47.3374" lon="0.09685">
        <ele>102</ele>
        <time>2018-03-04T09:55:53Z</time>
      </trkpt>
      <trkpt lat="47.33759" lon="0.09721">
        <ele>99</ele>
        <time>2018-03-04T09:56:00Z</time>
      </trkpt>
      <trkpt lat="47.33769" lon="0.09735">
        <ele>100</ele>
        <time>2018-03-04T09:56:03Z</time>
      </trkpt>
      <trkpt lat="47.33773" lon="0.09741">
        <ele>100</ele>
        <time>2018-03-04T09:56:04Z</time>
      </trkpt>
      <trkpt lat="47.33797" lon="0.0978">
        <ele>100</ele>
        <time>2018-03-04T09:56:11Z</time>
      </trkpt>
      <trkpt lat="47.33816" lon="0.09817">
        <ele>100</ele>
        <time>2018-03-04T09:56:17Z</time>
      </trkpt>
      <trkpt lat="47.3383" lon="0.09851">
        <ele>98</ele>
        <time>2018-03-04T09:56:22Z</time>
      </trkpt>
      <trkpt lat="47.33832" lon="0.09859">
        <ele>98</ele>
        <time>2018-03-04T09:56:23Z</time>
      </trkpt>
      <trkpt lat="47.33837" lon="0.09871">
        <ele>96</ele>
        <time>2018-03-04T09:56:25Z</time>
      </trkpt>
      <trkpt lat="47.33838" lon="0.09876">
        <ele>95</ele>
        <time>2018-03-04T09:56:26Z</time>
      </trkpt>
      <trkpt lat="47.3384" lon="0.09883">
        <ele>95</ele>
        <time>2018-03-04T09:56:27Z</time>
      </trkpt>
      <trkpt lat="47.33843" lon="0.09895">
        <ele>95</ele>
        <time>2018-03-04T09:56:29Z</time>
      </trkpt>
      <trkpt lat="47.33846" lon="0.09908">
        <ele>94</ele>
        <time>2018-03-04T09:56:31Z</time>
      </trkpt>
      <trkpt lat="47.33846" lon="0.09916">
        <ele>94</ele>
        <time>2018-03-04T09:56:32Z</time>
      </trkpt>
      <trkpt lat="47.33847" lon="0.09924">
        <ele>93</ele>
        <time>2018-03-04T09:56:33Z</time>
      </trkpt>
      <trkpt lat="47.3385" lon="0.09942">
        <ele>92</ele>
        <time>2018-03-04T09:56:35Z</time>
      </trkpt>
      <trkpt lat="47.33852" lon="0.09951">
        <ele>92</ele>
        <time>2018-03-04T09:56:36Z</time>
      </trkpt>
      <trkpt lat="47.33855" lon="0.09959">
        <ele>92</ele>
        <time>2018-03-04T09:56:37Z</time>
      </trkpt>
      <trkpt lat="47.33859" lon="0.09977">
        <ele>92</ele>
        <time>2018-03-04T09:56:39Z</time>
      </trkpt>
      <trkpt lat="47.3386" lon="0.09987">
        <ele>92</ele>
        <time>2018-03-04T09:56:40Z</time>
      </trkpt>
      <trkpt lat="47.33862" lon="0.10004">
        <ele>91</ele>
        <time>2018-03-04T09:56:42Z</time>
      </trkpt>
      <trkpt lat="47.33867" lon="0.10025">
        <ele>91</ele>
        <time>2018-03-04T09:56:45Z</time>
      </trkpt>
      <trkpt lat="47.33873" lon="0.10046">
        <ele>91</ele>
        <time>2018-03-04T09:56:48Z</time>
      </trkpt>
      <trkpt lat="47.3388" lon="0.10073">
        <ele>91</ele>
        <time>2018-03-04T09:56:53Z</time>
      </trkpt>
      <trkpt lat="47.33882" lon="0.1008">
        <ele>90</ele>
        <time>2018-03-04T09:56:54Z</time>
      </trkpt>
      <trkpt lat="47.33884" lon="0.10086">
        <ele>89</ele>
        <time>2018-03-04T09:56:55Z</time>
      </trkpt>
      <trkpt lat="47.33888" lon="0.10099">
        <ele>89</ele>
        <time>2018-03-04T09:56:57Z</time>
      </trkpt>
      <trkpt lat="47.33891" lon="0.10114">
        <ele>89</ele>
        <time>2018-03-04T09:56:59Z</time>
      </trkpt>
      <trkpt lat="47.33892" lon="0.10122">
        <ele>88</ele>
        <time>2018-03-04T09:57:00Z</time>
      </trkpt>
      <trkpt lat="47.33891" lon="0.10147">
        <ele>88</ele>
        <time>2018-03-04T09:57:03Z</time>
      </trkpt>
      <trkpt lat="47.3389" lon="0.10154">
        <ele>88</ele>
        <time>2018-03-04T09:57:04Z</time>
      </trkpt>
      <trkpt lat="47.33885" lon="0.10176">
        <ele>86</ele>
        <time>2018-03-04T09:57:08Z</time>
      </trkpt>
      <trkpt lat="47.33885" lon="0.10179">
        <ele>86</ele>
        <time>2018-03-04T09:57:09Z</time>
      </trkpt>
      <trkpt lat="47.33886" lon="0.10182">
        <ele>86</ele>
        <time>2018-03-04T09:57:10Z</time>
      </trkpt>
      <trkpt lat="47.33889" lon="0.10185">
        <ele>86</ele>
        <time>2018-03-04T09:57:12Z</time>
      </trkpt>
      <trkpt lat="47.3389" lon="0.10186">
        <ele>86</ele>
        <time>2018-03-04T09:57:13Z</time>
      </trkpt>
      <trkpt lat="47.33894" lon="0.1019">
        <ele>86</ele>
        <time>2018-03-04T09:57:15Z</time>
      </trkpt>
      <trkpt lat="47.33896" lon="0.10192">
        <ele>86</ele>
        <time>2018-03-04T09:57:16Z</time>
      </trkpt>
      <trkpt lat="47.33899" lon="0.10196">
        <ele>86</ele>
        <time>2018-03-04T09:57:18Z</time>
      </trkpt>
      <trkpt lat="47.33901" lon="0.10197">
        <ele>86</ele>
        <time>2018-03-04T09:57:19Z</time>
      </trkpt>
      <trkpt lat="47.33904" lon="0.10201">
        <ele>86</ele>
        <time>2018-03-04T09:57:21Z</time>
      </trkpt>
      <trkpt lat="47.33905" lon="0.10202">
        <ele>86</ele>
        <time>2018-03-04T09:57:22Z</time>
      </trkpt>
      <trkpt lat="47.33905" lon="0.10201">
        <ele>86</ele>
        <time>2018-03-04T09:57:23Z</time>
      </trkpt>
      <trkpt lat="47.33909" lon="0.10203">
        <ele>86</ele>
        <time>2018-03-04T09:57:25Z</time>
      </trkpt>
      <trkpt lat="47.33912" lon="0.10205">
        <ele>86</ele>
        <time>2018-03-04T09:57:27Z</time>
      </trkpt>
      <trkpt lat="47.33915" lon="0.10207">
        <ele>86</ele>
        <time>2018-03-04T09:57:29Z</time>
      </trkpt>
      <trkpt lat="47.33916" lon="0.10208">
        <ele>86</ele>
        <time>2018-03-04T09:57:30Z</time>
      </trkpt>
      <trkpt lat="47.33921" lon="0.10214">
        <ele>89</ele>
        <time>2018-03-04T09:57:34Z</time>
      </trkpt>
      <trkpt lat="47.33925" lon="0.10216">
        <ele>89</ele>
        <time>2018-03-04T09:57:37Z</time>
      </trkpt>
      <trkpt lat="47.33929" lon="0.10219">
        <ele>89</ele>
        <time>2018-03-04T09:57:40Z</time>
      </trkpt>
      <trkpt lat="47.33957" lon="0.10242">
        <ele>91</ele>
        <time>2018-03-04T09:58:00Z</time>
      </trkpt>
      <trkpt lat="47.33959" lon="0.10244">
        <ele>91</ele>
        <time>2018-03-04T09:58:01Z</time>
      </trkpt>
      <trkpt lat="47.33968" lon="0.10249">
        <ele>92</ele>
        <time>2018-03-04T09:58:06Z</time>
      </trkpt>
      <trkpt lat="47.33971" lon="0.10253">
        <ele>93</ele>
        <time>2018-03-04T09:58:08Z</time>
      </trkpt>
      <trkpt lat="47.33977" lon="0.10257">
        <ele>93</ele>
        <time>2018-03-04T09:58:11Z</time>
      </trkpt>
      <trkpt lat="47.33983" lon="0.10261">
        <ele>94</ele>
        <time>2018-03-04T09:58:14Z</time>
      </trkpt>
      <trkpt lat="47.33988" lon="0.10262">
        <ele>94</ele>
        <time>2018-03-04T09:58:17Z</time>
      </trkpt>
      <trkpt lat="47.3399" lon="0.10263">
        <ele>94</ele>
        <time>2018-03-04T09:58:20Z</time>
      </trkpt>
      <trkpt lat="47.33998" lon="0.10269">
        <ele>94</ele>
        <time>2018-03-04T09:58:24Z</time>
      </trkpt>
      <trkpt lat="47.34001" lon="0.1027">
        <ele>98</ele>
        <time>2018-03-04T09:58:26Z</time>
      </trkpt>
      <trkpt lat="47.34004" lon="0.10271">
        <ele>98</ele>
        <time>2018-03-04T09:58:28Z</time>
      </trkpt>
      <trkpt lat="47.34007" lon="0.10274">
        <ele>98</ele>
        <time>2018-03-04T09:58:30Z</time>
      </trkpt>
      <trkpt lat="47.3401" lon="0.10277">
        <ele>99</ele>
        <time>2018-03-04T09:58:32Z</time>
      </trkpt>
      <trkpt lat="47.34015" lon="0.10283">
        <ele>99</ele>
        <time>2018-03-04T09:58:37Z</time>
      </trkpt>
      <trkpt lat="47.34019" lon="0.10286">
        <ele>99</ele>
        <time>2018-03-04T09:58:40Z</time>
      </trkpt>
      <trkpt lat="47.34023" lon="0.10289">
        <ele>99</ele>
        <time>2018-03-04T09:58:43Z</time>
      </trkpt>
      <trkpt lat="47.34025" lon="0.1029">
        <ele>99</ele>
        <time>2018-03-04T09:58:45Z</time>
      </trkpt>
      <trkpt lat="47.34031" lon="0.10294">
        <ele>100</ele>
        <time>2018-03-04T09:58:50Z</time>
      </trkpt>
      <trkpt lat="47.34034" lon="0.10296">
        <ele>100</ele>
        <time>2018-03-04T09:58:52Z</time>
      </trkpt>
      <trkpt lat="47.34044" lon="0.10303">
        <ele>100</ele>
        <time>2018-03-04T09:58:58Z</time>
      </trkpt>
      <trkpt lat="47.34045" lon="0.10304">
        <ele>101</ele>
        <time>2018-03-04T09:58:59Z</time>
      </trkpt>
      <trkpt lat="47.34058" lon="0.10312">
        <ele>102</ele>
        <time>2018-03-04T09:59:09Z</time>
      </trkpt>
      <trkpt lat="47.3406" lon="0.10314">
        <ele>102</ele>
        <time>2018-03-04T09:59:10Z</time>
      </trkpt>
      <trkpt lat="47.34082" lon="0.1033">
        <ele>105</ele>
        <time>2018-03-04T09:59:25Z</time>
      </trkpt>
      <trkpt lat="47.34087" lon="0.10332">
        <ele>106</ele>
        <time>2018-03-04T09:59:27Z</time>
      </trkpt>
      <trkpt lat="47.34099" lon="0.1034">
        <ele>108</ele>
        <time>2018-03-04T09:59:32Z</time>
      </trkpt>
      <trkpt lat="47.34104" lon="0.10344">
        <ele>109</ele>
        <time>2018-03-04T09:59:34Z</time>
      </trkpt>
      <trkpt lat="47.34107" lon="0.10356">
        <ele>109</ele>
        <time>2018-03-04T09:59:37Z</time>
      </trkpt>
      <trkpt lat="47.34106" lon="0.10367">
        <ele>110</ele>
        <time>2018-03-04T09:59:39Z</time>
      </trkpt>
      <trkpt lat="47.34104" lon="0.10383">
        <ele>110</ele>
        <time>2018-03-04T09:59:42Z</time>
      </trkpt>
      <trkpt lat="47.34103" lon="0.10413">
        <ele>109</ele>
        <time>2018-03-04T09:59:47Z</time>
      </trkpt>
      <trkpt lat="47.34104" lon="0.10426">
        <ele>111</ele>
        <time>2018-03-04T09:59:49Z</time>
      </trkpt>
      <trkpt lat="47.34105" lon="0.10452">
        <ele>112</ele>
        <time>2018-03-04T09:59:53Z</time>
      </trkpt>
      <trkpt lat="47.34106" lon="0.10466">
        <ele>112</ele>
        <time>2018-03-04T09:59:55Z</time>
      </trkpt>
      <trkpt lat="47.34108" lon="0.10491">
        <ele>112</ele>
        <time>2018-03-04T09:59:59Z</time>
      </trkpt>
      <trkpt lat="47.3411" lon="0.10519">
        <ele>110</ele>
        <time>2018-03-04T10:00:03Z</time>
      </trkpt>
      <trkpt lat="47.34109" lon="0.10575">
        <ele>109</ele>
        <time>2018-03-04T10:00:10Z</time>
      </trkpt>
      <trkpt lat="47.34106" lon="0.10607">
        <ele>106</ele>
        <time>2018-03-04T10:00:14Z</time>
      </trkpt>
      <trkpt lat="47.34104" lon="0.10623">
        <ele>106</ele>
        <time>2018-03-04T10:00:16Z</time>
      </trkpt>
      <trkpt lat="47.34104" lon="0.10632">
        <ele>106</ele>
        <time>2018-03-04T10:00:17Z</time>
      </trkpt>
      <trkpt lat="47.34096" lon="0.10679">
        <ele>103</ele>
        <time>2018-03-04T10:00:22Z</time>
      </trkpt>
      <trkpt lat="47.34094" lon="0.10689">
        <ele>102</ele>
        <time>2018-03-04T10:00:23Z</time>
      </trkpt>
      <trkpt lat="47.34085" lon="0.1073">
        <ele>101</ele>
        <time>2018-03-04T10:00:27Z</time>
      </trkpt>
      <trkpt lat="47.3408" lon="0.10764">
        <ele>101</ele>
        <time>2018-03-04T10:00:30Z</time>
      </trkpt>
      <trkpt lat="47.34073" lon="0.10798">
        <ele>101</ele>
        <time>2018-03-04T10:00:33Z</time>
      </trkpt>
      <trkpt lat="47.3407" lon="0.10821">
        <ele>100</ele>
        <time>2018-03-04T10:00:35Z</time>
      </trkpt>
      <trkpt lat="47.34066" lon="0.10844">
        <ele>100</ele>
        <time>2018-03-04T10:00:37Z</time>
      </trkpt>
      <trkpt lat="47.34064" lon="0.10876">
        <ele>101</ele>
        <time>2018-03-04T10:00:40Z</time>
      </trkpt>
      <trkpt lat="47.34064" lon="0.10882">
        <ele>101</ele>
        <time>2018-03-04T10:00:41Z</time>
      </trkpt>
      <trkpt lat="47.3406" lon="0.10891">
        <ele>101</ele>
        <time>2018-03-04T10:00:43Z</time>
      </trkpt>
      <trkpt lat="47.34053" lon="0.10891">
        <ele>101</ele>
        <time>2018-03-04T10:00:46Z</time>
      </trkpt>
      <trkpt lat="47.34051" lon="0.1089">
        <ele>101</ele>
        <time>2018-03-04T10:00:47Z</time>
      </trkpt>
      <trkpt lat="47.34043" lon="0.10886">
        <ele>101</ele>
        <time>2018-03-04T10:00:51Z</time>
      </trkpt>
      <trkpt lat="47.34039" lon="0.10884">
        <ele>101</ele>
        <time>2018-03-04T10:00:53Z</time>
      </trkpt>
      <trkpt lat="47.34034" lon="0.10883">
        <ele>101</ele>
        <time>2018-03-04T10:00:55Z</time>
      </trkpt>
      <trkpt lat="47.34027" lon="0.10881">
        <ele>102</ele>
        <time>2018-03-04T10:00:58Z</time>
      </trkpt>
      <trkpt lat="47.34023" lon="0.1088">
        <ele>102</ele>
        <time>2018-03-04T10:01:00Z</time>
      </trkpt>
      <trkpt lat="47.34014" lon="0.10878">
        <ele>102</ele>
        <time>2018-03-04T10:01:04Z</time>
      </trkpt>
      <trkpt lat="47.34009" lon="0.10876">
        <ele>102</ele>
        <time>2018-03-04T10:01:06Z</time>
      </trkpt>
      <trkpt lat="47.33993" lon="0.10866">
        <ele>102</ele>
        <time>2018-03-04T10:01:12Z</time>
      </trkpt>
      <trkpt lat="47.33973" lon="0.10857">
        <ele>102</ele>
        <time>2018-03-04T10:01:18Z</time>
      </trkpt>
      <trkpt lat="47.33947" lon="0.10843">
        <ele>101</ele>
        <time>2018-03-04T10:02:09Z</time>
      </trkpt>
      <trkpt lat="47.33943" lon="0.10838">
        <ele>101</ele>
        <time>2018-03-04T10:02:10Z</time>
      </trkpt>
      <trkpt lat="47.33934" lon="0.10826">
        <ele>102</ele>
        <time>2018-03-04T10:02:13Z</time>
      </trkpt>
      <trkpt lat="47.33927" lon="0.10818">
        <ele>102</ele>
        <time>2018-03-04T10:02:15Z</time>
      </trkpt>
      <trkpt lat="47.33918" lon="0.10802">
        <ele>102</ele>
        <time>2018-03-04T10:02:20Z</time>
      </trkpt>
      <trkpt lat="47.3391" lon="0.10791">
        <ele>99</ele>
        <time>2018-03-04T10:02:23Z</time>
      </trkpt>
      <trkpt lat="47.33903" lon="0.10785">
        <ele>99</ele>
        <time>2018-03-04T10:02:25Z</time>
      </trkpt>
      <trkpt lat="47.3388" lon="0.10763">
        <ele>99</ele>
        <time>2018-03-04T10:02:30Z</time>
      </trkpt>
      <trkpt lat="47.33859" lon="0.10747">
        <ele>98</ele>
        <time>2018-03-04T10:02:35Z</time>
      </trkpt>
      <trkpt lat="47.33856" lon="0.10745">
        <ele>98</ele>
        <time>2018-03-04T10:02:36Z</time>
      </trkpt>
      <trkpt lat="47.3384" lon="0.10738">
        <ele>98</ele>
        <time>2018-03-04T10:02:40Z</time>
      </trkpt>
      <trkpt lat="47.3383" lon="0.10728">
        <ele>95</ele>
        <time>2018-03-04T10:02:43Z</time>
      </trkpt>
      <trkpt lat="47.3382" lon="0.10717">
        <ele>94</ele>
        <time>2018-03-04T10:02:46Z</time>
      </trkpt>
      <trkpt lat="47.33815" lon="0.10707">
        <ele>94</ele>
        <time>2018-03-04T10:02:48Z</time>
      </trkpt>
      <trkpt lat="47.33808" lon="0.10694">
        <ele>93</ele>
        <time>2018-03-04T10:02:51Z</time>
      </trkpt>
      <trkpt lat="47.33806" lon="0.1069">
        <ele>93</ele>
        <time>2018-03-04T10:02:52Z</time>
      </trkpt>
      <trkpt lat="47.33797" lon="0.10679">
        <ele>93</ele>
        <time>2018-03-04T10:02:56Z</time>
      </trkpt>
      <trkpt lat="47.33784" lon="0.1066">
        <ele>92</ele>
        <time>2018-03-04T10:03:01Z</time>
      </trkpt>
      <trkpt lat="47.33782" lon="0.10659">
        <ele>91</ele>
        <time>2018-03-04T10:03:02Z</time>
      </trkpt>
      <trkpt lat="47.33774" lon="0.10651">
        <ele>91</ele>
        <time>2018-03-04T10:03:08Z</time>
      </trkpt>
      <trkpt lat="47.3377" lon="0.10644">
        <ele>91</ele>
        <time>2018-03-04T10:03:09Z</time>
      </trkpt>
      <trkpt lat="47.33762" lon="0.10631">
        <ele>91</ele>
        <time>2018-03-04T10:03:12Z</time>
      </trkpt>
      <trkpt lat="47.33757" lon="0.10625">
        <ele>90</ele>
        <time>2018-03-04T10:03:14Z</time>
      </trkpt>
      <trkpt lat="47.33755" lon="0.10622">
        <ele>90</ele>
        <time>2018-03-04T10:03:15Z</time>
      </trkpt>
      <trkpt lat="47.33752" lon="0.10619">
        <ele>90</ele>
        <time>2018-03-04T10:03:16Z</time>
      </trkpt>
      <trkpt lat="47.3375" lon="0.10615">
        <ele>84</ele>
        <time>2018-03-04T10:03:17Z</time>
      </trkpt>
      <trkpt lat="47.33748" lon="0.10611">
        <ele>84</ele>
        <time>2018-03-04T10:03:18Z</time>
      </trkpt>
      <trkpt lat="47.33745" lon="0.10606">
        <ele>84</ele>
        <time>2018-03-04T10:03:20Z</time>
      </trkpt>
      <trkpt lat="47.33742" lon="0.10603">
        <ele>84</ele>
        <time>2018-03-04T10:03:21Z</time>
      </trkpt>
      <trkpt lat="47.33738" lon="0.10596">
        <ele>84</ele>
        <time>2018-03-04T10:03:23Z</time>
      </trkpt>
      <trkpt lat="47.33733" lon="0.10584">
        <ele>84</ele>
        <time>2018-03-04T10:03:26Z</time>
      </trkpt>
      <trkpt lat="47.33731" lon="0.10579">
        <ele>83</ele>
        <time>2018-03-04T10:03:28Z</time>
      </trkpt>
      <trkpt lat="47.33729" lon="0.10578">
        <ele>83</ele>
        <time>2018-03-04T10:03:29Z</time>
      </trkpt>
      <trkpt lat="47.33726" lon="0.10575">
        <ele>83</ele>
        <time>2018-03-04T10:03:30Z</time>
      </trkpt>
      <trkpt lat="47.33722" lon="0.10573">
        <ele>82</ele>
        <time>2018-03-04T10:03:32Z</time>
      </trkpt>
      <trkpt lat="47.33715" lon="0.10568">
        <ele>82</ele>
        <time>2018-03-04T10:03:34Z</time>
      </trkpt>
      <trkpt lat="47.33702" lon="0.10558">
        <ele>81</ele>
        <time>2018-03-04T10:03:36Z</time>
      </trkpt>
      <trkpt lat="47.33696" lon="0.10556">
        <ele>81</ele>
        <time>2018-03-04T10:03:37Z</time>
      </trkpt>
      <trkpt lat="47.33685" lon="0.10567">
        <ele>80</ele>
        <time>2018-03-04T10:03:40Z</time>
      </trkpt>
      <trkpt lat="47.33682" lon="0.10579">
        <ele>80</ele>
        <time>2018-03-04T10:03:42Z</time>
      </trkpt>
      <trkpt lat="47.33679" lon="0.1059">
        <ele>80</ele>
        <time>2018-03-04T10:03:44Z</time>
      </trkpt>
      <trkpt lat="47.33675" lon="0.10598">
        <ele>80</ele>
        <time>2018-03-04T10:03:46Z</time>
      </trkpt>
      <trkpt lat="47.33662" lon="0.10597">
        <ele>78</ele>
        <time>2018-03-04T10:03:49Z</time>
      </trkpt>
      <trkpt lat="47.33657" lon="0.10599">
        <ele>78</ele>
        <time>2018-03-04T10:03:50Z</time>
      </trkpt>
      <trkpt lat="47.33647" lon="0.10607">
        <ele>78</ele>
        <time>2018-03-04T10:03:52Z</time>
      </trkpt>
      <trkpt lat="47.33633" lon="0.10621">
        <ele>78</ele>
        <time>2018-03-04T10:03:56Z</time>
      </trkpt>
      <trkpt lat="47.33631" lon="0.10623">
        <ele>78</ele>
        <time>2018-03-04T10:03:57Z</time>
      </trkpt>
      <trkpt lat="47.33625" lon="0.10635">
        <ele>77</ele>
        <time>2018-03-04T10:04:25Z</time>
      </trkpt>
      <trkpt lat="47.33623" lon="0.10638">
        <ele>77</ele>
        <time>2018-03-04T10:04:26Z</time>
      </trkpt>
      <trkpt lat="47.33617" lon="0.10652">
        <ele>77</ele>
        <time>2018-03-04T10:04:29Z</time>
      </trkpt>
      <trkpt lat="47.33609" lon="0.10669">
        <ele>78</ele>
        <time>2018-03-04T10:04:32Z</time>
      </trkpt>
      <trkpt lat="47.33604" lon="0.10682">
        <ele>78</ele>
        <time>2018-03-04T10:04:34Z</time>
      </trkpt>
      <trkpt lat="47.33597" lon="0.10701">
        <ele>78</ele>
        <time>2018-03-04T10:04:37Z</time>
      </trkpt>
      <trkpt lat="47.33593" lon="0.10711">
        <ele>79</ele>
        <time>2018-03-04T10:04:39Z</time>
      </trkpt>
      <trkpt lat="47.33583" lon="0.10733">
        <ele>82</ele>
        <time>2018-03-04T10:04:43Z</time>
      </trkpt>
      <trkpt lat="47.33579" lon="0.10743">
        <ele>81</ele>
        <time>2018-03-04T10:04:45Z</time>
      </trkpt>
      <trkpt lat="47.33571" lon="0.10758">
        <ele>83</ele>
        <time>2018-03-04T10:04:48Z</time>
      </trkpt>
      <trkpt lat="47.33569" lon="0.10762">
        <ele>83</ele>
        <time>2018-03-04T10:04:49Z</time>
      </trkpt>
      <trkpt lat="47.3356" lon="0.10788">
        <ele>84</ele>
        <time>2018-03-04T10:04:54Z</time>
      </trkpt>
      <trkpt lat="47.33551" lon="0.10807">
        <ele>85</ele>
        <time>2018-03-04T10:05:00Z</time>
      </trkpt>
      <trkpt lat="47.33545" lon="0.10827">
        <ele>85</ele>
        <time>2018-03-04T10:05:06Z</time>
      </trkpt>
      <trkpt lat="47.33536" lon="0.10854">
        <ele>84</ele>
        <time>2018-03-04T10:06:41Z</time>
      </trkpt>
      <trkpt lat="47.33535" lon="0.10859">
        <ele>84</ele>
        <time>2018-03-04T10:06:42Z</time>
      </trkpt>
      <trkpt lat="47.33531" lon="0.10869">
        <ele>84</ele>
        <time>2018-03-04T10:06:44Z</time>
      </trkpt>
      <trkpt lat="47.33528" lon="0.10877">
        <ele>84</ele>
        <time>2018-03-04T10:06:46Z</time>
      </trkpt>
      <trkpt lat="47.33525" lon="0.10884">
        <ele>84</ele>
        <time>2018-03-04T10:06:48Z</time>
      </trkpt>
      <trkpt lat="47.33521" lon="0.10892">
        <ele>84</ele>
        <time>2018-03-04T10:06:50Z</time>
      </trkpt>
      <trkpt lat="47.33519" lon="0.10896">
        <ele>85</ele>
        <time>2018-03-04T10:06:51Z</time>
      </trkpt>
      <trkpt lat="47.33511" lon="0.10907">
        <ele>86</ele>
        <time>2018-03-04T10:06:54Z</time>
      </trkpt>
      <trkpt lat="47.33504" lon="0.10925">
        <ele>85</ele>
        <time>2018-03-04T10:06:58Z</time>
      </trkpt>
      <trkpt lat="47.33502" lon="0.10929">
        <ele>85</ele>
        <time>2018-03-04T10:06:59Z</time>
      </trkpt>
      <trkpt lat="47.33492" lon="0.10947">
        <ele>88</ele>
        <time>2018-03-04T10:07:04Z</time>
      </trkpt>
      <trkpt lat="47.3349" lon="0.10951">
        <ele>88</ele>
        <time>2018-03-04T10:07:06Z</time>
      </trkpt>
      <trkpt lat="47.33487" lon="0.10957">
        <ele>88</ele>
        <time>2018-03-04T10:07:09Z</time>
      </trkpt>
      <trkpt lat="47.33479" lon="0.1097">
        <ele>88</ele>
        <time>2018-03-04T10:07:14Z</time>
      </trkpt>
      <trkpt lat="47.33477" lon="0.10972">
        <ele>87</ele>
        <time>2018-03-04T10:07:15Z</time>
      </trkpt>
      <trkpt lat="47.33465" lon="0.10984">
        <ele>88</ele>
        <time>2018-03-04T10:07:21Z</time>
      </trkpt>
      <trkpt lat="47.33453" lon="0.11008">
        <ele>85</ele>
        <time>2018-03-04T10:07:27Z</time>
      </trkpt>
      <trkpt lat="47.33447" lon="0.1104">
        <ele>85</ele>
        <time>2018-03-04T10:07:32Z</time>
      </trkpt>
      <trkpt lat="47.33436" lon="0.11066">
        <ele>85</ele>
        <time>2018-03-04T10:07:36Z</time>
      </trkpt>
      <trkpt lat="47.33434" lon="0.11073">
        <ele>85</ele>
        <time>2018-03-04T10:07:37Z</time>
      </trkpt>
      <trkpt lat="47.33433" lon="0.1108">
        <ele>85</ele>
        <time>2018-03-04T10:07:38Z</time>
      </trkpt>
      <trkpt lat="47.33428" lon="0.11105">
        <ele>83</ele>
        <time>2018-03-04T10:07:41Z</time>
      </trkpt>
      <trkpt lat="47.33425" lon="0.11112">
        <ele>83</ele>
        <time>2018-03-04T10:07:42Z</time>
      </trkpt>
      <trkpt lat="47.33416" lon="0.11136">
        <ele>86</ele>
        <time>2018-03-04T10:07:45Z</time>
      </trkpt>
      <trkpt lat="47.33413" lon="0.11144">
        <ele>86</ele>
        <time>2018-03-04T10:07:46Z</time>
      </trkpt>
      <trkpt lat="47.33408" lon="0.11151">
        <ele>86</ele>
        <time>2018-03-04T10:07:47Z</time>
      </trkpt>
      <trkpt lat="47.33394" lon="0.11165">
        <ele>86</ele>
        <time>2018-03-04T10:07:50Z</time>
      </trkpt>
      <trkpt lat="47.3339" lon="0.11168">
        <ele>84</ele>
        <time>2018-03-04T10:07:51Z</time>
      </trkpt>
      <trkpt lat="47.33386" lon="0.11172">
        <ele>84</ele>
        <time>2018-03-04T10:07:52Z</time>
      </trkpt>
      <trkpt lat="47.33376" lon="0.11188">
        <ele>85</ele>
        <time>2018-03-04T10:07:56Z</time>
      </trkpt>
      <trkpt lat="47.33374" lon="0.11192">
        <ele>85</ele>
        <time>2018-03-04T10:07:57Z</time>
      </trkpt>
      <trkpt lat="47.3337" lon="0.11198">
        <ele>85</ele>
        <time>2018-03-04T10:07:59Z</time>
      </trkpt>
      <trkpt lat="47.33365" lon="0.11204">
        <ele>85</ele>
        <time>2018-03-04T10:08:01Z</time>
      </trkpt>
      <trkpt lat="47.33363" lon="0.11207">
        <ele>85</ele>
        <time>2018-03-04T10:08:02Z</time>
      </trkpt>
      <trkpt lat="47.33356" lon="0.11216">
        <ele>84</ele>
        <time>2018-03-04T10:08:05Z</time>
      </trkpt>
      <trkpt lat="47.33353" lon="0.11219">
        <ele>84</ele>
        <time>2018-03-04T10:08:06Z</time>
      </trkpt>
      <trkpt lat="47.33346" lon="0.11229">
        <ele>84</ele>
        <time>2018-03-04T10:08:09Z</time>
      </trkpt>
      <trkpt lat="47.33335" lon="0.1124">
        <ele>84</ele>
        <time>2018-03-04T10:08:14Z</time>
      </trkpt>
      <trkpt lat="47.3333" lon="0.11246">
        <ele>85</ele>
        <time>2018-03-04T10:08:16Z</time>
      </trkpt>
      <trkpt lat="47.33315" lon="0.11262">
        <ele>84</ele>
        <time>2018-03-04T10:08:22Z</time>
      </trkpt>
      <trkpt lat="47.33294" lon="0.11283">
        <ele>84</ele>
        <time>2018-03-04T10:08:29Z</time>
      </trkpt>
      <trkpt lat="47.33277" lon="0.11302">
        <ele>84</ele>
        <time>2018-03-04T10:08:34Z</time>
      </trkpt>
      <trkpt lat="47.33273" lon="0.11306">
        <ele>84</ele>
        <time>2018-03-04T10:08:35Z</time>
      </trkpt>
      <trkpt lat="47.33265" lon="0.11315">
        <ele>83</ele>
        <time>2018-03-04T10:08:37Z</time>
      </trkpt>
      <trkpt lat="47.33257" lon="0.11324">
        <ele>83</ele>
        <time>2018-03-04T10:08:39Z</time>
      </trkpt>
      <trkpt lat="47.33246" lon="0.11337">
        <ele>83</ele>
        <time>2018-03-04T10:08:42Z</time>
      </trkpt>
      <trkpt lat="47.33242" lon="0.11342">
        <ele>83</ele>
        <time>2018-03-04T10:08:43Z</time>
      </trkpt>
      <trkpt lat="47.33233" lon="0.1135">
        <ele>84</ele>
        <time>2018-03-04T10:08:45Z</time>
      </trkpt>
      <trkpt lat="47.33228" lon="0.11353">
        <ele>84</ele>
        <time>2018-03-04T10:08:46Z</time>
      </trkpt>
      <trkpt lat="47.33223" lon="0.11356">
        <ele>84</ele>
        <time>2018-03-04T10:08:47Z</time>
      </trkpt>
      <trkpt lat="47.33213" lon="0.11363">
        <ele>85</ele>
        <time>2018-03-04T10:08:49Z</time>
      </trkpt>
      <trkpt lat="47.3321" lon="0.11368">
        <ele>85</ele>
        <time>2018-03-04T10:08:50Z</time>
      </trkpt>
      <trkpt lat="47.33204" lon="0.11376">
        <ele>85</ele>
        <time>2018-03-04T10:08:52Z</time>
      </trkpt>
      <trkpt lat="47.33193" lon="0.11396">
        <ele>85</ele>
        <time>2018-03-04T10:08:57Z</time>
      </trkpt>
      <trkpt lat="47.33183" lon="0.11416">
        <ele>85</ele>
        <time>2018-03-04T10:09:02Z</time>
      </trkpt>
      <trkpt lat="47.33183" lon="0.11425">
        <ele>81</ele>
        <time>2018-03-04T10:09:04Z</time>
      </trkpt>
      <trkpt lat="47.33186" lon="0.11436">
        <ele>80</ele>
        <time>2018-03-04T10:09:06Z</time>
      </trkpt>
      <trkpt lat="47.33191" lon="0.11449">
        <ele>79</ele>
        <time>2018-03-04T10:09:08Z</time>
      </trkpt>
      <trkpt lat="47.33195" lon="0.11454">
        <ele>79</ele>
        <time>2018-03-04T10:09:09Z</time>
      </trkpt>
      <trkpt lat="47.33197" lon="0.11459">
        <ele>78</ele>
        <time>2018-03-04T10:09:10Z</time>
      </trkpt>
      <trkpt lat="47.33197" lon="0.11466">
        <ele>78</ele>
        <time>2018-03-04T10:09:12Z</time>
      </trkpt>
      <trkpt lat="47.33196" lon="0.11469">
        <ele>78</ele>
        <time>2018-03-04T10:09:13Z</time>
      </trkpt>
      <trkpt lat="47.33191" lon="0.11473">
        <ele>78</ele>
        <time>2018-03-04T10:09:15Z</time>
      </trkpt>
      <trkpt lat="47.33187" lon="0.11475">
        <ele>78</ele>
        <time>2018-03-04T10:09:16Z</time>
      </trkpt>
      <trkpt lat="47.33166" lon="0.11493">
        <ele>78</ele>
        <time>2018-03-04T10:09:22Z</time>
      </trkpt>
      <trkpt lat="47.33143" lon="0.11506">
        <ele>75</ele>
        <time>2018-03-04T10:09:28Z</time>
      </trkpt>
      <trkpt lat="47.33129" lon="0.11516">
        <ele>76</ele>
        <time>2018-03-04T10:09:32Z</time>
      </trkpt>
      <trkpt lat="47.33123" lon="0.11522">
        <ele>76</ele>
        <time>2018-03-04T10:09:34Z</time>
      </trkpt>
      <trkpt lat="47.33102" lon="0.11544">
        <ele>75</ele>
        <time>2018-03-04T10:09:41Z</time>
      </trkpt>
      <trkpt lat="47.33078" lon="0.11561">
        <ele>77</ele>
        <time>2018-03-04T10:09:47Z</time>
      </trkpt>
      <trkpt lat="47.33062" lon="0.1157">
        <ele>77</ele>
        <time>2018-03-04T10:09:51Z</time>
      </trkpt>
      <trkpt lat="47.33045" lon="0.11578">
        <ele>78</ele>
        <time>2018-03-04T10:09:55Z</time>
      </trkpt>
      <trkpt lat="47.33033" lon="0.11581">
        <ele>78</ele>
        <time>2018-03-04T10:09:58Z</time>
      </trkpt>
      <trkpt lat="47.33021" lon="0.11585">
        <ele>73</ele>
        <time>2018-03-04T10:10:01Z</time>
      </trkpt>
      <trkpt lat="47.33008" lon="0.11584">
        <ele>75</ele>
        <time>2018-03-04T10:10:04Z</time>
      </trkpt>
      <trkpt lat="47.32999" lon="0.11582">
        <ele>76</ele>
        <time>2018-03-04T10:10:06Z</time>
      </trkpt>
      <trkpt lat="47.32995" lon="0.11581">
        <ele>77</ele>
        <time>2018-03-04T10:10:07Z</time>
      </trkpt>
      <trkpt lat="47.32981" lon="0.11584">
        <ele>74</ele>
        <time>2018-03-04T10:10:11Z</time>
      </trkpt>
      <trkpt lat="47.32968" lon="0.11587">
        <ele>73</ele>
        <time>2018-03-04T10:10:15Z</time>
      </trkpt>
      <trkpt lat="47.3296" lon="0.11584">
        <ele>73</ele>
        <time>2018-03-04T10:10:17Z</time>
      </trkpt>
      <trkpt lat="47.32947" lon="0.11583">
        <ele>79</ele>
        <time>2018-03-04T10:10:21Z</time>
      </trkpt>
      <trkpt lat="47.32918" lon="0.11581">
        <ele>75</ele>
        <time>2018-03-04T10:10:28Z</time>
      </trkpt>
      <trkpt lat="47.329" lon="0.11575">
        <ele>76</ele>
        <time>2018-03-04T10:10:33Z</time>
      </trkpt>
      <trkpt lat="47.32891" lon="0.11568">
        <ele>77</ele>
        <time>2018-03-04T10:10:36Z</time>
      </trkpt>
      <trkpt lat="47.32866" lon="0.11555">
        <ele>77</ele>
        <time>2018-03-04T10:10:43Z</time>
      </trkpt>
      <trkpt lat="47.32848" lon="0.11543">
        <ele>78</ele>
        <time>2018-03-04T10:10:48Z</time>
      </trkpt>
      <trkpt lat="47.32845" lon="0.1154">
        <ele>78</ele>
        <time>2018-03-04T10:10:49Z</time>
      </trkpt>
      <trkpt lat="47.32824" lon="0.11533">
        <ele>75</ele>
        <time>2018-03-04T10:10:55Z</time>
      </trkpt>
      <trkpt lat="47.32807" lon="0.11521">
        <ele>75</ele>
        <time>2018-03-04T10:11:01Z</time>
      </trkpt>
      <trkpt lat="47.3279" lon="0.11508">
        <ele>74</ele>
        <time>2018-03-04T10:11:07Z</time>
      </trkpt>
      <trkpt lat="47.32767" lon="0.11492">
        <ele>76</ele>
        <time>2018-03-04T10:11:14Z</time>
      </trkpt>
      <trkpt lat="47.32752" lon="0.11479">
        <ele>76</ele>
        <time>2018-03-04T10:11:19Z</time>
      </trkpt>
      <trkpt lat="47.32727" lon="0.1146">
        <ele>73</ele>
        <time>2018-03-04T10:11:26Z</time>
      </trkpt>
      <trkpt lat="47.32724" lon="0.11458">
        <ele>73</ele>
        <time>2018-03-04T10:11:27Z</time>
      </trkpt>
      <trkpt lat="47.32712" lon="0.11439">
        <ele>74</ele>
        <time>2018-03-04T10:11:33Z</time>
      </trkpt>
      <trkpt lat="47.32706" lon="0.11422">
        <ele>74</ele>
        <time>2018-03-04T10:11:38Z</time>
      </trkpt>
      <trkpt lat="47.32705" lon="0.11415">
        <ele>77</ele>
        <time>2018-03-04T10:11:40Z</time>
      </trkpt>
      <trkpt lat="47.32701" lon="0.11401">
        <ele>78</ele>
        <time>2018-03-04T10:11:44Z</time>
      </trkpt>
      <trkpt lat="47.32698" lon="0.11393">
        <ele>78</ele>
        <time>2018-03-04T10:11:47Z</time>
      </trkpt>
      <trkpt lat="47.32694" lon="0.11377">
        <ele>78</ele>
        <time>2018-03-04T10:11:52Z</time>
      </trkpt>
      <trkpt lat="47.32692" lon="0.11372">
        <ele>79</ele>
        <time>2018-03-04T10:11:54Z</time>
      </trkpt>
      <trkpt lat="47.32692" lon="0.11369">
        <ele>79</ele>
        <time>2018-03-04T10:11:55Z</time>
      </trkpt>
      <trkpt lat="47.32689" lon="0.1136">
        <ele>79</ele>
        <time>2018-03-04T10:11:59Z</time>
      </trkpt>
      <trkpt lat="47.32689" lon="0.11358">
        <ele>79</ele>
        <time>2018-03-04T10:12:00Z</time>
      </trkpt>
      <trkpt lat="47.32687" lon="0.11354">
        <ele>79</ele>
        <time>2018-03-04T10:12:02Z</time>
      </trkpt>
      <trkpt lat="47.32685" lon="0.11344">
        <ele>79</ele>
        <time>2018-03-04T10:12:07Z</time>
      </trkpt>
      <trkpt lat="47.32683" lon="0.11339">
        <ele>80</ele>
        <time>2018-03-04T10:12:10Z</time>
      </trkpt>
      <trkpt lat="47.32681" lon="0.11334">
        <ele>80</ele>
        <time>2018-03-04T10:12:13Z</time>
      </trkpt>
      <trkpt lat="47.3268" lon="0.11325">
        <ele>82</ele>
        <time>2018-03-04T10:12:17Z</time>
      </trkpt>
      <trkpt lat="47.32678" lon="0.11317">
        <ele>83</ele>
        <time>2018-03-04T10:12:21Z</time>
      </trkpt>
      <trkpt lat="47.32676" lon="0.11313">
        <ele>83</ele>
        <time>2018-03-04T10:12:23Z</time>
      </trkpt>
      <trkpt lat="47.32674" lon="0.11303">
        <ele>84</ele>
        <time>2018-03-04T10:12:28Z</time>
      </trkpt>
      <trkpt lat="47.32673" lon="0.11297">
        <ele>84</ele>
        <time>2018-03-04T10:12:31Z</time>
      </trkpt>
      <trkpt lat="47.32672" lon="0.11293">
        <ele>84</ele>
        <time>2018-03-04T10:12:34Z</time>
      </trkpt>
      <trkpt lat="47.32669" lon="0.11282">
        <ele>85</ele>
        <time>2018-03-04T10:12:39Z</time>
      </trkpt>
      <trkpt lat="47.32668" lon="0.1128">
        <ele>85</ele>
        <time>2018-03-04T10:12:40Z</time>
      </trkpt>
      <trkpt lat="47.32666" lon="0.11274">
        <ele>83</ele>
        <time>2018-03-04T10:12:44Z</time>
      </trkpt>
      <trkpt lat="47.32665" lon="0.11273">
        <ele>83</ele>
        <time>2018-03-04T10:12:45Z</time>
      </trkpt>
      <trkpt lat="47.32664" lon="0.11265">
        <ele>84</ele>
        <time>2018-03-04T10:12:50Z</time>
      </trkpt>
      <trkpt lat="47.32665" lon="0.11264">
        <ele>84</ele>
        <time>2018-03-04T10:12:51Z</time>
      </trkpt>
      <trkpt lat="47.32665" lon="0.11259">
        <ele>85</ele>
        <time>2018-03-04T10:12:54Z</time>
      </trkpt>
      <trkpt lat="47.32663" lon="0.11247">
        <ele>86</ele>
        <time>2018-03-04T10:13:00Z</time>
      </trkpt>
      <trkpt lat="47.3266" lon="0.11229">
        <ele>85</ele>
        <time>2018-03-04T10:13:07Z</time>
      </trkpt>
      <trkpt lat="47.32657" lon="0.11222">
        <ele>85</ele>
        <time>2018-03-04T10:13:10Z</time>
      </trkpt>
      <trkpt lat="47.32656" lon="0.11215">
        <ele>85</ele>
        <time>2018-03-04T10:13:12Z</time>
      </trkpt>
      <trkpt lat="47.32655" lon="0.11211">
        <ele>85</ele>
        <time>2018-03-04T10:13:13Z</time>
      </trkpt>
      <trkpt lat="47.32651" lon="0.11201">
        <ele>85</ele>
        <time>2018-03-04T10:13:15Z</time>
      </trkpt>
      <trkpt lat="47.32648" lon="0.11192">
        <ele>85</ele>
        <time>2018-03-04T10:13:17Z</time>
      </trkpt>
      <trkpt lat="47.32647" lon="0.11187">
        <ele>85</ele>
        <time>2018-03-04T10:13:18Z</time>
      </trkpt>
      <trkpt lat="47.32646" lon="0.11183">
        <ele>85</ele>
        <time>2018-03-04T10:13:19Z</time>
      </trkpt>
      <trkpt lat="47.32641" lon="0.11169">
        <ele>85</ele>
        <time>2018-03-04T10:13:23Z</time>
      </trkpt>
      <trkpt lat="47.32635" lon="0.11149">
        <ele>88</ele>
        <time>2018-03-04T10:13:30Z</time>
      </trkpt>
      <trkpt lat="47.32633" lon="0.11143">
        <ele>88</ele>
        <time>2018-03-04T10:13:33Z</time>
      </trkpt>
      <trkpt lat="47.32632" lon="0.11134">
        <ele>88</ele>
        <time>2018-03-04T10:13:37Z</time>
      </trkpt>
      <trkpt lat="47.32631" lon="0.11128">
        <ele>89</ele>
        <time>2018-03-04T10:13:40Z</time>
      </trkpt>
      <trkpt lat="47.3263" lon="0.1112">
        <ele>89</ele>
        <time>2018-03-04T10:13:44Z</time>
      </trkpt>
      <trkpt lat="47.32629" lon="0.11114">
        <ele>89</ele>
        <time>2018-03-04T10:13:47Z</time>
      </trkpt>
      <trkpt lat="47.32627" lon="0.11106">
        <ele>89</ele>
        <time>2018-03-04T10:13:51Z</time>
      </trkpt>
      <trkpt lat="47.32625" lon="0.11101">
        <ele>90</ele>
        <time>2018-03-04T10:13:54Z</time>
      </trkpt>
      <trkpt lat="47.32622" lon="0.11093">
        <ele>90</ele>
        <time>2018-03-04T10:13:59Z</time>
      </trkpt>
      <trkpt lat="47.32619" lon="0.11089">
        <ele>90</ele>
        <time>2018-03-04T10:14:02Z</time>
      </trkpt>
      <trkpt lat="47.32617" lon="0.11087">
        <ele>90</ele>
        <time>2018-03-04T10:14:06Z</time>
      </trkpt>
      <trkpt lat="47.32588" lon="0.11042">
        <ele>95</ele>
        <time>2018-03-04T10:15:13Z</time>
      </trkpt>
      <trkpt lat="47.32589" lon="0.1104">
        <ele>95</ele>
        <time>2018-03-04T10:15:14Z</time>
      </trkpt>
      <trkpt lat="47.32589" lon="0.11036">
        <ele>95</ele>
        <time>2018-03-04T10:15:16Z</time>
      </trkpt>
      <trkpt lat="47.32591" lon="0.1103">
        <ele>96</ele>
        <time>2018-03-04T10:15:19Z</time>
      </trkpt>
      <trkpt lat="47.32593" lon="0.11021">
        <ele>96</ele>
        <time>2018-03-04T10:15:24Z</time>
      </trkpt>
      <trkpt lat="47.32592" lon="0.11014">
        <ele>96</ele>
        <time>2018-03-04T10:15:28Z</time>
      </trkpt>
      <trkpt lat="47.32592" lon="0.11005">
        <ele>97</ele>
        <time>2018-03-04T10:15:32Z</time>
      </trkpt>
      <trkpt lat="47.32592" lon="0.10997">
        <ele>99</ele>
        <time>2018-03-04T10:15:36Z</time>
      </trkpt>
      <trkpt lat="47.32591" lon="0.10993">
        <ele>99</ele>
        <time>2018-03-04T10:15:39Z</time>
      </trkpt>
      <trkpt lat="47.32588" lon="0.10983">
        <ele>100</ele>
        <time>2018-03-04T10:15:44Z</time>
      </trkpt>
      <trkpt lat="47.32587" lon="0.10978">
        <ele>100</ele>
        <time>2018-03-04T10:15:47Z</time>
      </trkpt>
      <trkpt lat="47.32582" lon="0.10965">
        <ele>99</ele>
        <time>2018-03-04T10:15:55Z</time>
      </trkpt>
      <trkpt lat="47.32582" lon="0.10963">
        <ele>99</ele>
        <time>2018-03-04T10:15:56Z</time>
      </trkpt>
      <trkpt lat="47.32577" lon="0.10948">
        <ele>100</ele>
        <time>2018-03-04T10:16:03Z</time>
      </trkpt>
      <trkpt lat="47.32577" lon="0.10944">
        <ele>100</ele>
        <time>2018-03-04T10:16:05Z</time>
      </trkpt>
      <trkpt lat="47.32573" lon="0.10924">
        <ele>101</ele>
        <time>2018-03-04T10:16:13Z</time>
      </trkpt>
      <trkpt lat="47.32571" lon="0.10914">
        <ele>102</ele>
        <time>2018-03-04T10:16:17Z</time>
      </trkpt>
      <trkpt lat="47.32568" lon="0.10902">
        <ele>102</ele>
        <time>2018-03-04T10:16:21Z</time>
      </trkpt>
      <trkpt lat="47.32565" lon="0.1089">
        <ele>103</ele>
        <time>2018-03-04T10:16:25Z</time>
      </trkpt>
      <trkpt lat="47.32562" lon="0.10878">
        <ele>103</ele>
        <time>2018-03-04T10:16:29Z</time>
      </trkpt>
      <trkpt lat="47.32554" lon="0.10851">
        <ele>104</ele>
        <time>2018-03-04T10:16:38Z</time>
      </trkpt>
      <trkpt lat="47.32554" lon="0.10834">
        <ele>104</ele>
        <time>2018-03-04T10:16:44Z</time>
      </trkpt>
      <trkpt lat="47.32563" lon="0.10823">
        <ele>106</ele>
        <time>2018-03-04T10:16:50Z</time>
      </trkpt>
      <trkpt lat="47.32567" lon="0.10811">
        <ele>106</ele>
        <time>2018-03-04T10:16:55Z</time>
      </trkpt>
      <trkpt lat="47.32566" lon="0.10802">
        <ele>106</ele>
        <time>2018-03-04T10:16:59Z</time>
      </trkpt>
      <trkpt lat="47.32562" lon="0.108">
        <ele>106</ele>
        <time>2018-03-04T10:17:01Z</time>
      </trkpt>
      <trkpt lat="47.32554" lon="0.10792">
        <ele>106</ele>
        <time>2018-03-04T10:17:05Z</time>
      </trkpt>
      <trkpt lat="47.32552" lon="0.10789">
        <ele>106</ele>
        <time>2018-03-04T10:17:06Z</time>
      </trkpt>
      <trkpt lat="47.32541" lon="0.10777">
        <ele>107</ele>
        <time>2018-03-04T10:17:11Z</time>
      </trkpt>
      <trkpt lat="47.3252" lon="0.10771">
        <ele>106</ele>
        <time>2018-03-04T10:17:18Z</time>
      </trkpt>
      <trkpt lat="47.32512" lon="0.10769">
        <ele>106</ele>
        <time>2018-03-04T10:17:20Z</time>
      </trkpt>
      <trkpt lat="47.32501" lon="0.10766">
        <ele>107</ele>
        <time>2018-03-04T10:17:23Z</time>
      </trkpt>
      <trkpt lat="47.32494" lon="0.10764">
        <ele>104</ele>
        <time>2018-03-04T10:17:25Z</time>
      </trkpt>
      <trkpt lat="47.32474" lon="0.10751">
        <ele>103</ele>
        <time>2018-03-04T10:17:31Z</time>
      </trkpt>
      <trkpt lat="47.3247" lon="0.10749">
        <ele>105</ele>
        <time>2018-03-04T10:17:32Z</time>
      </trkpt>
      <trkpt lat="47.32445" lon="0.10732">
        <ele>104</ele>
        <time>2018-03-04T10:17:39Z</time>
      </trkpt>
      <trkpt lat="47.32434" lon="0.10732">
        <ele>103</ele>
        <time>2018-03-04T10:17:42Z</time>
      </trkpt>
      <trkpt lat="47.32427" lon="0.10731">
        <ele>103</ele>
        <time>2018-03-04T10:17:44Z</time>
      </trkpt>
      <trkpt lat="47.32413" lon="0.10734">
        <ele>98</ele>
        <time>2018-03-04T10:17:48Z</time>
      </trkpt>
      <trkpt lat="47.324" lon="0.10735">
        <ele>97</ele>
        <time>2018-03-04T10:17:51Z</time>
      </trkpt>
      <trkpt lat="47.32391" lon="0.10736">
        <ele>96</ele>
        <time>2018-03-04T10:17:53Z</time>
      </trkpt>
      <trkpt lat="47.32382" lon="0.10737">
        <ele>96</ele>
        <time>2018-03-04T10:17:55Z</time>
      </trkpt>
      <trkpt lat="47.32374" lon="0.1074">
        <ele>95</ele>
        <time>2018-03-04T10:17:57Z</time>
      </trkpt>
      <trkpt lat="47.32367" lon="0.10743">
        <ele>94</ele>
        <time>2018-03-04T10:17:59Z</time>
      </trkpt>
      <trkpt lat="47.3236" lon="0.10745">
        <ele>93</ele>
        <time>2018-03-04T10:18:01Z</time>
      </trkpt>
      <trkpt lat="47.32356" lon="0.10747">
        <ele>93</ele>
        <time>2018-03-04T10:18:02Z</time>
      </trkpt>
      <trkpt lat="47.32353" lon="0.10748">
        <ele>92</ele>
        <time>2018-03-04T10:18:03Z</time>
      </trkpt>
      <trkpt lat="47.32348" lon="0.1075">
        <ele>91</ele>
        <time>2018-03-04T10:18:05Z</time>
      </trkpt>
      <trkpt lat="47.32345" lon="0.1075">
        <ele>90</ele>
        <time>2018-03-04T10:18:06Z</time>
      </trkpt>
      <trkpt lat="47.32343" lon="0.10751">
        <ele>89</ele>
        <time>2018-03-04T10:18:07Z</time>
      </trkpt>
      <trkpt lat="47.32336" lon="0.10752">
        <ele>89</ele>
        <time>2018-03-04T10:18:09Z</time>
      </trkpt>
      <trkpt lat="47.3233" lon="0.10753">
        <ele>87</ele>
        <time>2018-03-04T10:18:11Z</time>
      </trkpt>
      <trkpt lat="47.32328" lon="0.10754">
        <ele>87</ele>
        <time>2018-03-04T10:18:12Z</time>
      </trkpt>
      <trkpt lat="47.32326" lon="0.10756">
        <ele>86</ele>
        <time>2018-03-04T10:18:13Z</time>
      </trkpt>
      <trkpt lat="47.32321" lon="0.10758">
        <ele>85</ele>
        <time>2018-03-04T10:18:15Z</time>
      </trkpt>
      <trkpt lat="47.32315" lon="0.10762">
        <ele>84</ele>
        <time>2018-03-04T10:18:17Z</time>
      </trkpt>
      <trkpt lat="47.32312" lon="0.10765">
        <ele>84</ele>
        <time>2018-03-04T10:18:18Z</time>
      </trkpt>
      <trkpt lat="47.32307" lon="0.10779">
        <ele>83</ele>
        <time>2018-03-04T10:18:21Z</time>
      </trkpt>
      <trkpt lat="47.32306" lon="0.10785">
        <ele>83</ele>
        <time>2018-03-04T10:18:22Z</time>
      </trkpt>
      <trkpt lat="47.32304" lon="0.10791">
        <ele>83</ele>
        <time>2018-03-04T10:18:23Z</time>
      </trkpt>
      <trkpt lat="47.32302" lon="0.10812">
        <ele>82</ele>
        <time>2018-03-04T10:18:26Z</time>
      </trkpt>
      <trkpt lat="47.32302" lon="0.1082">
        <ele>82</ele>
        <time>2018-03-04T10:18:27Z</time>
      </trkpt>
      <trkpt lat="47.32301" lon="0.10844">
        <ele>81</ele>
        <time>2018-03-04T10:18:30Z</time>
      </trkpt>
      <trkpt lat="47.32296" lon="0.10865">
        <ele>80</ele>
        <time>2018-03-04T10:18:33Z</time>
      </trkpt>
      <trkpt lat="47.32294" lon="0.10885">
        <ele>80</ele>
        <time>2018-03-04T10:18:36Z</time>
      </trkpt>
      <trkpt lat="47.32291" lon="0.10895">
        <ele>80</ele>
        <time>2018-03-04T10:18:38Z</time>
      </trkpt>
      <trkpt lat="47.3229" lon="0.10898">
        <ele>79</ele>
        <time>2018-03-04T10:18:39Z</time>
      </trkpt>
      <trkpt lat="47.32288" lon="0.10906">
        <ele>79</ele>
        <time>2018-03-04T10:18:41Z</time>
      </trkpt>
      <trkpt lat="47.32286" lon="0.10915">
        <ele>79</ele>
        <time>2018-03-04T10:18:43Z</time>
      </trkpt>
      <trkpt lat="47.32284" lon="0.10925">
        <ele>77</ele>
        <time>2018-03-04T10:18:46Z</time>
      </trkpt>
      <trkpt lat="47.32283" lon="0.10928">
        <ele>77</ele>
        <time>2018-03-04T10:18:47Z</time>
      </trkpt>
      <trkpt lat="47.32283" lon="0.10941">
        <ele>77</ele>
        <time>2018-03-04T10:18:52Z</time>
      </trkpt>
      <trkpt lat="47.32279" lon="0.10954">
        <ele>77</ele>
        <time>2018-03-04T10:18:59Z</time>
      </trkpt>
      <trkpt lat="47.32276" lon="0.10963">
        <ele>76</ele>
        <time>2018-03-04T10:19:02Z</time>
      </trkpt>
      <trkpt lat="47.32276" lon="0.10967">
        <ele>76</ele>
        <time>2018-03-04T10:19:03Z</time>
      </trkpt>
      <trkpt lat="47.32275" lon="0.10973">
        <ele>76</ele>
        <time>2018-03-04T10:19:05Z</time>
      </trkpt>
      <trkpt lat="47.32274" lon="0.10976">
        <ele>76</ele>
        <time>2018-03-04T10:19:06Z</time>
      </trkpt>
      <trkpt lat="47.32273" lon="0.10998">
        <ele>75</ele>
        <time>2018-03-04T10:20:09Z</time>
      </trkpt>
      <trkpt lat="47.32281" lon="0.11016">
        <ele>74</ele>
      </trkpt>
      <trkpt lat="47.32288" lon="0.11024">
        <ele>74</ele>
      </trkpt>
      <trkpt lat="47.32291" lon="0.11037">
        <ele>75</ele>
      </trkpt>
      <trkpt lat="47.32297" lon="0.11048">
        <ele>75</ele>
      </trkpt>
      <trkpt lat="47.32302" lon="0.11058">
        <ele>75</ele>
      </trkpt>
      <trkpt lat="47.32309" lon="0.11066">
        <ele>75</ele>
      </trkpt>
      <trkpt lat="47.32309" lon="0.11084">
        <ele>74</ele>
      </trkpt>
      <trkpt lat="47.32308" lon="0.111">
        <ele>74</ele>
      </trkpt>
      <trkpt lat="47.32302" lon="0.1111">
        <ele>73</ele>
      </trkpt>
      <trkpt lat="47.32297" lon="0.1112">
        <ele>73</ele>
      </trkpt>
      <trkpt lat="47.32291" lon="0.11131">
        <ele>73</ele>
      </trkpt>
      <trkpt lat="47.32284" lon="0.11139">
        <ele>73</ele>
      </trkpt>
      <trkpt lat="47.32277" lon="0.11146">
        <ele>72</ele>
      </trkpt>
      <trkpt lat="47.3227" lon="0.11154">
        <ele>72</ele>
      </trkpt>
      <trkpt lat="47.32265" lon="0.11165">
        <ele>72</ele>
      </trkpt>
      <trkpt lat="47.32257" lon="0.11172">
        <ele>71</ele>
      </trkpt>
      <trkpt lat="47.32248" lon="0.11178">
        <ele>70</ele>
      </trkpt>
      <trkpt lat="47.32243" lon="0.11188">
        <ele>70</ele>
      </trkpt>
      <trkpt lat="47.32236" lon="0.11196">
        <ele>69</ele>
      </trkpt>
      <trkpt lat="47.32227" lon="0.11201">
        <ele>69</ele>
      </trkpt>
      <trkpt lat="47.3222" lon="0.11209">
        <ele>69</ele>
      </trkpt>
      <trkpt lat="47.32211" lon="0.11216">
        <ele>68</ele>
      </trkpt>
      <trkpt lat="47.32203" lon="0.11224">
        <ele>68</ele>
      </trkpt>
      <trkpt lat="47.32194" lon="0.11229">
        <ele>68</ele>
      </trkpt>
      <trkpt lat="47.32187" lon="0.11237">
        <ele>68</ele>
      </trkpt>
      <trkpt lat="47.32178" lon="0.11242">
        <ele>67</ele>
      </trkpt>
      <trkpt lat="47.32171" lon="0.1125">
        <ele>66</ele>
      </trkpt>
      <trkpt lat="47.32164" lon="0.11258">
        <ele>65</ele>
      </trkpt>
      <trkpt lat="47.32155" lon="0.11266">
        <ele>64</ele>
      </trkpt>
      <trkpt lat="47.32148" lon="0.11274">
        <ele>63</ele>
      </trkpt>
      <trkpt lat="47.32139" lon="0.11279">
        <ele>63</ele>
      </trkpt>
      <trkpt lat="47.32128" lon="0.11284">
        <ele>62</ele>
      </trkpt>
      <trkpt lat="47.32119" lon="0.11292">
        <ele>62</ele>
      </trkpt>
      <trkpt lat="47.3211" lon="0.11297">
        <ele>62</ele>
      </trkpt>
      <trkpt lat="47.32101" lon="0.11302">
        <ele>62</ele>
      </trkpt>
      <trkpt lat="47.32092" lon="0.11307">
        <ele>62</ele>
      </trkpt>
      <trkpt lat="47.32085" lon="0.11315">
        <ele>61</ele>
      </trkpt>
      <trkpt lat="47.32074" lon="0.11318">
        <ele>61</ele>
      </trkpt>
      <trkpt lat="47.32067" lon="0.11326">
        <ele>61</ele>
      </trkpt>
      <trkpt lat="47.3206" lon="0.11333">
        <ele>63</ele>
      </trkpt>
      <trkpt lat="47.32049" lon="0.11339">
        <ele>63</ele>
      </trkpt>
      <trkpt lat="47.3204" lon="0.11346">
        <ele>63</ele>
      </trkpt>
      <trkpt lat="47.32033" lon="0.11354">
        <ele>64</ele>
      </trkpt>
      <trkpt lat="47.32024" lon="0.11359">
        <ele>64</ele>
      </trkpt>
      <trkpt lat="47.32017" lon="0.11367">
        <ele>64</ele>
      </trkpt>
      <trkpt lat="47.32009" lon="0.11375">
        <ele>65</ele>
      </trkpt>
      <trkpt lat="47.32002" lon="0.11383">
        <ele>65</ele>
      </trkpt>
      <trkpt lat="47.31995" lon="0.11391">
        <ele>67</ele>
      </trkpt>
      <trkpt lat="47.3199" lon="0.11401">
        <ele>68</ele>
      </trkpt>
      <trkpt lat="47.31979" lon="0.11401">
        <ele>67</ele>
      </trkpt>
      <trkpt lat="47.31968" lon="0.11398">
        <ele>67</ele>
      </trkpt>
      <trkpt lat="47.31959" lon="0.11393">
        <ele>67</ele>
      </trkpt>
      <trkpt lat="47.31948" lon="0.11391">
        <ele>67</ele>
      </trkpt>
      <trkpt lat="47.31936" lon="0.11391">
        <ele>68</ele>
      </trkpt>
      <trkpt lat="47.31925" lon="0.11393">
        <ele>68</ele>
      </trkpt>
      <trkpt lat="47.31916" lon="0.11398">
        <ele>69</ele>
      </trkpt>
      <trkpt lat="47.31903" lon="0.11398">
        <ele>69</ele>
      </trkpt>
      <trkpt lat="47.3186" lon="0.11408">
        <ele>69</ele>
        <time>2018-02-04T09:08:00Z</time>
      </trkpt>
      <trkpt lat="47.31842" lon="0.11407">
        <ele>70</ele>
        <time>2018-02-04T09:07:54Z</time>
      </trkpt>
      <trkpt lat="47.31823" lon="0.11411">
        <ele>71</ele>
        <time>2018-02-04T09:07:49Z</time>
      </trkpt>
      <trkpt lat="47.31807" lon="0.11415">
        <ele>70</ele>
        <time>2018-02-04T09:07:43Z</time>
      </trkpt>
      <trkpt lat="47.31805" lon="0.11415">
        <ele>70</ele>
        <time>2018-02-04T09:07:42Z</time>
      </trkpt>
      <trkpt lat="47.31802" lon="0.11416">
        <ele>70</ele>
        <time>2018-02-04T09:07:41Z</time>
      </trkpt>
      <trkpt lat="47.31799" lon="0.11416">
        <ele>70</ele>
        <time>2018-02-04T09:07:40Z</time>
      </trkpt>
      <trkpt lat="47.31796" lon="0.11416">
        <ele>70</ele>
        <time>2018-02-04T09:07:39Z</time>
      </trkpt>
      <trkpt lat="47.31793" lon="0.11415">
        <ele>70</ele>
        <time>2018-02-04T09:07:38Z</time>
      </trkpt>
      <trkpt lat="47.31792" lon="0.11415">
        <ele>70</ele>
        <time>2018-02-04T09:07:37Z</time>
      </trkpt>
      <trkpt lat="47.3179" lon="0.11415">
        <ele>70</ele>
        <time>2018-02-04T09:07:36Z</time>
      </trkpt>
      <trkpt lat="47.31788" lon="0.11415">
        <ele>70</ele>
        <time>2018-02-04T09:07:35Z</time>
      </trkpt>
      <trkpt lat="47.31786" lon="0.11413">
        <ele>70</ele>
        <time>2018-02-04T09:07:34Z</time>
      </trkpt>
      <trkpt lat="47.31784" lon="0.11411">
        <ele>69</ele>
        <time>2018-02-04T09:07:33Z</time>
      </trkpt>
      <trkpt lat="47.31783" lon="0.11408">
        <ele>69</ele>
        <time>2018-02-04T09:07:32Z</time>
      </trkpt>
      <trkpt lat="47.31782" lon="0.11403">
        <ele>69</ele>
        <time>2018-02-04T09:07:31Z</time>
      </trkpt>
      <trkpt lat="47.31782" lon="0.11398">
        <ele>69</ele>
        <time>2018-02-04T09:07:30Z</time>
      </trkpt>
      <trkpt lat="47.31786" lon="0.11375">
        <ele>69</ele>
        <time>2018-02-04T09:07:25Z</time>
      </trkpt>
      <trkpt lat="47.31786" lon="0.11353">
        <ele>68</ele>
        <time>2018-02-04T09:07:20Z</time>
      </trkpt>
      <trkpt lat="47.31786" lon="0.11349">
        <ele>68</ele>
        <time>2018-02-04T09:07:19Z</time>
      </trkpt>
      <trkpt lat="47.31785" lon="0.11346">
        <ele>68</ele>
        <time>2018-02-04T09:07:18Z</time>
      </trkpt>
      <trkpt lat="47.31785" lon="0.11343">
        <ele>68</ele>
        <time>2018-02-04T09:07:17Z</time>
      </trkpt>
      <trkpt lat="47.31785" lon="0.11339">
        <ele>68</ele>
        <time>2018-02-04T09:07:16Z</time>
      </trkpt>
      <trkpt lat="47.31784" lon="0.11335">
        <ele>68</ele>
        <time>2018-02-04T09:07:15Z</time>
      </trkpt>
      <trkpt lat="47.31784" lon="0.1133">
        <ele>66</ele>
        <time>2018-02-04T09:07:14Z</time>
      </trkpt>
      <trkpt lat="47.31785" lon="0.11326">
        <ele>66</ele>
        <time>2018-02-04T09:07:13Z</time>
      </trkpt>
      <trkpt lat="47.31786" lon="0.11321">
        <ele>66</ele>
        <time>2018-02-04T09:07:12Z</time>
      </trkpt>
      <trkpt lat="47.31786" lon="0.11315">
        <ele>65</ele>
        <time>2018-02-04T09:07:11Z</time>
      </trkpt>
      <trkpt lat="47.31786" lon="0.11308">
        <ele>65</ele>
        <time>2018-02-04T09:07:10Z</time>
      </trkpt>
      <trkpt lat="47.31785" lon="0.11302">
        <ele>65</ele>
        <time>2018-02-04T09:07:09Z</time>
      </trkpt>
      <trkpt lat="47.31783" lon="0.11296">
        <ele>65</ele>
        <time>2018-02-04T09:07:08Z</time>
      </trkpt>
      <trkpt lat="47.31783" lon="0.1129">
        <ele>65</ele>
        <time>2018-02-04T09:07:07Z</time>
      </trkpt>
      <trkpt lat="47.31782" lon="0.11285">
        <ele>65</ele>
        <time>2018-02-04T09:07:06Z</time>
      </trkpt>
      <trkpt lat="47.31781" lon="0.1128">
        <ele>65</ele>
        <time>2018-02-04T09:07:05Z</time>
      </trkpt>
      <trkpt lat="47.31779" lon="0.11276">
        <ele>65</ele>
        <time>2018-02-04T09:07:04Z</time>
      </trkpt>
      <trkpt lat="47.31776" lon="0.11273">
        <ele>65</ele>
        <time>2018-02-04T09:07:03Z</time>
      </trkpt>
      <trkpt lat="47.31772" lon="0.11273">
        <ele>65</ele>
        <time>2018-02-04T09:07:02Z</time>
      </trkpt>
      <trkpt lat="47.31767" lon="0.11274">
        <ele>65</ele>
        <time>2018-02-04T09:07:01Z</time>
      </trkpt>
      <trkpt lat="47.31763" lon="0.11277">
        <ele>65</ele>
        <time>2018-02-04T09:07:00Z</time>
      </trkpt>
      <trkpt lat="47.31759" lon="0.11281">
        <ele>65</ele>
        <time>2018-02-04T09:06:59Z</time>
      </trkpt>
      <trkpt lat="47.31754" lon="0.11284">
        <ele>66</ele>
        <time>2018-02-04T09:06:58Z</time>
      </trkpt>
      <trkpt lat="47.31739" lon="0.11298">
        <ele>71</ele>
        <time>2018-02-04T09:06:55Z</time>
      </trkpt>
      <trkpt lat="47.31734" lon="0.11304">
        <ele>71</ele>
        <time>2018-02-04T09:06:54Z</time>
      </trkpt>
      <trkpt lat="47.31729" lon="0.1131">
        <ele>71</ele>
        <time>2018-02-04T09:06:53Z</time>
      </trkpt>
      <trkpt lat="47.31721" lon="0.11322">
        <ele>72</ele>
        <time>2018-02-04T09:06:51Z</time>
      </trkpt>
      <trkpt lat="47.31713" lon="0.11331">
        <ele>73</ele>
        <time>2018-02-04T09:06:49Z</time>
      </trkpt>
      <trkpt lat="47.3171" lon="0.11335">
        <ele>74</ele>
        <time>2018-02-04T09:06:48Z</time>
      </trkpt>
      <trkpt lat="47.31706" lon="0.11338">
        <ele>74</ele>
        <time>2018-02-04T09:06:47Z</time>
      </trkpt>
      <trkpt lat="47.31701" lon="0.11342">
        <ele>74</ele>
        <time>2018-02-04T09:06:46Z</time>
      </trkpt>
      <trkpt lat="47.31696" lon="0.11346">
        <ele>75</ele>
        <time>2018-02-04T09:06:45Z</time>
      </trkpt>
      <trkpt lat="47.31685" lon="0.11355">
        <ele>75</ele>
        <time>2018-02-04T09:06:43Z</time>
      </trkpt>
      <trkpt lat="47.31647" lon="0.11377">
        <ele>78</ele>
        <time>2018-02-04T09:06:38Z</time>
      </trkpt>
      <trkpt lat="47.31623" lon="0.11389">
        <ele>78</ele>
        <time>2018-02-04T09:06:33Z</time>
      </trkpt>
      <trkpt lat="47.31598" lon="0.11395">
        <ele>78</ele>
        <time>2018-02-04T09:06:28Z</time>
      </trkpt>
      <trkpt lat="47.31583" lon="0.11398">
        <ele>81</ele>
        <time>2018-02-04T09:06:24Z</time>
      </trkpt>
      <trkpt lat="47.31564" lon="0.11392">
        <ele>82</ele>
        <time>2018-02-04T09:06:16Z</time>
      </trkpt>
      <trkpt lat="47.31562" lon="0.11392">
        <ele>82</ele>
        <time>2018-02-04T09:06:15Z</time>
      </trkpt>
      <trkpt lat="47.31554" lon="0.11385">
        <ele>83</ele>
        <time>2018-02-04T09:06:09Z</time>
      </trkpt>
      <trkpt lat="47.31544" lon="0.11372">
        <ele>84</ele>
        <time>2018-02-04T09:06:04Z</time>
      </trkpt>
      <trkpt lat="47.31534" lon="0.11355">
        <ele>85</ele>
        <time>2018-02-04T09:05:59Z</time>
      </trkpt>
      <trkpt lat="47.31513" lon="0.11332">
        <ele>86</ele>
        <time>2018-02-04T09:05:52Z</time>
      </trkpt>
      <trkpt lat="47.31507" lon="0.1132">
        <ele>86</ele>
        <time>2018-02-04T09:05:49Z</time>
      </trkpt>
      <trkpt lat="47.31503" lon="0.11308">
        <ele>86</ele>
        <time>2018-02-04T09:05:44Z</time>
      </trkpt>
      <trkpt lat="47.31505" lon="0.11299">
        <ele>85</ele>
        <time>2018-02-04T09:05:41Z</time>
      </trkpt>
      <trkpt lat="47.31498" lon="0.1127">
        <ele>88</ele>
        <time>2018-02-04T09:05:34Z</time>
      </trkpt>
      <trkpt lat="47.31499" lon="0.1126">
        <ele>87</ele>
        <time>2018-02-04T09:05:32Z</time>
      </trkpt>
      <trkpt lat="47.31495" lon="0.11246">
        <ele>86</ele>
        <time>2018-02-04T09:05:28Z</time>
      </trkpt>
      <trkpt lat="47.31488" lon="0.11239">
        <ele>85</ele>
        <time>2018-02-04T09:05:25Z</time>
      </trkpt>
      <trkpt lat="47.31484" lon="0.11234">
        <ele>85</ele>
        <time>2018-02-04T09:05:23Z</time>
      </trkpt>
      <trkpt lat="47.31476" lon="0.1122">
        <ele>84</ele>
        <time>2018-02-04T09:05:17Z</time>
      </trkpt>
      <trkpt lat="47.31475" lon="0.11208">
        <ele>84</ele>
        <time>2018-02-04T09:05:14Z</time>
      </trkpt>
      <trkpt lat="47.31475" lon="0.11188">
        <ele>83</ele>
        <time>2018-02-04T09:05:07Z</time>
      </trkpt>
      <trkpt lat="47.31475" lon="0.11185">
        <ele>83</ele>
        <time>2018-02-04T09:05:06Z</time>
      </trkpt>
      <trkpt lat="47.31466" lon="0.11161">
        <ele>78</ele>
        <time>2018-02-04T09:04:59Z</time>
      </trkpt>
      <trkpt lat="47.31458" lon="0.11142">
        <ele>78</ele>
        <time>2018-02-04T09:04:54Z</time>
      </trkpt>
      <trkpt lat="47.31463" lon="0.11113">
        <ele>77</ele>
        <time>2018-02-04T09:04:47Z</time>
      </trkpt>
      <trkpt lat="47.3147" lon="0.11094">
        <ele>76</ele>
        <time>2018-02-04T09:04:41Z</time>
      </trkpt>
      <trkpt lat="47.31476" lon="0.11079">
        <ele>72</ele>
        <time>2018-02-04T09:04:35Z</time>
      </trkpt>
      <trkpt lat="47.31476" lon="0.11065">
        <ele>72</ele>
        <time>2018-02-04T09:04:31Z</time>
      </trkpt>
      <trkpt lat="47.31474" lon="0.11059">
        <ele>72</ele>
        <time>2018-02-04T09:04:29Z</time>
      </trkpt>
      <trkpt lat="47.3147" lon="0.1105">
        <ele>71</ele>
        <time>2018-02-04T09:04:26Z</time>
      </trkpt>
      <trkpt lat="47.31465" lon="0.11028">
        <ele>71</ele>
        <time>2018-02-04T09:04:20Z</time>
      </trkpt>
      <trkpt lat="47.31448" lon="0.11011">
        <ele>71</ele>
        <time>2018-02-04T09:04:15Z</time>
      </trkpt>
      <trkpt lat="47.3143" lon="0.10988">
        <ele>68</ele>
        <time>2018-02-04T09:04:09Z</time>
      </trkpt>
      <trkpt lat="47.31426" lon="0.10984">
        <ele>68</ele>
        <time>2018-02-04T09:04:08Z</time>
      </trkpt>
      <trkpt lat="47.31422" lon="0.10981">
        <ele>68</ele>
        <time>2018-02-04T09:04:07Z</time>
      </trkpt>
      <trkpt lat="47.31397" lon="0.10964">
        <ele>71</ele>
        <time>2018-02-04T09:04:01Z</time>
      </trkpt>
      <trkpt lat="47.31394" lon="0.10962">
        <ele>71</ele>
        <time>2018-02-04T09:04:00Z</time>
      </trkpt>
      <trkpt lat="47.31392" lon="0.1096">
        <ele>71</ele>
        <time>2018-02-04T09:03:59Z</time>
      </trkpt>
      <trkpt lat="47.3139" lon="0.10958">
        <ele>71</ele>
        <time>2018-02-04T09:03:58Z</time>
      </trkpt>
      <trkpt lat="47.31387" lon="0.10956">
        <ele>71</ele>
        <time>2018-02-04T09:03:57Z</time>
      </trkpt>
      <trkpt lat="47.31385" lon="0.10954">
        <ele>71</ele>
        <time>2018-02-04T09:03:56Z</time>
      </trkpt>
      <trkpt lat="47.31383" lon="0.10953">
        <ele>71</ele>
        <time>2018-02-04T09:03:55Z</time>
      </trkpt>
      <trkpt lat="47.31382" lon="0.10952">
        <ele>71</ele>
        <time>2018-02-04T09:03:54Z</time>
      </trkpt>
      <trkpt lat="47.31379" lon="0.10951">
        <ele>71</ele>
        <time>2018-02-04T09:03:53Z</time>
      </trkpt>
      <trkpt lat="47.31377" lon="0.10949">
        <ele>71</ele>
        <time>2018-02-04T09:03:51Z</time>
      </trkpt>
      <trkpt lat="47.31374" lon="0.10944">
        <ele>71</ele>
        <time>2018-02-04T09:03:48Z</time>
      </trkpt>
      <trkpt lat="47.31373" lon="0.10942">
        <ele>71</ele>
        <time>2018-02-04T09:03:47Z</time>
      </trkpt>
      <trkpt lat="47.31372" lon="0.10938">
        <ele>71</ele>
        <time>2018-02-04T09:03:44Z</time>
      </trkpt>
      <trkpt lat="47.31367" lon="0.10931">
        <ele>72</ele>
        <time>2018-02-04T09:03:39Z</time>
      </trkpt>
      <trkpt lat="47.31365" lon="0.10929">
        <ele>72</ele>
        <time>2018-02-04T09:03:38Z</time>
      </trkpt>
      <trkpt lat="47.31363" lon="0.10927">
        <ele>72</ele>
        <time>2018-02-04T09:03:37Z</time>
      </trkpt>
      <trkpt lat="47.3136" lon="0.10919">
        <ele>72</ele>
        <time>2018-02-04T09:03:33Z</time>
      </trkpt>
      <trkpt lat="47.31359" lon="0.1091">
        <ele>72</ele>
        <time>2018-02-04T09:03:29Z</time>
      </trkpt>
      <trkpt lat="47.31359" lon="0.10902">
        <ele>72</ele>
        <time>2018-02-04T09:03:25Z</time>
      </trkpt>
      <trkpt lat="47.31359" lon="0.10899">
        <ele>72</ele>
        <time>2018-02-04T09:03:24Z</time>
      </trkpt>
      <trkpt lat="47.3136" lon="0.10896">
        <ele>71</ele>
        <time>2018-02-04T09:03:23Z</time>
      </trkpt>
      <trkpt lat="47.31361" lon="0.10894">
        <ele>71</ele>
        <time>2018-02-04T09:03:22Z</time>
      </trkpt>
      <trkpt lat="47.31362" lon="0.10891">
        <ele>71</ele>
        <time>2018-02-04T09:03:21Z</time>
      </trkpt>
      <trkpt lat="47.31363" lon="0.10887">
        <ele>71</ele>
        <time>2018-02-04T09:03:20Z</time>
      </trkpt>
      <trkpt lat="47.31364" lon="0.10883">
        <ele>71</ele>
        <time>2018-02-04T09:03:19Z</time>
      </trkpt>
      <trkpt lat="47.31366" lon="0.10867">
        <ele>71</ele>
        <time>2018-02-04T09:03:14Z</time>
      </trkpt>
      <trkpt lat="47.31371" lon="0.10849">
        <ele>70</ele>
        <time>2018-02-04T09:03:08Z</time>
      </trkpt>
      <trkpt lat="47.31374" lon="0.10832">
        <ele>67</ele>
        <time>2018-02-04T09:03:03Z</time>
      </trkpt>
      <trkpt lat="47.31377" lon="0.10816">
        <ele>66</ele>
        <time>2018-02-04T09:02:57Z</time>
      </trkpt>
      <trkpt lat="47.31378" lon="0.10813">
        <ele>66</ele>
        <time>2018-02-04T09:02:56Z</time>
      </trkpt>
      <trkpt lat="47.31382" lon="0.10796">
        <ele>65</ele>
        <time>2018-02-04T09:02:52Z</time>
      </trkpt>
      <trkpt lat="47.31383" lon="0.10793">
        <ele>65</ele>
        <time>2018-02-04T09:02:51Z</time>
      </trkpt>
      <trkpt lat="47.31384" lon="0.1079">
        <ele>65</ele>
        <time>2018-02-04T09:02:50Z</time>
      </trkpt>
      <trkpt lat="47.31388" lon="0.1077">
        <ele>64</ele>
        <time>2018-02-04T09:02:44Z</time>
      </trkpt>
      <trkpt lat="47.31393" lon="0.10751">
        <ele>63</ele>
        <time>2018-02-04T09:02:38Z</time>
      </trkpt>
      <trkpt lat="47.31401" lon="0.10728">
        <ele>60</ele>
        <time>2018-02-04T09:02:31Z</time>
      </trkpt>
      <trkpt lat="47.31411" lon="0.10712">
        <ele>59</ele>
        <time>2018-02-04T09:02:26Z</time>
      </trkpt>
      <trkpt lat="47.31426" lon="0.1069">
        <ele>57</ele>
        <time>2018-02-04T09:02:19Z</time>
      </trkpt>
      <trkpt lat="47.31445" lon="0.10665">
        <ele>55</ele>
        <time>2018-02-04T09:02:12Z</time>
      </trkpt>
      <trkpt lat="47.31463" lon="0.10634">
        <ele>55</ele>
        <time>2018-02-04T09:02:04Z</time>
      </trkpt>
      <trkpt lat="47.31479" lon="0.10604">
        <ele>55</ele>
        <time>2018-02-04T09:01:57Z</time>
      </trkpt>
      <trkpt lat="47.31481" lon="0.106">
        <ele>55</ele>
        <time>2018-02-04T09:01:56Z</time>
      </trkpt>
      <trkpt lat="47.31483" lon="0.10596">
        <ele>55</ele>
        <time>2018-02-04T09:01:55Z</time>
      </trkpt>
      <trkpt lat="47.31485" lon="0.10591">
        <ele>55</ele>
        <time>2018-02-04T09:01:54Z</time>
      </trkpt>
      <trkpt lat="47.31487" lon="0.10588">
        <ele>55</ele>
        <time>2018-02-04T09:01:53Z</time>
      </trkpt>
      <trkpt lat="47.31488" lon="0.10583">
        <ele>55</ele>
        <time>2018-02-04T09:01:52Z</time>
      </trkpt>
      <trkpt lat="47.31488" lon="0.10578">
        <ele>55</ele>
        <time>2018-02-04T09:01:51Z</time>
      </trkpt>
      <trkpt lat="47.31476" lon="0.10557">
        <ele>54</ele>
        <time>2018-02-04T09:01:45Z</time>
      </trkpt>
      <trkpt lat="47.31474" lon="0.10553">
        <ele>54</ele>
        <time>2018-02-04T09:01:44Z</time>
      </trkpt>
      <trkpt lat="47.31472" lon="0.1055">
        <ele>54</ele>
        <time>2018-02-04T09:01:43Z</time>
      </trkpt>
      <trkpt lat="47.31471" lon="0.10546">
        <ele>54</ele>
        <time>2018-02-04T09:01:42Z</time>
      </trkpt>
      <trkpt lat="47.31471" lon="0.10543">
        <ele>54</ele>
        <time>2018-02-04T09:01:41Z</time>
      </trkpt>
      <trkpt lat="47.31471" lon="0.1054">
        <ele>54</ele>
        <time>2018-02-04T09:01:40Z</time>
      </trkpt>
      <trkpt lat="47.31472" lon="0.10537">
        <ele>54</ele>
        <time>2018-02-04T09:01:39Z</time>
      </trkpt>
      <trkpt lat="47.31475" lon="0.10528">
        <ele>54</ele>
        <time>2018-02-04T09:01:37Z</time>
      </trkpt>
      <trkpt lat="47.31494" lon="0.10497">
        <ele>55</ele>
        <time>2018-02-04T09:01:32Z</time>
      </trkpt>
      <trkpt lat="47.31519" lon="0.10453">
        <ele>57</ele>
        <time>2018-02-04T09:01:27Z</time>
      </trkpt>
      <trkpt lat="47.31528" lon="0.10434">
        <ele>58</ele>
        <time>2018-02-04T09:01:25Z</time>
      </trkpt>
      <trkpt lat="47.31538" lon="0.10416">
        <ele>61</ele>
        <time>2018-02-04T09:01:23Z</time>
      </trkpt>
      <trkpt lat="47.31542" lon="0.10407">
        <ele>61</ele>
        <time>2018-02-04T09:01:22Z</time>
      </trkpt>
      <trkpt lat="47.31564" lon="0.10383">
        <ele>62</ele>
        <time>2018-02-04T09:01:18Z</time>
      </trkpt>
      <trkpt lat="47.3158" lon="0.1037">
        <ele>63</ele>
        <time>2018-02-04T09:01:15Z</time>
      </trkpt>
      <trkpt lat="47.31585" lon="0.10365">
        <ele>66</ele>
        <time>2018-02-04T09:01:14Z</time>
      </trkpt>
      <trkpt lat="47.31589" lon="0.1036">
        <ele>66</ele>
        <time>2018-02-04T09:01:13Z</time>
      </trkpt>
      <trkpt lat="47.31597" lon="0.10349">
        <ele>66</ele>
        <time>2018-02-04T09:01:11Z</time>
      </trkpt>
      <trkpt lat="47.316" lon="0.10344">
        <ele>66</ele>
        <time>2018-02-04T09:01:10Z</time>
      </trkpt>
      <trkpt lat="47.31617" lon="0.10317">
        <ele>69</ele>
        <time>2018-02-04T09:01:05Z</time>
      </trkpt>
      <trkpt lat="47.31626" lon="0.10304">
        <ele>70</ele>
        <time>2018-02-04T09:01:01Z</time>
      </trkpt>
      <trkpt lat="47.31643" lon="0.10299">
        <ele>71</ele>
      </trkpt>
      <trkpt lat="47.31646" lon="0.10303">
        <ele>71</ele>
      </trkpt>
      <trkpt lat="47.31654" lon="0.10307">
        <ele>71</ele>
      </trkpt>
      <trkpt lat="47.3166" lon="0.10311">
        <ele>71</ele>
      </trkpt>
      <trkpt lat="47.31667" lon="0.10315">
        <ele>74</ele>
      </trkpt>
      <trkpt lat="47.31675" lon="0.10317">
        <ele>74</ele>
      </trkpt>
      <trkpt lat="47.31683" lon="0.10319">
        <ele>74</ele>
      </trkpt>
      <trkpt lat="47.31691" lon="0.10321">
        <ele>75</ele>
      </trkpt>
      <trkpt lat="47.31698" lon="0.10327">
        <ele>75</ele>
      </trkpt>
      <trkpt lat="47.31704" lon="0.10332">
        <ele>75</ele>
      </trkpt>
      <trkpt lat="47.31708" lon="0.1034">
        <ele>72</ele>
      </trkpt>
      <trkpt lat="47.31712" lon="0.10348">
        <ele>72</ele>
      </trkpt>
      <trkpt lat="47.31716" lon="0.10356">
        <ele>72</ele>
      </trkpt>
      <trkpt lat="47.31721" lon="0.10364">
        <ele>72</ele>
      </trkpt>
      <trkpt lat="47.31728" lon="0.10371">
        <ele>72</ele>
      </trkpt>
      <trkpt lat="47.31733" lon="0.10377">
        <ele>72</ele>
      </trkpt>
      <trkpt lat="47.3174" lon="0.10383">
        <ele>72</ele>
      </trkpt>
      <trkpt lat="47.31747" lon="0.10387">
        <ele>72</ele>
      </trkpt>
      <trkpt lat="47.31755" lon="0.10387">
        <ele>77</ele>
      </trkpt>
      <trkpt lat="47.31763" lon="0.10387">
        <ele>77</ele>
      </trkpt>
      <trkpt lat="47.31771" lon="0.10387">
        <ele>78</ele>
      </trkpt>
      <trkpt lat="47.31779" lon="0.10387">
        <ele>79</ele>
      </trkpt>
      <trkpt lat="47.31787" lon="0.10389">
        <ele>79</ele>
      </trkpt>
      <trkpt lat="47.31794" lon="0.10393">
        <ele>79</ele>
      </trkpt>
      <trkpt lat="47.31801" lon="0.10397">
        <ele>80</ele>
      </trkpt>
      <trkpt lat="47.3181" lon="0.10397">
        <ele>80</ele>
      </trkpt>
      <trkpt lat="47.31819" lon="0.10397">
        <ele>81</ele>
      </trkpt>
      <trkpt lat="47.31827" lon="0.10397">
        <ele>81</ele>
      </trkpt>
      <trkpt lat="47.31836" lon="0.10401">
        <ele>86</ele>
      </trkpt>
      <trkpt lat="47.31842" lon="0.10406">
        <ele>86</ele>
      </trkpt>
      <trkpt lat="47.31849" lon="0.1041">
        <ele>86</ele>
      </trkpt>
      <trkpt lat="47.31856" lon="0.10414">
        <ele>87</ele>
      </trkpt>
      <trkpt lat="47.31861" lon="0.1042">
        <ele>84</ele>
      </trkpt>
      <trkpt lat="47.31868" lon="0.10426">
        <ele>85</ele>
      </trkpt>
      <trkpt lat="47.31876" lon="0.1043">
        <ele>85</ele>
      </trkpt>
      <trkpt lat="47.31884" lon="0.10432">
        <ele>86</ele>
      </trkpt>
      <trkpt lat="47.31889" lon="0.10438">
        <ele>86</ele>
      </trkpt>
      <trkpt lat="47.31896" lon="0.10444">
        <ele>86</ele>
      </trkpt>
      <trkpt lat="47.31903" lon="0.10449">
        <ele>86</ele>
      </trkpt>
      <trkpt lat="47.31908" lon="0.10455">
        <ele>86</ele>
      </trkpt>
      <trkpt lat="47.31914" lon="0.10461">
        <ele>86</ele>
      </trkpt>
      <trkpt lat="47.31919" lon="0.10467">
        <ele>87</ele>
      </trkpt>
      <trkpt lat="47.31926" lon="0.10473">
        <ele>87</ele>
      </trkpt>
      <trkpt lat="47.31931" lon="0.10479">
        <ele>87</ele>
      </trkpt>
      <trkpt lat="47.31939" lon="0.10481">
        <ele>87</ele>
      </trkpt>
      <trkpt lat="47.31947" lon="0.10481">
        <ele>87</ele>
      </trkpt>
      <trkpt lat="47.31955" lon="0.10484">
        <ele>87</ele>
      </trkpt>
      <trkpt lat="47.31962" lon="0.10488">
        <ele>87</ele>
      </trkpt>
      <trkpt lat="47.31969" lon="0.10492">
        <ele>86</ele>
      </trkpt>
      <trkpt lat="47.31976" lon="0.10496">
        <ele>86</ele>
      </trkpt>
      <trkpt lat="47.31982" lon="0.105">
        <ele>85</ele>
      </trkpt>
      <trkpt lat="47.31991" lon="0.105">
        <ele>84</ele>
      </trkpt>
      <trkpt lat="47.32" lon="0.10502">
        <ele>83</ele>
      </trkpt>
      <trkpt lat="47.32008" lon="0.10504">
        <ele>83</ele>
      </trkpt>
      <trkpt lat="47.32016" lon="0.10506">
        <ele>83</ele>
      </trkpt>
      <trkpt lat="47.32024" lon="0.10508">
        <ele>83</ele>
      </trkpt>
      <trkpt lat="47.32032" lon="0.10514">
        <ele>83</ele>
      </trkpt>
      <trkpt lat="47.3204" lon="0.1052">
        <ele>83</ele>
      </trkpt>
      <trkpt lat="47.32047" lon="0.10525">
        <ele>83</ele>
      </trkpt>
      <trkpt lat="47.32054" lon="0.10529">
        <ele>83</ele>
      </trkpt>
      <trkpt lat="47.32061" lon="0.10535">
        <ele>83</ele>
      </trkpt>
      <trkpt lat="47.32067" lon="0.10539">
        <ele>83</ele>
      </trkpt>
      <trkpt lat="47.32075" lon="0.10543">
        <ele>83</ele>
      </trkpt>
      <trkpt lat="47.32088" lon="0.10544">
        <ele>84</ele>
        <time>2018-03-04T10:22:37Z</time>
      </trkpt>
      <trkpt lat="47.32093" lon="0.10542">
        <ele>84</ele>
        <time>2018-03-04T10:22:40Z</time>
      </trkpt>
      <trkpt lat="47.32101" lon="0.1054">
        <ele>85</ele>
        <time>2018-03-04T10:22:45Z</time>
      </trkpt>
      <trkpt lat="47.32108" lon="0.10535">
        <ele>85</ele>
        <time>2018-03-04T10:22:50Z</time>
      </trkpt>
      <trkpt lat="47.32111" lon="0.10533">
        <ele>85</ele>
        <time>2018-03-04T10:22:52Z</time>
      </trkpt>
      <trkpt lat="47.32125" lon="0.10525">
        <ele>85</ele>
        <time>2018-03-04T10:23:00Z</time>
      </trkpt>
      <trkpt lat="47.32138" lon="0.10512">
        <ele>85</ele>
        <time>2018-03-04T10:23:07Z</time>
      </trkpt>
      <trkpt lat="47.3214" lon="0.1051">
        <ele>85</ele>
        <time>2018-03-04T10:23:08Z</time>
      </trkpt>
      <trkpt lat="47.32153" lon="0.10495">
        <ele>87</ele>
        <time>2018-03-04T10:23:14Z</time>
      </trkpt>
      <trkpt lat="47.32164" lon="0.10469">
        <ele>87</ele>
        <time>2018-03-04T10:23:20Z</time>
      </trkpt>
      <trkpt lat="47.32168" lon="0.1044">
        <ele>88</ele>
        <time>2018-03-04T10:23:26Z</time>
      </trkpt>
      <trkpt lat="47.32172" lon="0.1041">
        <ele>89</ele>
        <time>2018-03-04T10:23:33Z</time>
      </trkpt>
      <trkpt lat="47.32179" lon="0.10389">
        <ele>90</ele>
        <time>2018-03-04T10:23:39Z</time>
      </trkpt>
      <trkpt lat="47.32186" lon="0.10373">
        <ele>90</ele>
        <time>2018-03-04T10:23:44Z</time>
      </trkpt>
      <trkpt lat="47.3219" lon="0.10367">
        <ele>90</ele>
        <time>2018-03-04T10:23:46Z</time>
      </trkpt>
      <trkpt lat="47.32204" lon="0.10349">
        <ele>91</ele>
        <time>2018-03-04T10:23:54Z</time>
      </trkpt>
      <trkpt lat="47.3221" lon="0.10334">
        <ele>91</ele>
        <time>2018-03-04T10:24:00Z</time>
      </trkpt>
      <trkpt lat="47.32211" lon="0.10331">
        <ele>93</ele>
        <time>2018-03-04T10:24:01Z</time>
      </trkpt>
      <trkpt lat="47.32215" lon="0.10318">
        <ele>93</ele>
        <time>2018-03-04T10:24:06Z</time>
      </trkpt>
      <trkpt lat="47.32216" lon="0.10315">
        <ele>93</ele>
        <time>2018-03-04T10:24:07Z</time>
      </trkpt>
      <trkpt lat="47.32221" lon="0.10295">
        <ele>93</ele>
        <time>2018-03-04T10:24:14Z</time>
      </trkpt>
      <trkpt lat="47.32223" lon="0.1029">
        <ele>94</ele>
        <time>2018-03-04T10:24:16Z</time>
      </trkpt>
      <trkpt lat="47.32225" lon="0.10286">
        <ele>94</ele>
        <time>2018-03-04T10:24:18Z</time>
      </trkpt>
      <trkpt lat="47.32229" lon="0.10275">
        <ele>94</ele>
        <time>2018-03-04T10:24:23Z</time>
      </trkpt>
      <trkpt lat="47.32231" lon="0.10267">
        <ele>94</ele>
        <time>2018-03-04T10:24:27Z</time>
      </trkpt>
      <trkpt lat="47.32232" lon="0.10264">
        <ele>94</ele>
        <time>2018-03-04T10:24:29Z</time>
      </trkpt>
      <trkpt lat="47.32233" lon="0.10259">
        <ele>95</ele>
        <time>2018-03-04T10:24:32Z</time>
      </trkpt>
      <trkpt lat="47.32234" lon="0.10256">
        <ele>95</ele>
        <time>2018-03-04T10:24:34Z</time>
      </trkpt>
      <trkpt lat="47.32275" lon="0.10071">
        <ele>105</ele>
        <time>2018-03-04T10:26:24Z</time>
      </trkpt>
      <trkpt lat="47.32276" lon="0.10068">
        <ele>105</ele>
        <time>2018-03-04T10:26:25Z</time>
      </trkpt>
      <trkpt lat="47.32279" lon="0.10055">
        <ele>106</ele>
        <time>2018-03-04T10:26:30Z</time>
      </trkpt>
      <trkpt lat="47.32281" lon="0.10013">
        <ele>106</ele>
        <time>2018-03-04T10:26:45Z</time>
      </trkpt>
      <trkpt lat="47.32282" lon="0.1001">
        <ele>106</ele>
        <time>2018-03-04T10:26:46Z</time>
      </trkpt>
      <trkpt lat="47.32286" lon="0.10003">
        <ele>106</ele>
        <time>2018-03-04T10:26:49Z</time>
      </trkpt>
      <trkpt lat="47.32289" lon="0.09989">
        <ele>108</ele>
        <time>2018-03-04T10:26:53Z</time>
      </trkpt>
      <trkpt lat="47.32293" lon="0.09972">
        <ele>108</ele>
        <time>2018-03-04T10:26:59Z</time>
      </trkpt>
      <trkpt lat="47.32295" lon="0.09968">
        <ele>108</ele>
        <time>2018-03-04T10:27:00Z</time>
      </trkpt>
      <trkpt lat="47.32303" lon="0.09951">
        <ele>108</ele>
        <time>2018-03-04T10:27:05Z</time>
      </trkpt>
      <trkpt lat="47.32314" lon="0.09929">
        <ele>108</ele>
        <time>2018-03-04T10:27:11Z</time>
      </trkpt>
      <trkpt lat="47.32323" lon="0.09909">
        <ele>109</ele>
        <time>2018-03-04T10:27:16Z</time>
      </trkpt>
      <trkpt lat="47.32325" lon="0.09904">
        <ele>109</ele>
        <time>2018-03-04T10:27:17Z</time>
      </trkpt>
      <trkpt lat="47.32333" lon="0.09882">
        <ele>109</ele>
        <time>2018-03-04T10:27:22Z</time>
      </trkpt>
      <trkpt lat="47.32338" lon="0.09873">
        <ele>107</ele>
        <time>2018-03-04T10:27:24Z</time>
      </trkpt>
      <trkpt lat="47.32341" lon="0.09861">
        <ele>107</ele>
        <time>2018-03-04T10:27:27Z</time>
      </trkpt>
      <trkpt lat="47.32342" lon="0.09857">
        <ele>107</ele>
        <time>2018-03-04T10:27:28Z</time>
      </trkpt>
      <trkpt lat="47.32337" lon="0.09841">
        <ele>108</ele>
        <time>2018-03-04T10:28:19Z</time>
      </trkpt>
      <trkpt lat="47.32335" lon="0.0984">
        <ele>108</ele>
        <time>2018-03-04T10:28:20Z</time>
      </trkpt>
      <trkpt lat="47.32329" lon="0.09835">
        <ele>108</ele>
        <time>2018-03-04T10:28:23Z</time>
      </trkpt>
      <trkpt lat="47.32325" lon="0.09833">
        <ele>108</ele>
        <time>2018-03-04T10:28:25Z</time>
      </trkpt>
      <trkpt lat="47.32307" lon="0.09823">
        <ele>108</ele>
        <time>2018-03-04T10:28:31Z</time>
      </trkpt>
      <trkpt lat="47.32294" lon="0.09815">
        <ele>108</ele>
        <time>2018-03-04T10:28:36Z</time>
      </trkpt>
      <trkpt lat="47.32291" lon="0.09814">
        <ele>108</ele>
        <time>2018-03-04T10:28:37Z</time>
      </trkpt>
      <trkpt lat="47.32274" lon="0.09804">
        <ele>108</ele>
        <time>2018-03-04T10:28:43Z</time>
      </trkpt>
      <trkpt lat="47.32262" lon="0.09798">
        <ele>108</ele>
        <time>2018-03-04T10:28:47Z</time>
      </trkpt>
      <trkpt lat="47.32256" lon="0.09793">
        <ele>108</ele>
        <time>2018-03-04T10:28:49Z</time>
      </trkpt>
      <trkpt lat="47.32242" lon="0.09786">
        <ele>110</ele>
        <time>2018-03-04T10:28:54Z</time>
      </trkpt>
      <trkpt lat="47.32233" lon="0.09781">
        <ele>110</ele>
        <time>2018-03-04T10:30:03Z</time>
      </trkpt>
      <trkpt lat="47.32231" lon="0.09779">
        <ele>110</ele>
        <time>2018-03-04T10:30:04Z</time>
      </trkpt>
      <trkpt lat="47.32222" lon="0.09774">
        <ele>110</ele>
        <time>2018-03-04T10:30:07Z</time>
      </trkpt>
      <trkpt lat="47.32219" lon="0.09773">
        <ele>110</ele>
        <time>2018-03-04T10:30:08Z</time>
      </trkpt>
      <trkpt lat="47.32209" lon="0.09769">
        <ele>110</ele>
        <time>2018-03-04T10:30:11Z</time>
      </trkpt>
      <trkpt lat="47.32197" lon="0.09764">
        <ele>110</ele>
        <time>2018-03-04T10:30:15Z</time>
      </trkpt>
      <trkpt lat="47.32186" lon="0.0976">
        <ele>110</ele>
        <time>2018-03-04T10:30:18Z</time>
      </trkpt>
      <trkpt lat="47.32183" lon="0.09758">
        <ele>110</ele>
        <time>2018-03-04T10:30:19Z</time>
      </trkpt>
      <trkpt lat="47.32173" lon="0.09754">
        <ele>110</ele>
        <time>2018-03-04T10:30:22Z</time>
      </trkpt>
      <trkpt lat="47.32161" lon="0.0975">
        <ele>110</ele>
        <time>2018-03-04T10:30:26Z</time>
      </trkpt>
      <trkpt lat="47.32156" lon="0.09748">
        <ele>109</ele>
        <time>2018-03-04T10:30:28Z</time>
      </trkpt>
      <trkpt lat="47.32152" lon="0.09748">
        <ele>109</ele>
        <time>2018-03-04T10:30:30Z</time>
      </trkpt>
      <trkpt lat="47.32148" lon="0.0975">
        <ele>111</ele>
        <time>2018-03-04T10:30:32Z</time>
      </trkpt>
      <trkpt lat="47.32147" lon="0.09752">
        <ele>111</ele>
        <time>2018-03-04T10:30:33Z</time>
      </trkpt>
      <trkpt lat="47.32145" lon="0.09754">
        <ele>111</ele>
        <time>2018-03-04T10:30:34Z</time>
      </trkpt>
      <trkpt lat="47.32136" lon="0.09767">
        <ele>112</ele>
        <time>2018-03-04T10:30:39Z</time>
      </trkpt>
      <trkpt lat="47.32125" lon="0.09784">
        <ele>112</ele>
        <time>2018-03-04T10:30:45Z</time>
      </trkpt>
      <trkpt lat="47.32114" lon="0.09797">
        <ele>113</ele>
        <time>2018-03-04T10:30:50Z</time>
      </trkpt>
      <trkpt lat="47.32102" lon="0.09808">
        <ele>113</ele>
        <time>2018-03-04T10:30:55Z</time>
      </trkpt>
      <trkpt lat="47.32087" lon="0.0982">
        <ele>114</ele>
        <time>2018-03-04T10:31:01Z</time>
      </trkpt>
      <trkpt lat="47.32079" lon="0.09828">
        <ele>115</ele>
        <time>2018-03-04T10:31:05Z</time>
      </trkpt>
      <trkpt lat="47.32078" lon="0.09831">
        <ele>115</ele>
        <time>2018-03-04T10:31:06Z</time>
      </trkpt>
      <trkpt lat="47.32068" lon="0.09848">
        <ele>114</ele>
        <time>2018-03-04T10:31:09Z</time>
      </trkpt>
      <trkpt lat="47.32064" lon="0.09854">
        <ele>114</ele>
        <time>2018-03-04T10:31:10Z</time>
      </trkpt>
      <trkpt lat="47.32051" lon="0.09868">
        <ele>114</ele>
        <time>2018-03-04T10:31:15Z</time>
      </trkpt>
      <trkpt lat="47.32039" lon="0.09891">
        <ele>114</ele>
        <time>2018-03-04T10:31:22Z</time>
      </trkpt>
      <trkpt lat="47.32028" lon="0.09911">
        <ele>113</ele>
        <time>2018-03-04T10:31:27Z</time>
      </trkpt>
      <trkpt lat="47.32012" lon="0.0993">
        <ele>112</ele>
        <time>2018-03-04T10:31:34Z</time>
      </trkpt>
      <trkpt lat="47.31999" lon="0.09948">
        <ele>113</ele>
        <time>2018-03-04T10:31:39Z</time>
      </trkpt>
      <trkpt lat="47.31989" lon="0.09972">
        <ele>113</ele>
        <time>2018-03-04T10:31:44Z</time>
      </trkpt>
      <trkpt lat="47.31979" lon="0.10003">
        <ele>111</ele>
        <time>2018-03-04T10:31:50Z</time>
      </trkpt>
      <trkpt lat="47.31971" lon="0.10023">
        <ele>110</ele>
        <time>2018-03-04T10:31:54Z</time>
      </trkpt>
      <trkpt lat="47.31959" lon="0.10042">
        <ele>109</ele>
        <time>2018-03-04T10:31:59Z</time>
      </trkpt>
      <trkpt lat="47.31948" lon="0.1007">
        <ele>109</ele>
        <time>2018-03-04T10:32:05Z</time>
      </trkpt>
      <trkpt lat="47.31946" lon="0.10076">
        <ele>108</ele>
        <time>2018-03-04T10:32:06Z</time>
      </trkpt>
      <trkpt lat="47.31939" lon="0.10093">
        <ele>107</ele>
        <time>2018-03-04T10:32:09Z</time>
      </trkpt>
      <trkpt lat="47.31933" lon="0.10103">
        <ele>107</ele>
        <time>2018-03-04T10:32:11Z</time>
      </trkpt>
      <trkpt lat="47.3193" lon="0.10109">
        <ele>107</ele>
        <time>2018-03-04T10:32:12Z</time>
      </trkpt>
      <trkpt lat="47.31922" lon="0.10122">
        <ele>107</ele>
        <time>2018-03-04T10:32:14Z</time>
      </trkpt>
      <trkpt lat="47.31918" lon="0.10126">
        <ele>107</ele>
        <time>2018-03-04T10:32:15Z</time>
      </trkpt>
      <trkpt lat="47.31908" lon="0.10132">
        <ele>107</ele>
        <time>2018-03-04T10:32:18Z</time>
      </trkpt>
      <trkpt lat="47.31904" lon="0.10134">
        <ele>107</ele>
        <time>2018-03-04T10:32:19Z</time>
      </trkpt>
      <trkpt lat="47.31897" lon="0.10138">
        <ele>107</ele>
        <time>2018-03-04T10:32:21Z</time>
      </trkpt>
      <trkpt lat="47.31889" lon="0.10143">
        <ele>107</ele>
        <time>2018-03-04T10:32:23Z</time>
      </trkpt>
      <trkpt lat="47.3188" lon="0.10147">
        <ele>106</ele>
        <time>2018-03-04T10:32:25Z</time>
      </trkpt>
      <trkpt lat="47.31875" lon="0.10147">
        <ele>106</ele>
        <time>2018-03-04T10:32:26Z</time>
      </trkpt>
      <trkpt lat="47.31871" lon="0.10147">
        <ele>106</ele>
        <time>2018-03-04T10:32:27Z</time>
      </trkpt>
      <trkpt lat="47.31856" lon="0.10148">
        <ele>105</ele>
        <time>2018-03-04T10:32:30Z</time>
      </trkpt>
      <trkpt lat="47.31852" lon="0.10148">
        <ele>105</ele>
        <time>2018-03-04T10:32:31Z</time>
      </trkpt>
      <trkpt lat="47.31847" lon="0.1015">
        <ele>105</ele>
        <time>2018-03-04T10:32:33Z</time>
      </trkpt>
      <trkpt lat="47.31843" lon="0.10152">
        <ele>104</ele>
        <time>2018-03-04T10:32:35Z</time>
      </trkpt>
      <trkpt lat="47.31839" lon="0.10116">
        <ele>107</ele>
        <time>2018-03-04T10:32:55Z</time>
      </trkpt>
      <trkpt lat="47.31842" lon="0.10109">
        <ele>107</ele>
        <time>2018-03-04T10:32:58Z</time>
      </trkpt>
      <trkpt lat="47.31845" lon="0.10099">
        <ele>107</ele>
        <time>2018-03-04T10:33:02Z</time>
      </trkpt>
      <trkpt lat="47.31845" lon="0.10096">
        <ele>108</ele>
        <time>2018-03-04T10:33:03Z</time>
      </trkpt>
      <trkpt lat="47.31849" lon="0.10086">
        <ele>108</ele>
        <time>2018-03-04T10:33:07Z</time>
      </trkpt>
      <trkpt lat="47.31851" lon="0.10084">
        <ele>108</ele>
        <time>2018-03-04T10:33:08Z</time>
      </trkpt>
      <trkpt lat="47.31853" lon="0.1008">
        <ele>109</ele>
        <time>2018-03-04T10:33:10Z</time>
      </trkpt>
      <trkpt lat="47.31857" lon="0.10074">
        <ele>109</ele>
        <time>2018-03-04T10:33:13Z</time>
      </trkpt>
      <trkpt lat="47.31861" lon="0.10064">
        <ele>109</ele>
        <time>2018-03-04T10:33:17Z</time>
      </trkpt>
      <trkpt lat="47.31863" lon="0.10059">
        <ele>109</ele>
        <time>2018-03-04T10:33:19Z</time>
      </trkpt>
      <trkpt lat="47.31864" lon="0.10054">
        <ele>109</ele>
        <time>2018-03-04T10:33:21Z</time>
      </trkpt>
      <trkpt lat="47.3187" lon="0.10044">
        <ele>109</ele>
        <time>2018-03-04T10:33:26Z</time>
      </trkpt>
      <trkpt lat="47.31875" lon="0.1003">
        <ele>110</ele>
        <time>2018-03-04T10:33:31Z</time>
      </trkpt>
      <trkpt lat="47.31877" lon="0.10026">
        <ele>110</ele>
        <time>2018-03-04T10:33:32Z</time>
      </trkpt>
      <trkpt lat="47.31884" lon="0.10014">
        <ele>110</ele>
        <time>2018-03-04T10:33:38Z</time>
      </trkpt>
      <trkpt lat="47.31894" lon="0.09995">
        <ele>112</ele>
        <time>2018-03-04T10:33:45Z</time>
      </trkpt>
      <trkpt lat="47.31895" lon="0.09991">
        <ele>112</ele>
        <time>2018-03-04T10:33:46Z</time>
      </trkpt>
      <trkpt lat="47.31906" lon="0.09969">
        <ele>112</ele>
        <time>2018-03-04T10:33:54Z</time>
      </trkpt>
      <trkpt lat="47.31912" lon="0.09961">
        <ele>113</ele>
        <time>2018-03-04T10:33:58Z</time>
      </trkpt>
      <trkpt lat="47.31916" lon="0.09957">
        <ele>113</ele>
        <time>2018-03-04T10:34:00Z</time>
      </trkpt>
      <trkpt lat="47.31924" lon="0.09943">
        <ele>114</ele>
        <time>2018-03-04T10:34:05Z</time>
      </trkpt>
      <trkpt lat="47.31935" lon="0.09927">
        <ele>114</ele>
        <time>2018-03-04T10:34:10Z</time>
      </trkpt>
      <trkpt lat="47.31946" lon="0.0991">
        <ele>115</ele>
        <time>2018-03-04T10:34:16Z</time>
      </trkpt>
      <trkpt lat="47.31957" lon="0.09885">
        <ele>115</ele>
        <time>2018-03-04T10:34:22Z</time>
      </trkpt>
      <trkpt lat="47.31968" lon="0.09865">
        <ele>115</ele>
        <time>2018-03-04T10:34:27Z</time>
      </trkpt>
      <trkpt lat="47.31979" lon="0.09839">
        <ele>115</ele>
        <time>2018-03-04T10:34:33Z</time>
      </trkpt>
      <trkpt lat="47.3199" lon="0.09821">
        <ele>115</ele>
        <time>2018-03-04T10:34:38Z</time>
      </trkpt>
      <trkpt lat="47.32" lon="0.09792">
        <ele>114</ele>
        <time>2018-03-04T10:34:45Z</time>
      </trkpt>
      <trkpt lat="47.32011" lon="0.09759">
        <ele>115</ele>
        <time>2018-03-04T10:34:51Z</time>
      </trkpt>
      <trkpt lat="47.32023" lon="0.09734">
        <ele>113</ele>
        <time>2018-03-04T10:34:56Z</time>
      </trkpt>
      <trkpt lat="47.32027" lon="0.09727">
        <ele>113</ele>
        <time>2018-03-04T10:34:58Z</time>
      </trkpt>
      <trkpt lat="47.3203" lon="0.09717">
        <ele>113</ele>
        <time>2018-03-04T10:35:01Z</time>
      </trkpt>
      <trkpt lat="47.32036" lon="0.09712">
        <ele>112</ele>
        <time>2018-03-04T10:35:03Z</time>
      </trkpt>
      <trkpt lat="47.32011" lon="0.09671">
        <ele>113</ele>
        <time>2018-03-04T10:35:22Z</time>
      </trkpt>
      <trkpt lat="47.32006" lon="0.09668">
        <ele>113</ele>
        <time>2018-03-04T10:35:23Z</time>
      </trkpt>
      <trkpt lat="47.31991" lon="0.09657">
        <ele>113</ele>
        <time>2018-03-04T10:35:27Z</time>
      </trkpt>
      <trkpt lat="47.31983" lon="0.09651">
        <ele>113</ele>
        <time>2018-03-04T10:35:29Z</time>
      </trkpt>
      <trkpt lat="47.31964" lon="0.09639">
        <ele>113</ele>
        <time>2018-03-04T10:35:35Z</time>
      </trkpt>
      <trkpt lat="47.31961" lon="0.09638">
        <ele>113</ele>
        <time>2018-03-04T10:35:36Z</time>
      </trkpt>
      <trkpt lat="47.3195" lon="0.09624">
        <ele>113</ele>
        <time>2018-03-04T10:35:41Z</time>
      </trkpt>
      <trkpt lat="47.3194" lon="0.09608">
        <ele>113</ele>
        <time>2018-03-04T10:35:47Z</time>
      </trkpt>
      <trkpt lat="47.31923" lon="0.09598">
        <ele>113</ele>
        <time>2018-03-04T10:35:54Z</time>
      </trkpt>
      <trkpt lat="47.31917" lon="0.096">
        <ele>113</ele>
        <time>2018-03-04T10:35:56Z</time>
      </trkpt>
      <trkpt lat="47.31914" lon="0.09601">
        <ele>111</ele>
        <time>2018-03-04T10:35:57Z</time>
      </trkpt>
      <trkpt lat="47.31911" lon="0.09604">
        <ele>111</ele>
        <time>2018-03-04T10:35:58Z</time>
      </trkpt>
      <trkpt lat="47.31898" lon="0.09618">
        <ele>110</ele>
        <time>2018-03-04T10:36:02Z</time>
      </trkpt>
      <trkpt lat="47.31879" lon="0.09642">
        <ele>109</ele>
        <time>2018-03-04T10:36:07Z</time>
      </trkpt>
      <trkpt lat="47.3186" lon="0.0967">
        <ele>108</ele>
        <time>2018-03-04T10:36:12Z</time>
      </trkpt>
      <trkpt lat="47.31856" lon="0.09676">
        <ele>108</ele>
        <time>2018-03-04T10:36:13Z</time>
      </trkpt>
      <trkpt lat="47.31852" lon="0.09683">
        <ele>108</ele>
        <time>2018-03-04T10:36:14Z</time>
      </trkpt>
      <trkpt lat="47.31845" lon="0.09695">
        <ele>108</ele>
        <time>2018-03-04T10:36:16Z</time>
      </trkpt>
      <trkpt lat="47.31837" lon="0.09707">
        <ele>109</ele>
        <time>2018-03-04T10:36:18Z</time>
      </trkpt>
      <trkpt lat="47.31835" lon="0.09712">
        <ele>109</ele>
        <time>2018-03-04T10:36:19Z</time>
      </trkpt>
      <trkpt lat="47.31833" lon="0.09723">
        <ele>104</ele>
        <time>2018-03-04T10:36:21Z</time>
      </trkpt>
      <trkpt lat="47.31829" lon="0.09733">
        <ele>104</ele>
        <time>2018-03-04T10:36:23Z</time>
      </trkpt>
      <trkpt lat="47.31826" lon="0.09739">
        <ele>105</ele>
        <time>2018-03-04T10:36:25Z</time>
      </trkpt>
      <trkpt lat="47.31825" lon="0.09743">
        <ele>105</ele>
        <time>2018-03-04T10:36:26Z</time>
      </trkpt>
      <trkpt lat="47.31823" lon="0.09747">
        <ele>105</ele>
        <time>2018-03-04T10:36:27Z</time>
      </trkpt>
      <trkpt lat="47.31813" lon="0.09774">
        <ele>105</ele>
        <time>2018-03-04T10:36:32Z</time>
      </trkpt>
      <trkpt lat="47.31805" lon="0.0979">
        <ele>104</ele>
        <time>2018-03-04T10:36:36Z</time>
      </trkpt>
      <trkpt lat="47.31795" lon="0.09815">
        <ele>104</ele>
        <time>2018-03-04T10:36:42Z</time>
      </trkpt>
      <trkpt lat="47.31785" lon="0.09831">
        <ele>104</ele>
        <time>2018-03-04T10:36:58Z</time>
      </trkpt>
      <trkpt lat="47.31777" lon="0.09851">
        <ele>105</ele>
        <time>2018-03-04T10:37:04Z</time>
      </trkpt>
      <trkpt lat="47.31772" lon="0.09862">
        <ele>105</ele>
        <time>2018-03-04T10:37:10Z</time>
      </trkpt>
      <trkpt lat="47.31767" lon="0.09875">
        <ele>105</ele>
        <time>2018-03-04T10:37:17Z</time>
      </trkpt>
      <trkpt lat="47.31762" lon="0.09892">
        <ele>105</ele>
        <time>2018-03-04T10:37:23Z</time>
      </trkpt>
      <trkpt lat="47.3176" lon="0.09894">
        <ele>105</ele>
        <time>2018-03-04T10:37:24Z</time>
      </trkpt>
      <trkpt lat="47.31754" lon="0.09909">
        <ele>104</ele>
        <time>2018-03-04T10:37:28Z</time>
      </trkpt>
      <trkpt lat="47.31752" lon="0.09917">
        <ele>103</ele>
        <time>2018-03-04T10:37:30Z</time>
      </trkpt>
      <trkpt lat="47.31749" lon="0.09926">
        <ele>101</ele>
        <time>2018-03-04T10:37:32Z</time>
      </trkpt>
      <trkpt lat="47.31745" lon="0.09937">
        <ele>100</ele>
        <time>2018-03-04T10:37:35Z</time>
      </trkpt>
      <trkpt lat="47.31743" lon="0.09945">
        <ele>100</ele>
        <time>2018-03-04T10:37:37Z</time>
      </trkpt>
      <trkpt lat="47.3174" lon="0.0995">
        <ele>99</ele>
        <time>2018-03-04T10:37:39Z</time>
      </trkpt>
      <trkpt lat="47.3174" lon="0.09952">
        <ele>99</ele>
        <time>2018-03-04T10:37:40Z</time>
      </trkpt>
      <trkpt lat="47.31738" lon="0.09954">
        <ele>99</ele>
        <time>2018-03-04T10:37:41Z</time>
      </trkpt>
      <trkpt lat="47.31733" lon="0.09962">
        <ele>99</ele>
        <time>2018-03-04T10:37:44Z</time>
      </trkpt>
      <trkpt lat="47.31729" lon="0.09968">
        <ele>99</ele>
        <time>2018-03-04T10:37:46Z</time>
      </trkpt>
      <trkpt lat="47.31727" lon="0.0998">
        <ele>99</ele>
        <time>2018-03-04T10:37:49Z</time>
      </trkpt>
      <trkpt lat="47.31726" lon="0.09984">
        <ele>99</ele>
        <time>2018-03-04T10:37:50Z</time>
      </trkpt>
      <trkpt lat="47.31723" lon="0.09998">
        <ele>99</ele>
        <time>2018-03-04T10:37:53Z</time>
      </trkpt>
      <trkpt lat="47.31721" lon="0.10006">
        <ele>97</ele>
        <time>2018-03-04T10:37:55Z</time>
      </trkpt>
      <trkpt lat="47.31719" lon="0.10009">
        <ele>97</ele>
        <time>2018-03-04T10:37:56Z</time>
      </trkpt>
      <trkpt lat="47.31716" lon="0.10014">
        <ele>96</ele>
        <time>2018-03-04T10:37:57Z</time>
      </trkpt>
      <trkpt lat="47.3171" lon="0.10024">
        <ele>96</ele>
        <time>2018-03-04T10:37:59Z</time>
      </trkpt>
      <trkpt lat="47.31705" lon="0.10037">
        <ele>95</ele>
        <time>2018-03-04T10:38:01Z</time>
      </trkpt>
      <trkpt lat="47.31702" lon="0.10043">
        <ele>95</ele>
        <time>2018-03-04T10:38:02Z</time>
      </trkpt>
      <trkpt lat="47.31699" lon="0.10049">
        <ele>94</ele>
        <time>2018-03-04T10:38:03Z</time>
      </trkpt>
      <trkpt lat="47.31694" lon="0.10062">
        <ele>93</ele>
        <time>2018-03-04T10:38:05Z</time>
      </trkpt>
      <trkpt lat="47.31688" lon="0.1007">
        <ele>92</ele>
        <time>2018-03-04T10:38:07Z</time>
      </trkpt>
      <trkpt lat="47.31684" lon="0.10072">
        <ele>91</ele>
        <time>2018-03-04T10:38:08Z</time>
      </trkpt>
      <trkpt lat="47.31682" lon="0.10073">
        <ele>91</ele>
        <time>2018-03-04T10:38:09Z</time>
      </trkpt>
      <trkpt lat="47.31675" lon="0.10078">
        <ele>89</ele>
        <time>2018-03-04T10:38:12Z</time>
      </trkpt>
      <trkpt lat="47.3166" lon="0.1008">
        <ele>86</ele>
        <time>2018-03-04T10:38:17Z</time>
      </trkpt>
      <trkpt lat="47.3165" lon="0.10075">
        <ele>85</ele>
        <time>2018-03-04T10:38:20Z</time>
      </trkpt>
      <trkpt lat="47.31646" lon="0.10073">
        <ele>85</ele>
        <time>2018-03-04T10:38:21Z</time>
      </trkpt>
      <trkpt lat="47.3164" lon="0.10067">
        <ele>85</ele>
        <time>2018-03-04T10:38:23Z</time>
      </trkpt>
      <trkpt lat="47.31619" lon="0.10045">
        <ele>84</ele>
        <time>2018-03-04T10:38:29Z</time>
      </trkpt>
      <trkpt lat="47.31598" lon="0.10041">
        <ele>83</ele>
        <time>2018-03-04T10:38:33Z</time>
      </trkpt>
      <trkpt lat="47.31587" lon="0.10058">
        <ele>82</ele>
        <time>2018-03-04T10:38:36Z</time>
      </trkpt>
      <trkpt lat="47.31583" lon="0.10064">
        <ele>78</ele>
        <time>2018-03-04T10:38:37Z</time>
      </trkpt>
      <trkpt lat="47.31576" lon="0.10077">
        <ele>78</ele>
        <time>2018-03-04T10:38:39Z</time>
      </trkpt>
      <trkpt lat="47.31567" lon="0.10094">
        <ele>76</ele>
        <time>2018-03-04T10:38:42Z</time>
      </trkpt>
      <trkpt lat="47.31564" lon="0.101">
        <ele>75</ele>
        <time>2018-03-04T10:38:43Z</time>
      </trkpt>
      <trkpt lat="47.31556" lon="0.10116">
        <ele>75</ele>
        <time>2018-03-04T10:38:47Z</time>
      </trkpt>
      <trkpt lat="47.31535" lon="0.10135">
        <ele>74</ele>
        <time>2018-03-04T10:39:31Z</time>
      </trkpt>
      <trkpt lat="47.31531" lon="0.10129">
        <ele>74</ele>
        <time>2018-03-04T10:39:33Z</time>
      </trkpt>
      <trkpt lat="47.31528" lon="0.10123">
        <ele>74</ele>
        <time>2018-03-04T10:39:35Z</time>
      </trkpt>
      <trkpt lat="47.31522" lon="0.10114">
        <ele>74</ele>
        <time>2018-03-04T10:39:38Z</time>
      </trkpt>
      <trkpt lat="47.3152" lon="0.1011">
        <ele>74</ele>
        <time>2018-03-04T10:39:39Z</time>
      </trkpt>
      <trkpt lat="47.31516" lon="0.10103">
        <ele>74</ele>
        <time>2018-03-04T10:39:41Z</time>
      </trkpt>
      <trkpt lat="47.31506" lon="0.10086">
        <ele>73</ele>
        <time>2018-03-04T10:39:45Z</time>
      </trkpt>
      <trkpt lat="47.31483" lon="0.10059">
        <ele>71</ele>
        <time>2018-03-04T10:39:51Z</time>
      </trkpt>
      <trkpt lat="47.31467" lon="0.10041">
        <ele>71</ele>
        <time>2018-03-04T10:39:55Z</time>
      </trkpt>
      <trkpt lat="47.31459" lon="0.10031">
        <ele>71</ele>
        <time>2018-03-04T10:39:57Z</time>
      </trkpt>
      <trkpt lat="47.31444" lon="0.10009">
        <ele>70</ele>
        <time>2018-03-04T10:40:01Z</time>
      </trkpt>
      <trkpt lat="47.31436" lon="0.09998">
        <ele>71</ele>
        <time>2018-03-04T10:40:03Z</time>
      </trkpt>
      <trkpt lat="47.31432" lon="0.09993">
        <ele>71</ele>
        <time>2018-03-04T10:40:04Z</time>
      </trkpt>
      <trkpt lat="47.31425" lon="0.09985">
        <ele>71</ele>
        <time>2018-03-04T10:40:06Z</time>
      </trkpt>
      <trkpt lat="47.31416" lon="0.09978">
        <ele>68</ele>
        <time>2018-03-04T10:40:08Z</time>
      </trkpt>
      <trkpt lat="47.31394" lon="0.09959">
        <ele>68</ele>
        <time>2018-03-04T10:40:13Z</time>
      </trkpt>
      <trkpt lat="47.31379" lon="0.09949">
        <ele>67</ele>
        <time>2018-03-04T10:40:16Z</time>
      </trkpt>
      <trkpt lat="47.31362" lon="0.0994">
        <ele>66</ele>
        <time>2018-03-04T10:40:20Z</time>
      </trkpt>
      <trkpt lat="47.31358" lon="0.09938">
        <ele>66</ele>
        <time>2018-03-04T10:40:21Z</time>
      </trkpt>
      <trkpt lat="47.31345" lon="0.09932">
        <ele>65</ele>
        <time>2018-03-04T10:40:24Z</time>
      </trkpt>
      <trkpt lat="47.31324" lon="0.09921">
        <ele>62</ele>
        <time>2018-03-04T10:40:29Z</time>
      </trkpt>
      <trkpt lat="47.31294" lon="0.09905">
        <ele>60</ele>
        <time>2018-03-04T10:40:36Z</time>
      </trkpt>
      <trkpt lat="47.31285" lon="0.09899">
        <ele>59</ele>
        <time>2018-03-04T10:40:38Z</time>
      </trkpt>
      <trkpt lat="47.31267" lon="0.09885">
        <ele>59</ele>
        <time>2018-03-04T10:40:42Z</time>
      </trkpt>
      <trkpt lat="47.31231" lon="0.09856">
        <ele>55</ele>
        <time>2018-03-04T10:40:50Z</time>
      </trkpt>
      <trkpt lat="47.31199" lon="0.09839">
        <ele>53</ele>
        <time>2018-03-04T10:40:57Z</time>
      </trkpt>
      <trkpt lat="47.31194" lon="0.09837">
        <ele>53</ele>
        <time>2018-03-04T10:40:58Z</time>
      </trkpt>
      <trkpt lat="47.31176" lon="0.09826">
        <ele>52</ele>
        <time>2018-03-04T10:41:02Z</time>
      </trkpt>
      <trkpt lat="47.31172" lon="0.09823">
        <ele>52</ele>
        <time>2018-03-04T10:41:03Z</time>
      </trkpt>
      <trkpt lat="47.31163" lon="0.09819">
        <ele>51</ele>
        <time>2018-03-04T10:41:05Z</time>
      </trkpt>
      <trkpt lat="47.31144" lon="0.09808">
        <ele>51</ele>
        <time>2018-03-04T10:41:09Z</time>
      </trkpt>
      <trkpt lat="47.31139" lon="0.09803">
        <ele>51</ele>
        <time>2018-03-04T10:41:10Z</time>
      </trkpt>
      <trkpt lat="47.31117" lon="0.09773">
        <ele>51</ele>
        <time>2018-03-04T10:41:16Z</time>
      </trkpt>
      <trkpt lat="47.31091" lon="0.09731">
        <ele>51</ele>
        <time>2018-03-04T10:41:24Z</time>
      </trkpt>
      <trkpt lat="47.31087" lon="0.09726">
        <ele>51</ele>
        <time>2018-03-04T10:41:25Z</time>
      </trkpt>
      <trkpt lat="47.31069" lon="0.09697">
        <ele>49</ele>
        <time>2018-03-04T10:41:31Z</time>
      </trkpt>
      <trkpt lat="47.31062" lon="0.09688">
        <ele>49</ele>
        <time>2018-03-04T10:41:33Z</time>
      </trkpt>
      <trkpt lat="47.31043" lon="0.09659">
        <ele>50</ele>
        <time>2018-03-04T10:41:39Z</time>
      </trkpt>
      <trkpt lat="47.31036" lon="0.09648">
        <ele>49</ele>
        <time>2018-03-04T10:41:41Z</time>
      </trkpt>
      <trkpt lat="47.31015" lon="0.09619">
        <ele>49</ele>
        <time>2018-03-04T10:41:47Z</time>
      </trkpt>
      <trkpt lat="47.31008" lon="0.09609">
        <ele>49</ele>
        <time>2018-03-04T10:41:49Z</time>
      </trkpt>
      <trkpt lat="47.30985" lon="0.09576">
        <ele>48</ele>
        <time>2018-03-04T10:41:56Z</time>
      </trkpt>
      <trkpt lat="47.30979" lon="0.09567">
        <ele>48</ele>
        <time>2018-03-04T10:41:58Z</time>
      </trkpt>
      <trkpt lat="47.30956" lon="0.09533">
        <ele>48</ele>
        <time>2018-03-04T10:42:06Z</time>
      </trkpt>
      <trkpt lat="47.30936" lon="0.09501">
        <ele>48</ele>
        <time>2018-03-04T10:42:14Z</time>
      </trkpt>
      <trkpt lat="47.30922" lon="0.09478">
        <ele>49</ele>
        <time>2018-03-04T10:42:21Z</time>
      </trkpt>
      <trkpt lat="47.30919" lon="0.09478">
        <ele>49</ele>
        <time>2018-03-04T10:42:22Z</time>
      </trkpt>
      <trkpt lat="47.30913" lon="0.09483">
        <ele>47</ele>
        <time>2018-03-04T10:42:24Z</time>
      </trkpt>
      <trkpt lat="47.309" lon="0.09491">
        <ele>47</ele>
        <time>2018-03-04T10:42:28Z</time>
      </trkpt>
      <trkpt lat="47.30893" lon="0.09477">
        <ele>47</ele>
        <time>2018-03-04T10:42:31Z</time>
      </trkpt>
      <trkpt lat="47.30891" lon="0.09471">
        <ele>46</ele>
        <time>2018-03-04T10:42:32Z</time>
      </trkpt>
      <trkpt lat="47.3089" lon="0.09464">
        <ele>47</ele>
        <time>2018-03-04T10:42:33Z</time>
      </trkpt>
      <trkpt lat="47.30887" lon="0.09451">
        <ele>47</ele>
        <time>2018-03-04T10:42:35Z</time>
      </trkpt>
      <trkpt lat="47.30885" lon="0.09439">
        <ele>47</ele>
        <time>2018-03-04T10:42:37Z</time>
      </trkpt>
      <trkpt lat="47.30884" lon="0.09433">
        <ele>47</ele>
        <time>2018-03-04T10:42:38Z</time>
      </trkpt>
      <trkpt lat="47.3088" lon="0.09415">
        <ele>47</ele>
        <time>2018-03-04T10:42:41Z</time>
      </trkpt>
      <trkpt lat="47.3087" lon="0.09367">
        <ele>47</ele>
        <time>2018-03-04T10:42:49Z</time>
      </trkpt>
      <trkpt lat="47.30869" lon="0.09361">
        <ele>47</ele>
        <time>2018-03-04T10:42:50Z</time>
      </trkpt>
      <trkpt lat="47.30863" lon="0.09332">
        <ele>48</ele>
        <time>2018-03-04T10:42:55Z</time>
      </trkpt>
      <trkpt lat="47.30854" lon="0.09278">
        <ele>48</ele>
        <time>2018-03-04T10:43:04Z</time>
      </trkpt>
      <trkpt lat="47.30852" lon="0.09266">
        <ele>48</ele>
        <time>2018-03-04T10:43:06Z</time>
      </trkpt>
      <trkpt lat="47.3085" lon="0.09242">
        <ele>49</ele>
        <time>2018-03-04T10:43:10Z</time>
      </trkpt>
      <trkpt lat="47.30844" lon="0.09194">
        <ele>50</ele>
        <time>2018-03-04T10:43:18Z</time>
      </trkpt>
      <trkpt lat="47.30843" lon="0.09188">
        <ele>50</ele>
        <time>2018-03-04T10:43:19Z</time>
      </trkpt>
      <trkpt lat="47.30834" lon="0.09133">
        <ele>51</ele>
        <time>2018-03-04T10:43:28Z</time>
      </trkpt>
      <trkpt lat="47.30832" lon="0.09128">
        <ele>47</ele>
        <time>2018-03-04T10:43:29Z</time>
      </trkpt>
      <trkpt lat="47.3083" lon="0.09117">
        <ele>47</ele>
        <time>2018-03-04T10:43:31Z</time>
      </trkpt>
      <trkpt lat="47.30835" lon="0.0911">
        <ele>51</ele>
        <time>2018-03-04T10:43:33Z</time>
      </trkpt>
      <trkpt lat="47.30844" lon="0.09106">
        <ele>51</ele>
        <time>2018-03-04T10:43:37Z</time>
      </trkpt>
      <trkpt lat="47.30848" lon="0.09103">
        <ele>51</ele>
        <time>2018-03-04T10:43:39Z</time>
      </trkpt>
      <trkpt lat="47.30858" lon="0.09097">
        <ele>51</ele>
        <time>2018-03-04T10:43:44Z</time>
      </trkpt>
      <trkpt lat="47.30873" lon="0.09087">
        <ele>52</ele>
        <time>2018-03-04T10:43:51Z</time>
      </trkpt>
      <trkpt lat="47.30875" lon="0.09086">
        <ele>52</ele>
        <time>2018-03-04T10:43:52Z</time>
      </trkpt>
      <trkpt lat="47.30891" lon="0.09076">
        <ele>54</ele>
        <time>2018-03-04T10:44:00Z</time>
      </trkpt>
      <trkpt lat="47.30893" lon="0.09074">
        <ele>55</ele>
        <time>2018-03-04T10:44:01Z</time>
      </trkpt>
      <trkpt lat="47.30907" lon="0.0906">
        <ele>55</ele>
        <time>2018-03-04T10:44:09Z</time>
      </trkpt>
      <trkpt lat="47.30923" lon="0.09048">
        <ele>60</ele>
        <time>2018-03-04T10:44:17Z</time>
      </trkpt>
      <trkpt lat="47.30941" lon="0.09035">
        <ele>60</ele>
        <time>2018-03-04T10:44:26Z</time>
      </trkpt>
      <trkpt lat="47.30951" lon="0.09029">
        <ele>61</ele>
        <time>2018-03-04T10:44:32Z</time>
      </trkpt>
      <trkpt lat="47.30962" lon="0.0902">
        <ele>61</ele>
        <time>2018-03-04T10:44:39Z</time>
      </trkpt>
      <trkpt lat="47.30975" lon="0.09011">
        <ele>62</ele>
        <time>2018-03-04T10:44:46Z</time>
      </trkpt>
      <trkpt lat="47.30989" lon="0.09001">
        <ele>64</ele>
        <time>2018-03-04T10:44:54Z</time>
      </trkpt>
      <trkpt lat="47.30991" lon="0.09">
        <ele>65</ele>
        <time>2018-03-04T10:44:55Z</time>
      </trkpt>
      <trkpt lat="47.31006" lon="0.08988">
        <ele>68</ele>
        <time>2018-03-04T10:45:03Z</time>
      </trkpt>
      <trkpt lat="47.31025" lon="0.08978">
        <ele>69</ele>
        <time>2018-03-04T10:45:10Z</time>
      </trkpt>
      <trkpt lat="47.31044" lon="0.08965">
        <ele>70</ele>
        <time>2018-03-04T10:45:18Z</time>
      </trkpt>
      <trkpt lat="47.31055" lon="0.08949">
        <ele>71</ele>
        <time>2018-03-04T10:45:25Z</time>
      </trkpt>
      <trkpt lat="47.31064" lon="0.08928">
        <ele>71</ele>
        <time>2018-03-04T10:45:32Z</time>
      </trkpt>
      <trkpt lat="47.31072" lon="0.08905">
        <ele>71</ele>
        <time>2018-03-04T10:45:38Z</time>
      </trkpt>
      <trkpt lat="47.31082" lon="0.08887">
        <ele>70</ele>
        <time>2018-03-04T10:45:43Z</time>
      </trkpt>
      <trkpt lat="47.31091" lon="0.08873">
        <ele>74</ele>
        <time>2018-03-04T10:45:48Z</time>
      </trkpt>
      <trkpt lat="47.31103" lon="0.08855">
        <ele>74</ele>
        <time>2018-03-04T10:45:54Z</time>
      </trkpt>
      <trkpt lat="47.31113" lon="0.08835">
        <ele>74</ele>
        <time>2018-03-04T10:46:00Z</time>
      </trkpt>
      <trkpt lat="47.31129" lon="0.08811">
        <ele>74</ele>
        <time>2018-03-04T10:46:07Z</time>
      </trkpt>
      <trkpt lat="47.31144" lon="0.08787">
        <ele>75</ele>
        <time>2018-03-04T10:46:15Z</time>
      </trkpt>
      <trkpt lat="47.31153" lon="0.0877">
        <ele>75</ele>
        <time>2018-03-04T10:46:21Z</time>
      </trkpt>
      <trkpt lat="47.31155" lon="0.08767">
        <ele>76</ele>
        <time>2018-03-04T10:46:22Z</time>
      </trkpt>
      <trkpt lat="47.31162" lon="0.08755">
        <ele>76</ele>
        <time>2018-03-04T10:46:27Z</time>
      </trkpt>
      <trkpt lat="47.31171" lon="0.08738">
        <ele>77</ele>
        <time>2018-03-04T10:46:33Z</time>
      </trkpt>
      <trkpt lat="47.31182" lon="0.08724">
        <ele>78</ele>
        <time>2018-03-04T10:46:39Z</time>
      </trkpt>
      <trkpt lat="47.31197" lon="0.08709">
        <ele>78</ele>
        <time>2018-03-04T10:46:47Z</time>
      </trkpt>
      <trkpt lat="47.31213" lon="0.08698">
        <ele>78</ele>
        <time>2018-03-04T10:46:54Z</time>
      </trkpt>
      <trkpt lat="47.31227" lon="0.08683">
        <ele>78</ele>
        <time>2018-03-04T10:47:02Z</time>
      </trkpt>
      <trkpt lat="47.31241" lon="0.08666">
        <ele>77</ele>
        <time>2018-03-04T10:47:09Z</time>
      </trkpt>
      <trkpt lat="47.31252" lon="0.0865">
        <ele>78</ele>
        <time>2018-03-04T10:47:14Z</time>
      </trkpt>
      <trkpt lat="47.31261" lon="0.08637">
        <ele>78</ele>
        <time>2018-03-04T10:47:18Z</time>
      </trkpt>
      <trkpt lat="47.31267" lon="0.08633">
        <ele>78</ele>
        <time>2018-03-04T10:47:20Z</time>
      </trkpt>
      <trkpt lat="47.31274" lon="0.08624">
        <ele>78</ele>
        <time>2018-03-04T10:47:22Z</time>
      </trkpt>
      <trkpt lat="47.31285" lon="0.08613">
        <ele>78</ele>
        <time>2018-03-04T10:47:25Z</time>
      </trkpt>
      <trkpt lat="47.31304" lon="0.08593">
        <ele>78</ele>
        <time>2018-03-04T10:47:31Z</time>
      </trkpt>
      <trkpt lat="47.31307" lon="0.0859">
        <ele>78</ele>
        <time>2018-03-04T10:47:32Z</time>
      </trkpt>
      <trkpt lat="47.31335" lon="0.08561">
        <ele>79</ele>
        <time>2018-03-04T10:47:40Z</time>
      </trkpt>
      <trkpt lat="47.31355" lon="0.08541">
        <ele>79</ele>
        <time>2018-03-04T10:47:47Z</time>
      </trkpt>
      <trkpt lat="47.31358" lon="0.08539">
        <ele>79</ele>
        <time>2018-03-04T10:47:48Z</time>
      </trkpt>
      <trkpt lat="47.31379" lon="0.08524">
        <ele>79</ele>
        <time>2018-03-04T10:47:54Z</time>
      </trkpt>
      <trkpt lat="47.31398" lon="0.08508">
        <ele>79</ele>
        <time>2018-03-04T10:48:00Z</time>
      </trkpt>
      <trkpt lat="47.31423" lon="0.08492">
        <ele>79</ele>
        <time>2018-03-04T10:48:07Z</time>
      </trkpt>
      <trkpt lat="47.31442" lon="0.08479">
        <ele>79</ele>
        <time>2018-03-04T10:48:13Z</time>
      </trkpt>
      <trkpt lat="47.31455" lon="0.08469">
        <ele>79</ele>
        <time>2018-03-04T10:48:18Z</time>
      </trkpt>
      <trkpt lat="47.31457" lon="0.08467">
        <ele>79</ele>
        <time>2018-03-04T10:48:19Z</time>
      </trkpt>
      <trkpt lat="47.3148" lon="0.08452">
        <ele>79</ele>
        <time>2018-03-04T10:48:25Z</time>
      </trkpt>
      <trkpt lat="47.31512" lon="0.0844">
        <ele>79</ele>
        <time>2018-03-04T10:48:32Z</time>
      </trkpt>
      <trkpt lat="47.31544" lon="0.08434">
        <ele>80</ele>
        <time>2018-03-04T10:48:38Z</time>
      </trkpt>
      <trkpt lat="47.31565" lon="0.08432">
        <ele>79</ele>
        <time>2018-03-04T10:48:42Z</time>
      </trkpt>
      <trkpt lat="47.31575" lon="0.0843">
        <ele>78</ele>
        <time>2018-03-04T10:48:44Z</time>
      </trkpt>
      <trkpt lat="47.316" lon="0.08426">
        <ele>78</ele>
        <time>2018-03-04T10:48:49Z</time>
      </trkpt>
      <trkpt lat="47.31622" lon="0.08421">
        <ele>78</ele>
        <time>2018-03-04T10:48:54Z</time>
      </trkpt>
      <trkpt lat="47.3165" lon="0.08413">
        <ele>75</ele>
        <time>2018-03-04T10:48:59Z</time>
      </trkpt>
      <trkpt lat="47.31693" lon="0.08401">
        <ele>75</ele>
        <time>2018-03-04T10:49:06Z</time>
      </trkpt>
      <trkpt lat="47.31698" lon="0.08398">
        <ele>75</ele>
        <time>2018-03-04T10:49:07Z</time>
      </trkpt>
      <trkpt lat="47.31714" lon="0.08393">
        <ele>75</ele>
        <time>2018-03-04T10:49:09Z</time>
      </trkpt>
      <trkpt lat="47.31721" lon="0.0839">
        <ele>75</ele>
        <time>2018-03-04T10:49:10Z</time>
      </trkpt>
      <trkpt lat="47.31742" lon="0.08381">
        <ele>75</ele>
        <time>2018-03-04T10:49:13Z</time>
      </trkpt>
      <trkpt lat="47.31762" lon="0.08373">
        <ele>74</ele>
        <time>2018-03-04T10:49:16Z</time>
      </trkpt>
      <trkpt lat="47.31768" lon="0.08371">
        <ele>74</ele>
        <time>2018-03-04T10:49:17Z</time>
      </trkpt>
      <trkpt lat="47.31803" lon="0.08359">
        <ele>73</ele>
        <time>2018-03-04T10:49:22Z</time>
      </trkpt>
      <trkpt lat="47.31811" lon="0.08356">
        <ele>72</ele>
        <time>2018-03-04T10:49:23Z</time>
      </trkpt>
      <trkpt lat="47.31825" lon="0.08349">
        <ele>72</ele>
        <time>2018-03-04T10:49:25Z</time>
      </trkpt>
      <trkpt lat="47.31839" lon="0.08336">
        <ele>70</ele>
        <time>2018-03-04T10:49:27Z</time>
      </trkpt>
      <trkpt lat="47.31858" lon="0.08305">
        <ele>67</ele>
        <time>2018-03-04T10:49:31Z</time>
      </trkpt>
      <trkpt lat="47.31864" lon="0.08289">
        <ele>67</ele>
        <time>2018-03-04T10:49:33Z</time>
      </trkpt>
      <trkpt lat="47.31874" lon="0.08265">
        <ele>66</ele>
        <time>2018-03-04T10:49:36Z</time>
      </trkpt>
      <trkpt lat="47.31881" lon="0.0824">
        <ele>63</ele>
        <time>2018-03-04T10:49:39Z</time>
      </trkpt>
      <trkpt lat="47.31887" lon="0.08223">
        <ele>63</ele>
        <time>2018-03-04T10:49:41Z</time>
      </trkpt>
      <trkpt lat="47.319" lon="0.08193">
        <ele>62</ele>
        <time>2018-03-04T10:49:46Z</time>
      </trkpt>
      <trkpt lat="47.31906" lon="0.08185">
        <ele>61</ele>
        <time>2018-03-04T10:49:49Z</time>
      </trkpt>
      <trkpt lat="47.31908" lon="0.08182">
        <ele>61</ele>
        <time>2018-03-04T10:49:50Z</time>
      </trkpt>
      <trkpt lat="47.3192" lon="0.0816">
        <ele>60</ele>
        <time>2018-03-04T10:49:55Z</time>
      </trkpt>
      <trkpt lat="47.31924" lon="0.08156">
        <ele>60</ele>
        <time>2018-03-04T10:49:56Z</time>
      </trkpt>
      <trkpt lat="47.31945" lon="0.08133">
        <ele>60</ele>
        <time>2018-03-04T10:50:03Z</time>
      </trkpt>
      <trkpt lat="47.31954" lon="0.08122">
        <ele>60</ele>
        <time>2018-03-04T10:50:07Z</time>
      </trkpt>
      <trkpt lat="47.31959" lon="0.08096">
        <ele>60</ele>
        <time>2018-03-04T10:50:13Z</time>
      </trkpt>
      <trkpt lat="47.31963" lon="0.08075">
        <ele>60</ele>
        <time>2018-03-04T10:50:17Z</time>
      </trkpt>
      <trkpt lat="47.31965" lon="0.08066">
        <ele>60</ele>
        <time>2018-03-04T10:50:19Z</time>
      </trkpt>
      <trkpt lat="47.3197" lon="0.08039">
        <ele>60</ele>
        <time>2018-03-04T10:50:24Z</time>
      </trkpt>
      <trkpt lat="47.31973" lon="0.08028">
        <ele>60</ele>
        <time>2018-03-04T10:50:26Z</time>
      </trkpt>
      <trkpt lat="47.31981" lon="0.07998">
        <ele>63</ele>
        <time>2018-03-04T10:50:32Z</time>
      </trkpt>
      <trkpt lat="47.31982" lon="0.07994">
        <ele>63</ele>
        <time>2018-03-04T10:50:33Z</time>
      </trkpt>
      <trkpt lat="47.31988" lon="0.07964">
        <ele>64</ele>
        <time>2018-03-04T10:50:40Z</time>
      </trkpt>
      <trkpt lat="47.31995" lon="0.0793">
        <ele>65</ele>
        <time>2018-03-04T10:50:47Z</time>
      </trkpt>
      <trkpt lat="47.32002" lon="0.079">
        <ele>66</ele>
        <time>2018-03-04T10:50:54Z</time>
      </trkpt>
      <trkpt lat="47.32009" lon="0.07876">
        <ele>65</ele>
        <time>2018-03-04T10:51:00Z</time>
      </trkpt>
      <trkpt lat="47.32015" lon="0.07845">
        <ele>66</ele>
        <time>2018-03-04T10:51:07Z</time>
      </trkpt>
      <trkpt lat="47.32022" lon="0.07814">
        <ele>68</ele>
        <time>2018-03-04T10:51:13Z</time>
      </trkpt>
      <trkpt lat="47.32024" lon="0.07788">
        <ele>69</ele>
        <time>2018-03-04T10:51:19Z</time>
      </trkpt>
      <trkpt lat="47.32024" lon="0.07779">
        <ele>69</ele>
        <time>2018-03-04T10:51:23Z</time>
      </trkpt>
      <trkpt lat="47.32023" lon="0.07777">
        <ele>69</ele>
        <time>2018-03-04T10:51:24Z</time>
      </trkpt>
      <trkpt lat="47.32011" lon="0.0777">
        <ele>70</ele>
        <time>2018-03-04T10:51:28Z</time>
      </trkpt>
      <trkpt lat="47.31992" lon="0.0777">
        <ele>69</ele>
        <time>2018-03-04T10:51:33Z</time>
      </trkpt>
      <trkpt lat="47.31987" lon="0.07771">
        <ele>69</ele>
        <time>2018-03-04T10:51:34Z</time>
      </trkpt>
      <trkpt lat="47.31965" lon="0.07774">
        <ele>69</ele>
        <time>2018-03-04T10:51:38Z</time>
      </trkpt>
      <trkpt lat="47.31924" lon="0.07775">
        <ele>68</ele>
        <time>2018-03-04T10:51:45Z</time>
      </trkpt>
      <trkpt lat="47.31899" lon="0.07773">
        <ele>67</ele>
        <time>2018-03-04T10:51:49Z</time>
      </trkpt>
      <trkpt lat="47.31887" lon="0.07771">
        <ele>66</ele>
        <time>2018-03-04T10:51:51Z</time>
      </trkpt>
      <trkpt lat="47.31876" lon="0.07769">
        <ele>66</ele>
        <time>2018-03-04T10:51:53Z</time>
      </trkpt>
      <trkpt lat="47.31871" lon="0.07768">
        <ele>66</ele>
        <time>2018-03-04T10:51:54Z</time>
      </trkpt>
      <trkpt lat="47.31852" lon="0.0776">
        <ele>65</ele>
        <time>2018-03-04T10:51:59Z</time>
      </trkpt>
      <trkpt lat="47.31852" lon="0.07747">
        <ele>64</ele>
        <time>2018-03-04T10:52:03Z</time>
      </trkpt>
      <trkpt lat="47.31852" lon="0.07745">
        <ele>64</ele>
        <time>2018-03-04T10:52:04Z</time>
      </trkpt>
      <trkpt lat="47.31858" lon="0.07734">
        <ele>64</ele>
        <time>2018-03-04T10:52:07Z</time>
      </trkpt>
      <trkpt lat="47.31861" lon="0.07727">
        <ele>64</ele>
        <time>2018-03-04T10:52:09Z</time>
      </trkpt>
      <trkpt lat="47.31864" lon="0.07719">
        <ele>64</ele>
        <time>2018-03-04T10:52:12Z</time>
      </trkpt>
      <trkpt lat="47.31868" lon="0.07714">
        <ele>65</ele>
        <time>2018-03-04T10:52:14Z</time>
      </trkpt>
      <trkpt lat="47.31877" lon="0.07707">
        <ele>65</ele>
        <time>2018-03-04T10:52:18Z</time>
      </trkpt>
      <trkpt lat="47.31881" lon="0.07703">
        <ele>65</ele>
        <time>2018-03-04T10:52:20Z</time>
      </trkpt>
      <trkpt lat="47.31895" lon="0.07686">
        <ele>66</ele>
        <time>2018-03-04T10:52:26Z</time>
      </trkpt>
      <trkpt lat="47.31904" lon="0.07673">
        <ele>67</ele>
        <time>2018-03-04T10:52:31Z</time>
      </trkpt>
      <trkpt lat="47.31912" lon="0.07661">
        <ele>67</ele>
        <time>2018-03-04T10:52:36Z</time>
      </trkpt>
      <trkpt lat="47.31922" lon="0.07642">
        <ele>70</ele>
        <time>2018-03-04T10:52:42Z</time>
      </trkpt>
      <trkpt lat="47.31935" lon="0.07626">
        <ele>70</ele>
        <time>2018-03-04T10:52:48Z</time>
      </trkpt>
      <trkpt lat="47.31953" lon="0.07607">
        <ele>71</ele>
        <time>2018-03-04T10:52:55Z</time>
      </trkpt>
      <trkpt lat="47.31964" lon="0.07582">
        <ele>72</ele>
        <time>2018-03-04T10:53:00Z</time>
      </trkpt>
      <trkpt lat="47.31975" lon="0.07564">
        <ele>73</ele>
        <time>2018-03-04T10:53:06Z</time>
      </trkpt>
      <trkpt lat="47.31982" lon="0.07543">
        <ele>74</ele>
        <time>2018-03-04T10:53:12Z</time>
      </trkpt>
      <trkpt lat="47.31991" lon="0.07523">
        <ele>75</ele>
        <time>2018-03-04T10:53:18Z</time>
      </trkpt>
      <trkpt lat="47.31997" lon="0.07506">
        <ele>77</ele>
        <time>2018-03-04T10:53:24Z</time>
      </trkpt>
      <trkpt lat="47.32003" lon="0.07492">
        <ele>80</ele>
        <time>2018-03-04T10:53:30Z</time>
      </trkpt>
      <trkpt lat="47.32008" lon="0.07481">
        <ele>82</ele>
        <time>2018-03-04T10:53:35Z</time>
      </trkpt>
      <trkpt lat="47.32009" lon="0.07478">
        <ele>83</ele>
        <time>2018-03-04T10:53:36Z</time>
      </trkpt>
      <trkpt lat="47.32017" lon="0.07457">
        <ele>84</ele>
        <time>2018-03-04T10:53:44Z</time>
      </trkpt>
      <trkpt lat="47.32023" lon="0.07441">
        <ele>84</ele>
        <time>2018-03-04T10:53:51Z</time>
      </trkpt>
      <trkpt lat="47.32029" lon="0.07427">
        <ele>85</ele>
        <time>2018-03-04T10:53:57Z</time>
      </trkpt>
      <trkpt lat="47.32035" lon="0.0741">
        <ele>86</ele>
        <time>2018-03-04T10:54:03Z</time>
      </trkpt>
      <trkpt lat="47.32039" lon="0.0739">
        <ele>86</ele>
        <time>2018-03-04T10:54:10Z</time>
      </trkpt>
      <trkpt lat="47.32042" lon="0.0737">
        <ele>87</ele>
        <time>2018-03-04T10:54:17Z</time>
      </trkpt>
      <trkpt lat="47.32048" lon="0.07346">
        <ele>87</ele>
        <time>2018-03-04T10:54:23Z</time>
      </trkpt>
      <trkpt lat="47.32055" lon="0.07328">
        <ele>88</ele>
        <time>2018-03-04T10:54:27Z</time>
      </trkpt>
      <trkpt lat="47.32057" lon="0.07319">
        <ele>88</ele>
        <time>2018-03-04T10:54:29Z</time>
      </trkpt>
      <trkpt lat="47.32059" lon="0.07308">
        <ele>88</ele>
        <time>2018-03-04T10:54:34Z</time>
      </trkpt>
      <trkpt lat="47.3206" lon="0.073">
        <ele>88</ele>
        <time>2018-03-04T10:54:35Z</time>
      </trkpt>
      <trkpt lat="47.32062" lon="0.0729">
        <ele>88</ele>
        <time>2018-03-04T10:55:36Z</time>
      </trkpt>
      <trkpt lat="47.32062" lon="0.07286">
        <ele>88</ele>
        <time>2018-03-04T10:55:37Z</time>
      </trkpt>
      <trkpt lat="47.32063" lon="0.07283">
        <ele>88</ele>
        <time>2018-03-04T10:55:38Z</time>
      </trkpt>
      <trkpt lat="47.32063" lon="0.0728">
        <ele>88</ele>
        <time>2018-03-04T10:55:39Z</time>
      </trkpt>
      <trkpt lat="47.32064" lon="0.07268">
        <ele>88</ele>
        <time>2018-03-04T10:55:43Z</time>
      </trkpt>
      <trkpt lat="47.32064" lon="0.07269">
        <ele>88</ele>
        <time>2018-03-04T10:55:44Z</time>
      </trkpt>
      <trkpt lat="47.32024" lon="0.07204">
        <ele>89</ele>
        <time>2018-03-04T10:56:18Z</time>
      </trkpt>
      <trkpt lat="47.32023" lon="0.07203">
        <ele>89</ele>
        <time>2018-03-04T10:56:19Z</time>
      </trkpt>
      <trkpt lat="47.32019" lon="0.072">
        <ele>89</ele>
        <time>2018-03-04T10:56:21Z</time>
      </trkpt>
      <trkpt lat="47.32006" lon="0.07189">
        <ele>89</ele>
        <time>2018-03-04T10:56:32Z</time>
      </trkpt>
      <trkpt lat="47.32004" lon="0.07187">
        <ele>89</ele>
        <time>2018-03-04T10:56:33Z</time>
      </trkpt>
      <trkpt lat="47.31997" lon="0.07181">
        <ele>88</ele>
        <time>2018-03-04T10:56:37Z</time>
      </trkpt>
      <trkpt lat="47.31994" lon="0.07178">
        <ele>88</ele>
        <time>2018-03-04T10:56:40Z</time>
      </trkpt>
      <trkpt lat="47.31982" lon="0.07165">
        <ele>92</ele>
        <time>2018-03-04T10:56:49Z</time>
      </trkpt>
      <trkpt lat="47.31975" lon="0.07158">
        <ele>92</ele>
        <time>2018-03-04T10:56:54Z</time>
      </trkpt>
      <trkpt lat="47.31852" lon="0.07036">
        <ele>103</ele>
        <time>2018-03-04T10:59:16Z</time>
      </trkpt>
      <trkpt lat="47.31849" lon="0.07035">
        <ele>103</ele>
        <time>2018-03-04T10:59:17Z</time>
      </trkpt>
      <trkpt lat="47.31845" lon="0.07034">
        <ele>103</ele>
        <time>2018-03-04T10:59:19Z</time>
      </trkpt>
      <trkpt lat="47.3184" lon="0.07037">
        <ele>103</ele>
        <time>2018-03-04T10:59:22Z</time>
      </trkpt>
      <trkpt lat="47.31831" lon="0.07049">
        <ele>101</ele>
        <time>2018-03-04T10:59:28Z</time>
      </trkpt>
      <trkpt lat="47.31825" lon="0.07062">
        <ele>99</ele>
        <time>2018-03-04T10:59:31Z</time>
      </trkpt>
      <trkpt lat="47.31821" lon="0.0707">
        <ele>99</ele>
        <time>2018-03-04T10:59:33Z</time>
      </trkpt>
      <trkpt lat="47.31819" lon="0.07075">
        <ele>99</ele>
        <time>2018-03-04T10:59:34Z</time>
      </trkpt>
      <trkpt lat="47.31803" lon="0.07103">
        <ele>90</ele>
        <time>2018-03-04T10:59:40Z</time>
      </trkpt>
      <trkpt lat="47.31787" lon="0.07133">
        <ele>87</ele>
        <time>2018-03-04T10:59:45Z</time>
      </trkpt>
      <trkpt lat="47.31766" lon="0.07172">
        <ele>78</ele>
        <time>2018-03-04T10:59:50Z</time>
      </trkpt>
      <trkpt lat="47.31746" lon="0.07215">
        <ele>73</ele>
        <time>2018-03-04T10:59:55Z</time>
      </trkpt>
      <trkpt lat="47.31737" lon="0.07233">
        <ele>72</ele>
        <time>2018-03-04T10:59:58Z</time>
      </trkpt>
      <trkpt lat="47.31731" lon="0.07247">
        <ele>72</ele>
        <time>2018-03-04T11:00:00Z</time>
      </trkpt>
      <trkpt lat="47.31709" lon="0.07291">
        <ele>68</ele>
        <time>2018-03-04T11:00:06Z</time>
      </trkpt>
      <trkpt lat="47.31702" lon="0.07304">
        <ele>68</ele>
        <time>2018-03-04T11:00:08Z</time>
      </trkpt>
      <trkpt lat="47.31693" lon="0.07321">
        <ele>67</ele>
        <time>2018-03-04T11:00:11Z</time>
      </trkpt>
      <trkpt lat="47.31691" lon="0.07327">
        <ele>67</ele>
        <time>2018-03-04T11:00:12Z</time>
      </trkpt>
      <trkpt lat="47.31678" lon="0.07356">
        <ele>65</ele>
        <time>2018-03-04T11:00:17Z</time>
      </trkpt>
      <trkpt lat="47.31669" lon="0.07376">
        <ele>64</ele>
        <time>2018-03-04T11:00:20Z</time>
      </trkpt>
      <trkpt lat="47.31662" lon="0.07388">
        <ele>62</ele>
        <time>2018-03-04T11:00:22Z</time>
      </trkpt>
      <trkpt lat="47.31644" lon="0.07423">
        <ele>60</ele>
        <time>2018-03-04T11:00:28Z</time>
      </trkpt>
      <trkpt lat="47.31624" lon="0.07462">
        <ele>59</ele>
        <time>2018-03-04T11:00:35Z</time>
      </trkpt>
      <trkpt lat="47.31622" lon="0.07467">
        <ele>59</ele>
        <time>2018-03-04T11:00:36Z</time>
      </trkpt>
      <trkpt lat="47.31613" lon="0.07483">
        <ele>58</ele>
        <time>2018-03-04T11:00:39Z</time>
      </trkpt>
      <trkpt lat="47.31599" lon="0.07508">
        <ele>57</ele>
        <time>2018-03-04T11:00:44Z</time>
      </trkpt>
      <trkpt lat="47.31584" lon="0.0754">
        <ele>57</ele>
        <time>2018-03-04T11:00:50Z</time>
      </trkpt>
      <trkpt lat="47.31576" lon="0.07557">
        <ele>56</ele>
        <time>2018-03-04T11:00:55Z</time>
      </trkpt>
      <trkpt lat="47.31571" lon="0.07557">
        <ele>56</ele>
        <time>2018-03-04T11:00:59Z</time>
      </trkpt>
      <trkpt lat="47.3157" lon="0.07556">
        <ele>56</ele>
        <time>2018-03-04T11:01:00Z</time>
      </trkpt>
      <trkpt lat="47.31568" lon="0.07549">
        <ele>56</ele>
        <time>2018-03-04T11:01:03Z</time>
      </trkpt>
      <trkpt lat="47.31565" lon="0.07539">
        <ele>57</ele>
        <time>2018-03-04T11:01:06Z</time>
      </trkpt>
      <trkpt lat="47.31562" lon="0.07533">
        <ele>57</ele>
        <time>2018-03-04T11:01:08Z</time>
      </trkpt>
      <trkpt lat="47.31559" lon="0.07524">
        <ele>57</ele>
        <time>2018-03-04T11:01:11Z</time>
      </trkpt>
      <trkpt lat="47.31556" lon="0.07515">
        <ele>57</ele>
        <time>2018-03-04T11:01:14Z</time>
      </trkpt>
      <trkpt lat="47.31549" lon="0.075">
        <ele>58</ele>
        <time>2018-03-04T11:01:19Z</time>
      </trkpt>
      <trkpt lat="47.31549" lon="0.07497">
        <ele>58</ele>
        <time>2018-03-04T11:01:20Z</time>
      </trkpt>
      <trkpt lat="47.31543" lon="0.07479">
        <ele>58</ele>
        <time>2018-03-04T11:01:26Z</time>
      </trkpt>
      <trkpt lat="47.31539" lon="0.07466">
        <ele>58</ele>
        <time>2018-03-04T11:01:31Z</time>
      </trkpt>
      <trkpt lat="47.31532" lon="0.07449">
        <ele>58</ele>
        <time>2018-03-04T11:01:38Z</time>
      </trkpt>
      <trkpt lat="47.31524" lon="0.07428">
        <ele>59</ele>
        <time>2018-03-04T11:01:44Z</time>
      </trkpt>
      <trkpt lat="47.31523" lon="0.07421">
        <ele>59</ele>
        <time>2018-03-04T11:01:46Z</time>
      </trkpt>
      <trkpt lat="47.31516" lon="0.07398">
        <ele>60</ele>
        <time>2018-03-04T11:01:53Z</time>
      </trkpt>
      <trkpt lat="47.31512" lon="0.07385">
        <ele>60</ele>
        <time>2018-03-04T11:01:57Z</time>
      </trkpt>
      <trkpt lat="47.31511" lon="0.07378">
        <ele>60</ele>
        <time>2018-03-04T11:01:59Z</time>
      </trkpt>
      <trkpt lat="47.31499" lon="0.07351">
        <ele>61</ele>
        <time>2018-03-04T11:02:06Z</time>
      </trkpt>
      <trkpt lat="47.31492" lon="0.07326">
        <ele>61</ele>
        <time>2018-03-04T11:02:13Z</time>
      </trkpt>
      <trkpt lat="47.31482" lon="0.07303">
        <ele>62</ele>
        <time>2018-03-04T11:02:20Z</time>
      </trkpt>
      <trkpt lat="47.31477" lon="0.07286">
        <ele>62</ele>
        <time>2018-03-04T11:02:25Z</time>
      </trkpt>
      <trkpt lat="47.31472" lon="0.0727">
        <ele>62</ele>
        <time>2018-03-04T11:02:30Z</time>
      </trkpt>
      <trkpt lat="47.31465" lon="0.07252">
        <ele>62</ele>
        <time>2018-03-04T11:02:36Z</time>
      </trkpt>
      <trkpt lat="47.31457" lon="0.07228">
        <ele>64</ele>
        <time>2018-03-04T11:02:43Z</time>
      </trkpt>
      <trkpt lat="47.31449" lon="0.07208">
        <ele>64</ele>
        <time>2018-03-04T11:02:49Z</time>
      </trkpt>
      <trkpt lat="47.31441" lon="0.07188">
        <ele>65</ele>
        <time>2018-03-04T11:02:55Z</time>
      </trkpt>
      <trkpt lat="47.31438" lon="0.07177">
        <ele>65</ele>
        <time>2018-03-04T11:02:58Z</time>
      </trkpt>
      <trkpt lat="47.31436" lon="0.0717">
        <ele>65</ele>
        <time>2018-03-04T11:03:00Z</time>
      </trkpt>
      <trkpt lat="47.31428" lon="0.07154">
        <ele>67</ele>
        <time>2018-03-04T11:03:05Z</time>
      </trkpt>
      <trkpt lat="47.31425" lon="0.07151">
        <ele>67</ele>
        <time>2018-03-04T11:03:06Z</time>
      </trkpt>
      <trkpt lat="47.31417" lon="0.07137">
        <ele>65</ele>
        <time>2018-03-04T11:03:11Z</time>
      </trkpt>
      <trkpt lat="47.31409" lon="0.07111">
        <ele>65</ele>
        <time>2018-03-04T11:03:18Z</time>
      </trkpt>
      <trkpt lat="47.31403" lon="0.07087">
        <ele>66</ele>
        <time>2018-03-04T11:03:23Z</time>
      </trkpt>
      <trkpt lat="47.31399" lon="0.07064">
        <ele>66</ele>
        <time>2018-03-04T11:03:28Z</time>
      </trkpt>
      <trkpt lat="47.31391" lon="0.07045">
        <ele>66</ele>
        <time>2018-03-04T11:03:33Z</time>
      </trkpt>
      <trkpt lat="47.31382" lon="0.07025">
        <ele>65</ele>
        <time>2018-03-04T11:03:39Z</time>
      </trkpt>
      <trkpt lat="47.31374" lon="0.0701">
        <ele>65</ele>
        <time>2018-03-04T11:03:43Z</time>
      </trkpt>
      <trkpt lat="47.31365" lon="0.06981">
        <ele>66</ele>
        <time>2018-03-04T11:03:50Z</time>
      </trkpt>
      <trkpt lat="47.31358" lon="0.06955">
        <ele>66</ele>
        <time>2018-03-04T11:03:57Z</time>
      </trkpt>
      <trkpt lat="47.31346" lon="0.06928">
        <ele>65</ele>
        <time>2018-03-04T11:04:03Z</time>
      </trkpt>
      <trkpt lat="47.31344" lon="0.06922">
        <ele>65</ele>
        <time>2018-03-04T11:04:04Z</time>
      </trkpt>
      <trkpt lat="47.31336" lon="0.06897">
        <ele>67</ele>
        <time>2018-03-04T11:04:08Z</time>
      </trkpt>
      <trkpt lat="47.31321" lon="0.06855">
        <ele>63</ele>
        <time>2018-03-04T11:04:15Z</time>
      </trkpt>
      <trkpt lat="47.31304" lon="0.06812">
        <ele>64</ele>
        <time>2018-03-04T11:04:23Z</time>
      </trkpt>
      <trkpt lat="47.31292" lon="0.06777">
        <ele>63</ele>
        <time>2018-03-04T11:04:29Z</time>
      </trkpt>
      <trkpt lat="47.3128" lon="0.06742">
        <ele>64</ele>
        <time>2018-03-04T11:04:36Z</time>
      </trkpt>
      <trkpt lat="47.31266" lon="0.067">
        <ele>65</ele>
        <time>2018-03-04T11:04:43Z</time>
      </trkpt>
      <trkpt lat="47.31256" lon="0.0667">
        <ele>64</ele>
        <time>2018-03-04T11:04:49Z</time>
      </trkpt>
      <trkpt lat="47.31255" lon="0.06666">
        <ele>64</ele>
        <time>2018-03-04T11:04:50Z</time>
      </trkpt>
      <trkpt lat="47.31251" lon="0.06652">
        <ele>65</ele>
        <time>2018-03-04T11:04:55Z</time>
      </trkpt>
      <trkpt lat="47.31247" lon="0.06637">
        <ele>61</ele>
        <time>2018-03-04T11:05:13Z</time>
      </trkpt>
      <trkpt lat="47.31247" lon="0.06634">
        <ele>61</ele>
        <time>2018-03-04T11:05:14Z</time>
      </trkpt>
      <trkpt lat="47.31247" lon="0.06629">
        <ele>61</ele>
        <time>2018-03-04T11:05:16Z</time>
      </trkpt>
      <trkpt lat="47.31249" lon="0.06618">
        <ele>61</ele>
        <time>2018-03-04T11:05:19Z</time>
      </trkpt>
      <trkpt lat="47.3125" lon="0.06607">
        <ele>62</ele>
        <time>2018-03-04T11:05:22Z</time>
      </trkpt>
      <trkpt lat="47.31252" lon="0.06595">
        <ele>65</ele>
        <time>2018-03-04T11:05:26Z</time>
      </trkpt>
      <trkpt lat="47.31251" lon="0.0657">
        <ele>66</ele>
        <time>2018-03-04T11:05:32Z</time>
      </trkpt>
      <trkpt lat="47.31247" lon="0.06551">
        <ele>64</ele>
        <time>2018-03-04T11:05:35Z</time>
      </trkpt>
      <trkpt lat="47.31244" lon="0.06542">
        <ele>64</ele>
        <time>2018-03-04T11:05:37Z</time>
      </trkpt>
      <trkpt lat="47.3124" lon="0.06509">
        <ele>66</ele>
        <time>2018-03-04T11:05:43Z</time>
      </trkpt>
      <trkpt lat="47.3124" lon="0.06486">
        <ele>67</ele>
        <time>2018-03-04T11:05:48Z</time>
      </trkpt>
      <trkpt lat="47.31239" lon="0.06481">
        <ele>67</ele>
        <time>2018-03-04T11:05:49Z</time>
      </trkpt>
      <trkpt lat="47.31237" lon="0.06452">
        <ele>67</ele>
        <time>2018-03-04T11:05:55Z</time>
      </trkpt>
      <trkpt lat="47.31236" lon="0.06431">
        <ele>68</ele>
        <time>2018-03-04T11:06:01Z</time>
      </trkpt>
      <trkpt lat="47.31236" lon="0.06412">
        <ele>68</ele>
        <time>2018-03-04T11:06:06Z</time>
      </trkpt>
      <trkpt lat="47.31236" lon="0.06384">
        <ele>67</ele>
        <time>2018-03-04T11:06:13Z</time>
      </trkpt>
      <trkpt lat="47.31236" lon="0.06365">
        <ele>67</ele>
        <time>2018-03-04T11:06:18Z</time>
      </trkpt>
      <trkpt lat="47.31236" lon="0.06342">
        <ele>67</ele>
        <time>2018-03-04T11:06:24Z</time>
      </trkpt>
      <trkpt lat="47.31236" lon="0.0632">
        <ele>66</ele>
        <time>2018-03-04T11:06:30Z</time>
      </trkpt>
      <trkpt lat="47.31237" lon="0.06316">
        <ele>66</ele>
        <time>2018-03-04T11:06:32Z</time>
      </trkpt>
      <trkpt lat="47.3124" lon="0.06314">
        <ele>66</ele>
        <time>2018-03-04T11:06:35Z</time>
      </trkpt>
      <trkpt lat="47.31253" lon="0.06317">
        <ele>68</ele>
        <time>2018-03-04T11:06:41Z</time>
      </trkpt>
      <trkpt lat="47.3127" lon="0.06322">
        <ele>69</ele>
        <time>2018-03-04T11:06:48Z</time>
      </trkpt>
      <trkpt lat="47.31283" lon="0.06323">
        <ele>69</ele>
        <time>2018-03-04T11:06:54Z</time>
      </trkpt>
      <trkpt lat="47.31298" lon="0.06316">
        <ele>70</ele>
        <time>2018-03-04T11:07:01Z</time>
      </trkpt>
      <trkpt lat="47.3131" lon="0.06304">
        <ele>70</ele>
        <time>2018-03-04T11:07:09Z</time>
      </trkpt>
      <trkpt lat="47.31312" lon="0.06303">
        <ele>70</ele>
        <time>2018-03-04T11:07:10Z</time>
      </trkpt>
      <trkpt lat="47.31316" lon="0.063">
        <ele>70</ele>
        <time>2018-03-04T11:07:15Z</time>
      </trkpt>
      <trkpt lat="47.31323" lon="0.06295">
        <ele>70</ele>
        <time>2018-03-04T11:13:23Z</time>
      </trkpt>
      <trkpt lat="47.31325" lon="0.06295">
        <ele>70</ele>
        <time>2018-03-04T11:13:24Z</time>
      </trkpt>
      <trkpt lat="47.31327" lon="0.06294">
        <ele>70</ele>
        <time>2018-03-04T11:13:25Z</time>
      </trkpt>
      <trkpt lat="47.31335" lon="0.06289">
        <ele>73</ele>
        <time>2018-03-04T11:13:30Z</time>
      </trkpt>
      <trkpt lat="47.31336" lon="0.06289">
        <ele>73</ele>
        <time>2018-03-04T11:13:31Z</time>
      </trkpt>
      <trkpt lat="47.31348" lon="0.06285">
        <ele>73</ele>
        <time>2018-03-04T11:13:37Z</time>
      </trkpt>
      <trkpt lat="47.31352" lon="0.06285">
        <ele>73</ele>
        <time>2018-03-04T11:13:39Z</time>
      </trkpt>
      <trkpt lat="47.31362" lon="0.06284">
        <ele>73</ele>
        <time>2018-03-04T11:13:43Z</time>
      </trkpt>
      <trkpt lat="47.31367" lon="0.06285">
        <ele>74</ele>
        <time>2018-03-04T11:13:45Z</time>
      </trkpt>
      <trkpt lat="47.31378" lon="0.06287">
        <ele>74</ele>
        <time>2018-03-04T11:13:50Z</time>
      </trkpt>
      <trkpt lat="47.3138" lon="0.06287">
        <ele>74</ele>
        <time>2018-03-04T11:13:51Z</time>
      </trkpt>
      <trkpt lat="47.31389" lon="0.0629">
        <ele>74</ele>
        <time>2018-03-04T11:13:55Z</time>
      </trkpt>
      <trkpt lat="47.31393" lon="0.06292">
        <ele>74</ele>
        <time>2018-03-04T11:13:57Z</time>
      </trkpt>
      <trkpt lat="47.31403" lon="0.06297">
        <ele>75</ele>
        <time>2018-03-04T11:14:02Z</time>
      </trkpt>
      <trkpt lat="47.31406" lon="0.06299">
        <ele>75</ele>
        <time>2018-03-04T11:14:04Z</time>
      </trkpt>
      <trkpt lat="47.31415" lon="0.06303">
        <ele>75</ele>
        <time>2018-03-04T11:14:10Z</time>
      </trkpt>
      <trkpt lat="47.31424" lon="0.0631">
        <ele>79</ele>
        <time>2018-03-04T11:14:16Z</time>
      </trkpt>
      <trkpt lat="47.31431" lon="0.06316">
        <ele>80</ele>
        <time>2018-03-04T11:14:21Z</time>
      </trkpt>
      <trkpt lat="47.31436" lon="0.06324">
        <ele>80</ele>
        <time>2018-03-04T11:14:27Z</time>
      </trkpt>
      <trkpt lat="47.31437" lon="0.06325">
        <ele>80</ele>
        <time>2018-03-04T11:14:29Z</time>
      </trkpt>
      <trkpt lat="47.31527" lon="0.06424">
        <ele>87</ele>
        <time>2018-03-04T11:15:53Z</time>
      </trkpt>
      <trkpt lat="47.31528" lon="0.06424">
        <ele>87</ele>
        <time>2018-03-04T11:15:54Z</time>
      </trkpt>
      <trkpt lat="47.3153" lon="0.06424">
        <ele>88</ele>
        <time>2018-03-04T11:15:56Z</time>
      </trkpt>
      <trkpt lat="47.31536" lon="0.06421">
        <ele>88</ele>
        <time>2018-03-04T11:16:01Z</time>
      </trkpt>
      <trkpt lat="47.31544" lon="0.06417">
        <ele>89</ele>
        <time>2018-03-04T11:16:07Z</time>
      </trkpt>
      <trkpt lat="47.31554" lon="0.06409">
        <ele>91</ele>
        <time>2018-03-04T11:16:15Z</time>
      </trkpt>
      <trkpt lat="47.3156" lon="0.06407">
        <ele>91</ele>
        <time>2018-03-04T11:16:20Z</time>
      </trkpt>
      <trkpt lat="47.31568" lon="0.06402">
        <ele>92</ele>
        <time>2018-03-04T11:16:26Z</time>
      </trkpt>
      <trkpt lat="47.31577" lon="0.06397">
        <ele>92</ele>
        <time>2018-03-04T11:16:32Z</time>
      </trkpt>
      <trkpt lat="47.31585" lon="0.06394">
        <ele>96</ele>
        <time>2018-03-04T11:16:37Z</time>
      </trkpt>
      <trkpt lat="47.31586" lon="0.06391">
        <ele>96</ele>
        <time>2018-03-04T11:16:39Z</time>
      </trkpt>
      <trkpt lat="47.316" lon="0.06379">
        <ele>97</ele>
        <time>2018-03-04T11:16:51Z</time>
      </trkpt>
      <trkpt lat="47.31603" lon="0.06377">
        <ele>97</ele>
        <time>2018-03-04T11:16:52Z</time>
      </trkpt>
      <trkpt lat="47.31611" lon="0.06364">
        <ele>98</ele>
        <time>2018-03-04T11:16:58Z</time>
      </trkpt>
      <trkpt lat="47.31622" lon="0.0635">
        <ele>98</ele>
        <time>2018-03-04T11:17:05Z</time>
      </trkpt>
      <trkpt lat="47.31631" lon="0.06339">
        <ele>99</ele>
        <time>2018-03-04T11:17:11Z</time>
      </trkpt>
      <trkpt lat="47.31641" lon="0.06331">
        <ele>101</ele>
        <time>2018-03-04T11:17:17Z</time>
      </trkpt>
      <trkpt lat="47.31651" lon="0.06319">
        <ele>101</ele>
        <time>2018-03-04T11:17:24Z</time>
      </trkpt>
      <trkpt lat="47.3166" lon="0.06305">
        <ele>102</ele>
        <time>2018-03-04T11:17:31Z</time>
      </trkpt>
      <trkpt lat="47.31663" lon="0.06301">
        <ele>102</ele>
        <time>2018-03-04T11:17:33Z</time>
      </trkpt>
      <trkpt lat="47.31669" lon="0.06294">
        <ele>106</ele>
        <time>2018-03-04T11:17:37Z</time>
      </trkpt>
      <trkpt lat="47.31682" lon="0.06276">
        <ele>107</ele>
        <time>2018-03-04T11:17:46Z</time>
      </trkpt>
      <trkpt lat="47.31695" lon="0.06264">
        <ele>107</ele>
        <time>2018-03-04T11:17:54Z</time>
      </trkpt>
      <trkpt lat="47.31705" lon="0.06258">
        <ele>108</ele>
        <time>2018-03-04T11:18:00Z</time>
      </trkpt>
      <trkpt lat="47.31714" lon="0.06254">
        <ele>108</ele>
        <time>2018-03-04T11:18:06Z</time>
      </trkpt>
      <trkpt lat="47.31725" lon="0.06249">
        <ele>111</ele>
        <time>2018-03-04T11:18:14Z</time>
      </trkpt>
      <trkpt lat="47.31732" lon="0.06244">
        <ele>111</ele>
        <time>2018-03-04T11:18:20Z</time>
      </trkpt>
      <trkpt lat="47.31739" lon="0.06238">
        <ele>111</ele>
        <time>2018-03-04T11:18:25Z</time>
      </trkpt>
      <trkpt lat="47.31751" lon="0.06229">
        <ele>112</ele>
        <time>2018-03-04T11:18:32Z</time>
      </trkpt>
      <trkpt lat="47.31765" lon="0.06218">
        <ele>112</ele>
        <time>2018-03-04T11:18:38Z</time>
      </trkpt>
      <trkpt lat="47.31779" lon="0.0621">
        <ele>111</ele>
        <time>2018-03-04T11:18:42Z</time>
      </trkpt>
      <trkpt lat="47.31783" lon="0.06207">
        <ele>111</ele>
        <time>2018-03-04T11:18:43Z</time>
      </trkpt>
      <trkpt lat="47.31804" lon="0.06193">
        <ele>111</ele>
        <time>2018-03-04T11:18:48Z</time>
      </trkpt>
      <trkpt lat="47.31816" lon="0.06182">
        <ele>111</ele>
        <time>2018-03-04T11:18:53Z</time>
      </trkpt>
      <trkpt lat="47.31837" lon="0.06164">
        <ele>110</ele>
        <time>2018-03-04T11:18:59Z</time>
      </trkpt>
      <trkpt lat="47.31862" lon="0.06145">
        <ele>109</ele>
        <time>2018-03-04T11:19:06Z</time>
      </trkpt>
      <trkpt lat="47.31866" lon="0.06142">
        <ele>109</ele>
        <time>2018-03-04T11:19:07Z</time>
      </trkpt>
      <trkpt lat="47.31879" lon="0.06133">
        <ele>109</ele>
        <time>2018-03-04T11:19:10Z</time>
      </trkpt>
      <trkpt lat="47.319" lon="0.06119">
        <ele>109</ele>
        <time>2018-03-04T11:19:14Z</time>
      </trkpt>
      <trkpt lat="47.31908" lon="0.06113">
        <ele>109</ele>
        <time>2018-03-04T11:19:16Z</time>
      </trkpt>
      <trkpt lat="47.31919" lon="0.06105">
        <ele>108</ele>
        <time>2018-03-04T11:19:19Z</time>
      </trkpt>
      <trkpt lat="47.31925" lon="0.06099">
        <ele>108</ele>
        <time>2018-03-04T11:19:21Z</time>
      </trkpt>
      <trkpt lat="47.31927" lon="0.06085">
        <ele>108</ele>
        <time>2018-03-04T11:19:24Z</time>
      </trkpt>
      <trkpt lat="47.31926" lon="0.06081">
        <ele>109</ele>
        <time>2018-03-04T11:19:25Z</time>
      </trkpt>
      <trkpt lat="47.31913" lon="0.06069">
        <ele>109</ele>
      </trkpt>
      <trkpt lat="47.31903" lon="0.06071">
        <ele>109</ele>
      </trkpt>
      <trkpt lat="47.31892" lon="0.06071">
        <ele>110</ele>
      </trkpt>
      <trkpt lat="47.31883" lon="0.06066">
        <ele>110</ele>
      </trkpt>
      <trkpt lat="47.31876" lon="0.06058">
        <ele>111</ele>
      </trkpt>
      <trkpt lat="47.31867" lon="0.06051">
        <ele>111</ele>
      </trkpt>
      <trkpt lat="47.31858" lon="0.06045">
        <ele>111</ele>
      </trkpt>
      <trkpt lat="47.31849" lon="0.0604">
        <ele>111</ele>
      </trkpt>
      <trkpt lat="47.31841" lon="0.06032">
        <ele>112</ele>
      </trkpt>
      <trkpt lat="47.31832" lon="0.06027">
        <ele>113</ele>
      </trkpt>
      <trkpt lat="47.31825" lon="0.06025">
        <ele>113</ele>
      </trkpt>
    </trkseg>
  </trk>
</gpx>